Darstellungsparameter: Aktuell verwendete Einstellungen:
Skalierung der Graphiken ... ?
xyx+y,   Skalierungsfaktor:      Skalierung: Modus: x, Faktor: 1
Darstellungszeitraum ... ?
Vom - - bis: - -   Zeitraum: 18.02.2008 - 17.05.2008
Min/Max/Avg-Anzeige ... ?
Zeige MMA aktuell
Zeige MMA Monat
Zeige MMA alles
Zeige --A aktuell
Zeige --A Monat
Zeige --A alles
Keine MMA-Anzeige
MMA:
Average (ber die Originaldaten)
MMA-Basis: 17.04.2019 - 19.05.2019
Quicknavigation für Darstellung... ?
Tage:      1T, 2T, 3T, 5T -1T -2T -3T -5T +1T +2T +3T +5T
Wochen: 1W, 2W, 3W -1W -2W -3W +1W +2W +3W
Monate: 1M, 3M, 6M -1M -3M -6M +1M +3M +6M
Jahre:    1J, 3J, 5J, 10J -1J -3J -5J -10J +1J +3J +5J +10J
Nutze für die Darstellung ... ?
Originaldaten oder Mittelwerte auf ...
Stundenbasis Tagesbasis Wochenbasis
Monatsbasis Jahresbasis      Datenbasis: Original-Daten
Darstellen als:
Statistik (Auto) Statistik J:M      Darstellung:
Zur Graphik,    zurück zur Übersicht aller Sensoren.
 
Tabellarische Datenbersicht: ?
 
Sensor: Nr:Datum:Temp:Abs-Feuchte:Windchill:Wind:
Aussen-T/F 1 18-02-2008 00:04:04 -2.6 C 2.06 g/m*3 -2.6 C 0 km/h
2 18-02-2008 00:16:04 -2.7 C 2.09 g/m*3 -2.7 C 0 km/h
3 18-02-2008 00:28:04 -2.8 C 2.07 g/m*3 -2.8 C 0 km/h
4 18-02-2008 00:40:04 -3 C 2.08 g/m*3 -3 C 0 km/h
5 18-02-2008 00:52:04 -3.3 C 2.08 g/m*3 -3.3 C 0 km/h
6 18-02-2008 01:04:05 -3.3 C 2.08 g/m*3 -3.3 C 0 km/h
7 18-02-2008 01:16:05 -3.3 C 2.08 g/m*3 -3.3 C 0 km/h
8 18-02-2008 01:28:05 -3.5 C 2.09 g/m*3 -3.5 C 0 km/h
9 18-02-2008 01:40:05 -3.8 C 2.04 g/m*3 -3.8 C 0 km/h
10 18-02-2008 01:52:05 -3.7 C 2.09 g/m*3 -3.7 C 0 km/h
11 18-02-2008 02:04:05 -3.6 C 2.11 g/m*3 -3.6 C 0 km/h
12 18-02-2008 02:16:05 -3.8 C 2.08 g/m*3 -3.8 C 0 km/h
13 18-02-2008 02:28:05 -3.9 C 2.1 g/m*3 -3.9 C 0 km/h
14 18-02-2008 02:40:05 -3.9 C 2.1 g/m*3 -3.9 C 0 km/h
15 18-02-2008 02:52:05 -4 C 2.12 g/m*3 -4 C 0 km/h
16 18-02-2008 03:04:05 -4.1 C 2.11 g/m*3 -4.1 C 0 km/h
17 18-02-2008 03:16:05 -4.1 C 2.11 g/m*3 -4.1 C 0 km/h
18 18-02-2008 03:28:05 -4.3 C 2.08 g/m*3 -4.3 C 0 km/h
19 18-02-2008 03:40:05 -4.2 C 2.13 g/m*3 -4.2 C 0 km/h
20 18-02-2008 03:52:05 -4.6 C 2.03 g/m*3 -4.6 C 0 km/h
21 18-02-2008 04:04:05 -4.4 C 2.1 g/m*3 -4.4 C 0 km/h
22 18-02-2008 04:16:05 -4.5 C 2.08 g/m*3 -4.5 C 0 km/h
23 18-02-2008 04:28:05 -4.6 C 2.07 g/m*3 -4.6 C 0 km/h
24 18-02-2008 04:40:05 -4.7 C 2.05 g/m*3 -4.7 C 0 km/h
25 18-02-2008 04:52:05 -4.9 C 2.06 g/m*3 -4.9 C 0 km/h
Sensor: Nr:Datum:Temp:Abs-Feuchte:Windchill:Wind:
Aussen-T/F 26 18-02-2008 05:04:06 -4.9 C 2.13 g/m*3 -4.9 C 0 km/h
27 18-02-2008 05:16:06 -5.1 C 2.06 g/m*3 -5.1 C 0 km/h
28 18-02-2008 05:28:06 -5.3 C 2.03 g/m*3 -5.3 C 0 km/h
29 18-02-2008 05:40:03 -5.4 C 2.02 g/m*3 -5.4 C 0 km/h
30 18-02-2008 05:52:02 -5.3 C 2.1 g/m*3 -5.3 C 0 km/h
31 18-02-2008 06:04:02 -5.3 C 2.17 g/m*3 -5.3 C 0 km/h
32 18-02-2008 06:16:01 -5.5 C 2.13 g/m*3 -5.5 C 0 km/h
33 18-02-2008 06:28:01 -5.4 C 2.15 g/m*3 -5.4 C 0 km/h
34 18-02-2008 06:40:01 -5.6 C 2.09 g/m*3 -5.6 C 0 km/h
35 18-02-2008 06:52:01 -5.5 C 2.13 g/m*3 -5.5 C 0 km/h
36 18-02-2008 07:04:01 -5.6 C 2.12 g/m*3 -5.6 C 0 km/h
37 18-02-2008 07:16:02 -5.9 C 2.04 g/m*3 -5.9 C 0 km/h
38 18-02-2008 07:28:02 -5.8 C 2.09 g/m*3 -5.8 C 0 km/h
39 18-02-2008 07:40:02 -5.7 C 2.14 g/m*3 -5.7 C 0 km/h
40 18-02-2008 07:52:02 -5.8 C 2.12 g/m*3 -5.8 C 0 km/h
41 18-02-2008 08:04:02 -5.8 C 2.12 g/m*3 -5.8 C 0 km/h
42 18-02-2008 08:16:02 -5.7 C 2.17 g/m*3 -5.7 C 0 km/h
43 18-02-2008 08:28:02 -5.5 C 2.2 g/m*3 -5.5 C 0 km/h
44 18-02-2008 08:40:02 -5.5 C 2.17 g/m*3 -5.5 C 0 km/h
45 18-02-2008 08:52:02 -5.4 C 2.18 g/m*3 -5.4 C 0 km/h
46 18-02-2008 09:04:02 -5.3 C 2.2 g/m*3 -5.3 C 0 km/h
47 18-02-2008 09:16:01 -5 C 2.25 g/m*3 -5 C 0 km/h
48 18-02-2008 09:28:01 -4.8 C 2.28 g/m*3 -4.8 C 0 km/h
49 18-02-2008 09:40:01 -4.6 C 2.28 g/m*3 -4.6 C 0 km/h
50 18-02-2008 09:52:02 -4.3 C 2.33 g/m*3 -4.3 C 0 km/h
Sensor: Nr:Datum:Temp:Abs-Feuchte:Windchill:Wind:
Aussen-T/F 51 18-02-2008 10:04:02 -4 C 2.34 g/m*3 -4 C 0 km/h
52 18-02-2008 10:16:02 -3.8 C 2.34 g/m*3 -3.8 C 0 km/h
53 18-02-2008 10:28:02 -3.4 C 2.41 g/m*3 -3.4 C 0 km/h
54 18-02-2008 10:40:02 -2.7 C 2.53 g/m*3 -2.7 C 0 km/h
55 18-02-2008 10:52:02 -2.2 C 2.54 g/m*3 -2.2 C 0 km/h
56 18-02-2008 11:04:02 -1.7 C 2.58 g/m*3 -1.7 C 0 km/h
57 18-02-2008 11:16:02 -1.3 C 2.61 g/m*3 -1.3 C 0 km/h
58 18-02-2008 11:28:02 -0.4 C 2.64 g/m*3 -0.4 C 0 km/h
59 18-02-2008 11:40:02 0 C 2.52 g/m*3 0 C 0 km/h
60 18-02-2008 11:52:02 0.4 C 2.49 g/m*3 0.4 C 0 km/h
61 18-02-2008 12:04:02 0.9 C 2.53 g/m*3 0.9 C 0 km/h
62 18-02-2008 12:16:02 1.7 C 2.45 g/m*3 1.7 C 0 km/h
63 18-02-2008 12:28:02 2.1 C 2.46 g/m*3 2.1 C 0 km/h
64 18-02-2008 12:40:02 2.8 C 2.35 g/m*3 2.8 C 0 km/h
65 18-02-2008 12:52:02 3.8 C 2.38 g/m*3 3.8 C 0 km/h
66 18-02-2008 13:04:02 5 C 2.11 g/m*3 5 C 0 km/h
67 18-02-2008 13:16:02 5.9 C 1.95 g/m*3 5.9 C 0 km/h
68 18-02-2008 13:28:02 6.9 C 1.54 g/m*3 6.9 C 0 km/h
69 18-02-2008 13:40:02 7.3 C 1.58 g/m*3 7.3 C 0 km/h
70 18-02-2008 13:52:01 7.9 C 1.64 g/m*3 7.9 C 0 km/h
71 18-02-2008 14:04:01 8.1 C 1.66 g/m*3 8.1 C 0 km/h
72 18-02-2008 14:16:01 8.2 C 1.67 g/m*3 8.2 C 0 km/h
73 18-02-2008 14:28:01 8.7 C 1.73 g/m*3 8.7 C 0 km/h
74 18-02-2008 14:40:02 9.3 C 1.8 g/m*3 9.3 C 0 km/h
75 18-02-2008 14:52:02 9.7 C 1.84 g/m*3 9.7 C 0 km/h
Sensor: Nr:Datum:Temp:Abs-Feuchte:Windchill:Wind:
Aussen-T/F 76 18-02-2008 15:04:02 9.8 C 1.86 g/m*3 9.8 C 0 km/h
77 18-02-2008 15:16:02 10.2 C 1.9 g/m*3 10.2 C 0 km/h
78 18-02-2008 15:28:02 9.8 C 1.86 g/m*3 9.8 C 0 km/h
79 18-02-2008 15:40:02 9.6 C 1.83 g/m*3 9.6 C 0 km/h
80 18-02-2008 15:52:02 9.8 C 1.86 g/m*3 9.8 C 0 km/h
81 18-02-2008 16:04:02 10.1 C 1.89 g/m*3 10.1 C 0 km/h
82 18-02-2008 16:16:01 9.5 C 1.82 g/m*3 9.5 C 0 km/h
83 18-02-2008 16:28:01 9 C 1.76 g/m*3 9 C 0 km/h
84 18-02-2008 16:40:01 8.8 C 1.74 g/m*3 8.8 C 0 km/h
85 18-02-2008 16:52:01 8.1 C 1.66 g/m*3 8.1 C 0 km/h
86 18-02-2008 17:04:02 7.8 C 1.63 g/m*3 7.8 C 0 km/h
87 18-02-2008 17:16:02 7.2 C 1.57 g/m*3 7.2 C 0 km/h
88 18-02-2008 17:28:02 6.5 C 1.5 g/m*3 6.5 C 0 km/h
89 18-02-2008 17:40:01 5.6 C 1.41 g/m*3 5.6 C 0 km/h
90 18-02-2008 17:52:02 4.7 C 1.33 g/m*3 4.7 C 0 km/h
91 18-02-2008 18:04:02 4.2 C 1.29 g/m*3 4.2 C 0 km/h
92 18-02-2008 18:16:01 3.4 C 1.22 g/m*3 3.4 C 0 km/h
93 18-02-2008 18:28:01 2.9 C 1.18 g/m*3 2.9 C 0 km/h
94 18-02-2008 18:40:02 2.4 C 1.43 g/m*3 2.4 C 0 km/h
95 18-02-2008 18:52:02 2.2 C 1.52 g/m*3 2.2 C 0 km/h
96 18-02-2008 19:04:01 2 C 1.5 g/m*3 2 C 0 km/h
97 18-02-2008 19:16:01 1.5 C 1.61 g/m*3 1.5 C 0 km/h
98 18-02-2008 19:28:01 1.1 C 1.78 g/m*3 1.1 C 0 km/h
99 18-02-2008 19:40:01 0.8 C 1.64 g/m*3 0.8 C 0 km/h
100 18-02-2008 19:52:02 0.6 C 1.72 g/m*3 0.6 C 0 km/h
Sensor: Nr:Datum:Temp:Abs-Feuchte:Windchill:Wind:
Aussen-T/F 101 18-02-2008 20:04:02 0.5 C 1.5 g/m*3 0.5 C 0 km/h
102 18-02-2008 20:16:02 0.3 C 1.58 g/m*3 0.3 C 0 km/h
103 18-02-2008 20:28:03 0.1 C 1.56 g/m*3 0.1 C 0 km/h
104 18-02-2008 20:40:03 -0.2 C 1.58 g/m*3 -0.2 C 0 km/h
105 18-02-2008 20:52:02 -0.2 C 1.53 g/m*3 -0.2 C 0 km/h
106 18-02-2008 21:04:02 -0.2 C 1.58 g/m*3 -0.2 C 0 km/h
107 18-02-2008 21:16:02 -0.6 C 1.63 g/m*3 -0.6 C 0 km/h
108 18-02-2008 21:28:02 -0.8 C 1.7 g/m*3 -0.8 C 0 km/h
109 18-02-2008 21:40:03 -1 C 1.81 g/m*3 -1 C 0 km/h
110 18-02-2008 21:52:01 -1.2 C 1.83 g/m*3 -1.2 C 0 km/h
111 18-02-2008 22:04:02 -1.3 C 1.86 g/m*3 -1.3 C 0 km/h
112 18-02-2008 22:16:02 -1.3 C 1.9 g/m*3 -1.3 C 0 km/h
113 18-02-2008 22:28:02 -1.5 C 1.88 g/m*3 -1.5 C 0 km/h
114 18-02-2008 22:40:02 -1.6 C 1.78 g/m*3 -1.6 C 0 km/h
115 18-02-2008 22:52:02 -1.8 C 1.71 g/m*3 -1.8 C 0 km/h
116 18-02-2008 23:04:02 -1.8 C 1.75 g/m*3 -1.8 C 0 km/h
117 18-02-2008 23:16:02 -1.9 C 1.7 g/m*3 -1.9 C 0 km/h
118 18-02-2008 23:28:02 -2.1 C 1.67 g/m*3 -2.1 C 0 km/h
119 18-02-2008 23:40:02 -2.3 C 1.65 g/m*3 -2.3 C 0 km/h
120 18-02-2008 23:52:02 -2.3 C 1.69 g/m*3 -2.3 C 0 km/h
121 19-02-2008 00:04:02 -2.4 C 1.68 g/m*3 -2.4 C 0 km/h
122 19-02-2008 00:16:02 -2.4 C 1.72 g/m*3 -2.4 C 0 km/h
123 19-02-2008 00:28:02 -2.5 C 1.75 g/m*3 -2.5 C 0 km/h
124 19-02-2008 00:40:02 -2.6 C 1.74 g/m*3 -2.6 C 0 km/h
125 19-02-2008 00:52:02 -2.7 C 1.77 g/m*3 -2.7 C 0 km/h
Sensor: Nr:Datum:Temp:Abs-Feuchte:Windchill:Wind:
Aussen-T/F 126 19-02-2008 01:04:02 -2.4 C 1.84 g/m*3 -2.4 C 0 km/h
127 19-02-2008 01:16:03 -2.4 C 1.84 g/m*3 -2.4 C 0 km/h
128 19-02-2008 01:28:03 -2.6 C 1.82 g/m*3 -2.6 C 0 km/h
129 19-02-2008 01:40:03 -2.8 C 1.79 g/m*3 -2.8 C 0 km/h
130 19-02-2008 01:52:03 -3.1 C 1.79 g/m*3 -3.1 C 0 km/h
131 19-02-2008 02:04:03 -3.1 C 1.79 g/m*3 -3.1 C 0 km/h
132 19-02-2008 02:16:03 -3.1 C 1.83 g/m*3 -3.1 C 0 km/h
133 19-02-2008 02:28:03 -3.2 C 1.82 g/m*3 -3.2 C 0 km/h
134 19-02-2008 02:40:03 -3.3 C 1.81 g/m*3 -3.3 C 0 km/h
135 19-02-2008 02:52:03 -3.4 C 1.83 g/m*3 -3.4 C 0 km/h
136 19-02-2008 03:04:03 -3.5 C 1.82 g/m*3 -3.5 C 0 km/h
137 19-02-2008 03:16:03 -3.7 C 1.79 g/m*3 -3.7 C 0 km/h
138 19-02-2008 03:28:03 -3.8 C 1.82 g/m*3 -3.8 C 0 km/h
139 19-02-2008 03:40:03 -4 C 1.83 g/m*3 -4 C 0 km/h
140 19-02-2008 03:52:03 -4.1 C 1.82 g/m*3 -4.1 C 0 km/h
141 19-02-2008 04:04:03 -4.1 C 1.82 g/m*3 -4.1 C 0 km/h
142 19-02-2008 04:16:03 -4.1 C 1.89 g/m*3 -4.1 C 0 km/h
143 19-02-2008 04:28:03 -4.2 C 1.88 g/m*3 -4.2 C 0 km/h
144 19-02-2008 04:40:03 -4.2 C 1.91 g/m*3 -4.2 C 0 km/h
145 19-02-2008 04:52:03 -4.4 C 1.88 g/m*3 -4.4 C 0 km/h
146 19-02-2008 05:04:03 -4.4 C 1.88 g/m*3 -4.4 C 0 km/h
147 19-02-2008 05:16:01 -4.4 C 1.92 g/m*3 -4.4 C 0 km/h
148 19-02-2008 05:28:01 -4.4 C 1.92 g/m*3 -4.4 C 0 km/h
149 19-02-2008 05:40:02 -4.5 C 1.94 g/m*3 -4.5 C 0 km/h
150 19-02-2008 05:52:01 -4.6 C 1.93 g/m*3 -4.6 C 0 km/h
Sensor: Nr:Datum:Temp:Abs-Feuchte:Windchill:Wind:
Aussen-T/F 151 19-02-2008 06:04:02 -4.7 C 1.91 g/m*3 -4.7 C 0 km/h
152 19-02-2008 06:16:01 -4.9 C 1.89 g/m*3 -4.9 C 0 km/h
153 19-02-2008 06:28:01 -4.9 C 1.95 g/m*3 -4.9 C 0 km/h
154 19-02-2008 06:40:01 -4.7 C 2.05 g/m*3 -4.7 C 0 km/h
155 19-02-2008 06:52:01 -5 C 1.97 g/m*3 -5 C 0 km/h
156 19-02-2008 07:04:02 -5.1 C 1.96 g/m*3 -5.1 C 0 km/h
157 19-02-2008 07:16:01 -5 C 1.97 g/m*3 -5 C 0 km/h
158 19-02-2008 07:28:01 -5 C 1.97 g/m*3 -5 C 0 km/h
159 19-02-2008 07:40:01 -5.2 C 1.95 g/m*3 -5.2 C 0 km/h
160 19-02-2008 07:52:01 -5.1 C 1.99 g/m*3 -5.1 C 0 km/h
161 19-02-2008 08:04:02 -5.1 C 2.03 g/m*3 -5.1 C 0 km/h
162 19-02-2008 08:16:01 -5.1 C 2.03 g/m*3 -5.1 C 0 km/h
163 19-02-2008 08:28:01 -5 C 2.04 g/m*3 -5 C 0 km/h
164 19-02-2008 08:40:01 -5 C 2.04 g/m*3 -5 C 0 km/h
165 19-02-2008 08:52:01 -4.7 C 2.09 g/m*3 -4.7 C 0 km/h
166 19-02-2008 09:04:02 -4.6 C 2.1 g/m*3 -4.6 C 0 km/h
167 19-02-2008 09:16:01 -4.5 C 2.12 g/m*3 -4.5 C 0 km/h
168 19-02-2008 09:28:02 -4.2 C 2.13 g/m*3 -4.2 C 0 km/h
169 19-02-2008 09:40:01 -4.1 C 2.11 g/m*3 -4.1 C 0 km/h
170 19-02-2008 09:52:01 -3.9 C 2.1 g/m*3 -3.9 C 0 km/h
171 19-02-2008 10:04:01 -3.7 C 2.13 g/m*3 -3.7 C 0 km/h
172 19-02-2008 10:16:02 -3.4 C 2.18 g/m*3 -3.4 C 0 km/h
173 19-02-2008 10:28:02 -2.8 C 2.19 g/m*3 -2.8 C 0 km/h
174 19-02-2008 10:40:02 -2.2 C 2.24 g/m*3 -2.2 C 0 km/h
175 19-02-2008 10:52:02 -1.6 C 2.21 g/m*3 -1.6 C 0 km/h
Sensor: Nr:Datum:Temp:Abs-Feuchte:Windchill:Wind:
Aussen-T/F 176 19-02-2008 11:04:01 -1.1 C 2.24 g/m*3 -1.1 C 0 km/h
177 19-02-2008 11:16:01 -0.5 C 2.34 g/m*3 -0.5 C 0 km/h
178 19-02-2008 11:28:01 0.2 C 2.46 g/m*3 0.2 C 0 km/h
179 19-02-2008 11:40:02 0.8 C 2.51 g/m*3 0.8 C 0 km/h
180 19-02-2008 11:52:02 1.8 C 2.52 g/m*3 1.8 C 0 km/h
181 19-02-2008 12:04:01 1.9 C 2.54 g/m*3 1.9 C 0 km/h
182 19-02-2008 12:16:01 2.3 C 2.55 g/m*3 2.3 C 0 km/h
183 19-02-2008 12:28:01 2.9 C 2.66 g/m*3 2.9 C 0 km/h
184 19-02-2008 12:40:01 3.7 C 2.68 g/m*3 3.7 C 0 km/h
185 19-02-2008 12:52:01 4.4 C 2.74 g/m*3 4.4 C 0 km/h
186 19-02-2008 13:04:02 5.1 C 2.67 g/m*3 5.1 C 0 km/h
187 19-02-2008 13:16:01 5.7 C 2.63 g/m*3 5.7 C 0 km/h
188 19-02-2008 13:28:01 6.9 C 2.62 g/m*3 6.9 C 0 km/h
189 19-02-2008 13:40:01 7.6 C 2.58 g/m*3 7.6 C 0 km/h
190 19-02-2008 13:52:01 8.1 C 2.58 g/m*3 8.1 C 0 km/h
191 19-02-2008 14:04:02 8.7 C 2.59 g/m*3 8.7 C 0 km/h
192 19-02-2008 14:17:01 9.2 C 2.5 g/m*3 9.2 C 0 km/h
193 19-02-2008 14:29:01 9.6 C 2.47 g/m*3 9.6 C 0 km/h
194 19-02-2008 14:40:02 10.1 C 2.46 g/m*3 10.1 C 0 km/h
195 19-02-2008 14:52:02 10.1 C 2.36 g/m*3 10.1 C 0 km/h
196 19-02-2008 15:04:01 10.6 C 2.54 g/m*3 10.6 C 0 km/h
197 19-02-2008 15:17:01 11 C 2.5 g/m*3 11 C 0 km/h
198 19-02-2008 15:29:01 11.4 C 2.57 g/m*3 11.4 C 0 km/h
199 19-02-2008 15:40:02 11.3 C 2.55 g/m*3 11.3 C 0 km/h
200 19-02-2008 15:52:02 11.1 C 2.52 g/m*3 11.1 C 0 km/h
Sensor: Nr:Datum:Temp:Abs-Feuchte:Windchill:Wind:
Aussen-T/F 201 19-02-2008 16:04:02 10.9 C 2.49 g/m*3 10.9 C 0 km/h
202 19-02-2008 16:17:01 11 C 2.6 g/m*3 11 C 0 km/h
203 19-02-2008 16:28:01 11.6 C 2.7 g/m*3 11.6 C 0 km/h
204 19-02-2008 16:41:01 11.7 C 2.72 g/m*3 11.7 C 0 km/h
205 19-02-2008 16:53:01 11.2 C 2.53 g/m*3 11.2 C 0 km/h
206 19-02-2008 17:04:02 11.2 C 2.74 g/m*3 11.2 C 0 km/h
207 19-02-2008 17:17:01 10.7 C 2.75 g/m*3 10.7 C 0 km/h
208 19-02-2008 17:29:01 9.6 C 2.75 g/m*3 9.6 C 0 km/h
209 19-02-2008 17:41:01 8.6 C 2.92 g/m*3 8.6 C 0 km/h
210 19-02-2008 17:53:01 7.2 C 2.9 g/m*3 7.2 C 0 km/h
211 19-02-2008 18:05:01 6.6 C 3.02 g/m*3 6.6 C 0 km/h
212 19-02-2008 18:17:01 5.6 C 3.04 g/m*3 5.6 C 0 km/h
213 19-02-2008 18:29:01 5 C 3.06 g/m*3 5 C 0 km/h
214 19-02-2008 18:40:02 4.7 C 3.2 g/m*3 4.7 C 0 km/h
215 19-02-2008 18:53:01 4.5 C 3.29 g/m*3 4.5 C 0 km/h
216 19-02-2008 19:05:02 4.3 C 3.37 g/m*3 4.3 C 0 km/h
217 19-02-2008 19:17:01 3.8 C 3.39 g/m*3 3.8 C 0 km/h
218 19-02-2008 19:29:01 3.5 C 3.44 g/m*3 3.5 C 0 km/h
219 19-02-2008 19:41:01 3.3 C 3.52 g/m*3 3.3 C 0 km/h
220 19-02-2008 19:53:01 3 C 3.51 g/m*3 3 C 0 km/h
221 19-02-2008 20:05:02 2.7 C 3.5 g/m*3 2.7 C 0 km/h
222 19-02-2008 20:17:01 2.5 C 3.51 g/m*3 2.5 C 0 km/h
223 19-02-2008 20:29:01 2.4 C 3.54 g/m*3 2.4 C 0 km/h
224 19-02-2008 20:41:01 2.1 C 3.52 g/m*3 2.1 C 0 km/h
225 19-02-2008 20:53:01 1.8 C 3.51 g/m*3 1.8 C 0 km/h
Sensor: Nr:Datum:Temp:Abs-Feuchte:Windchill:Wind:
Aussen-T/F 226 19-02-2008 21:05:01 1.6 C 3.51 g/m*3 1.6 C 0 km/h
227 19-02-2008 21:17:01 1.3 C 3.44 g/m*3 1.3 C 0 km/h
228 19-02-2008 21:29:01 1.1 C 3.4 g/m*3 1.1 C 0 km/h
229 19-02-2008 21:41:02 1 C 3.43 g/m*3 1 C 0 km/h
230 19-02-2008 21:53:51 0.7 C 3.41 g/m*3 0.7 C 0 km/h
231 19-02-2008 22:05:52 0.4 C 3.34 g/m*3 0.4 C 0 km/h
232 19-02-2008 22:17:52 0.4 C 3.39 g/m*3 0.4 C 0 km/h
233 19-02-2008 22:29:52 0.2 C 3.39 g/m*3 0.2 C 0 km/h
234 19-02-2008 22:41:52 0.1 C 3.42 g/m*3 0.1 C 0 km/h
235 19-02-2008 22:53:52 -0.1 C 3.42 g/m*3 -0.1 C 0 km/h
236 19-02-2008 23:05:52 -0.2 C 3.44 g/m*3 -0.2 C 0 km/h
237 19-02-2008 23:17:52 -0.4 C 3.39 g/m*3 -0.4 C 0 km/h
238 19-02-2008 23:29:52 -0.6 C 3.35 g/m*3 -0.6 C 0 km/h
239 19-02-2008 23:41:52 -0.6 C 3.39 g/m*3 -0.6 C 0 km/h
240 19-02-2008 23:53:52 -0.9 C 3.32 g/m*3 -0.9 C 0 km/h
241 20-02-2008 00:05:52 -1 C 3.35 g/m*3 -1 C 0 km/h
242 20-02-2008 00:17:52 -1.1 C 3.32 g/m*3 -1.1 C 0 km/h
243 20-02-2008 00:29:52 -1.2 C 3.3 g/m*3 -1.2 C 0 km/h
244 20-02-2008 00:41:52 -1.2 C 3.3 g/m*3 -1.2 C 0 km/h
245 20-02-2008 00:53:52 -1.3 C 3.28 g/m*3 -1.3 C 0 km/h
246 20-02-2008 01:05:52 -1.4 C 3.25 g/m*3 -1.4 C 0 km/h
247 20-02-2008 01:17:52 -1.7 C 3.19 g/m*3 -1.7 C 0 km/h
248 20-02-2008 01:29:53 -1.7 C 3.23 g/m*3 -1.7 C 0 km/h
249 20-02-2008 01:41:53 -1.8 C 3.21 g/m*3 -1.8 C 0 km/h
250 20-02-2008 01:53:53 -1.8 C 3.25 g/m*3 -1.8 C 0 km/h
Sensor: Nr:Datum:Temp:Abs-Feuchte:Windchill:Wind:
Aussen-T/F 251 20-02-2008 02:05:53 -1.8 C 3.25 g/m*3 -1.8 C 0 km/h
252 20-02-2008 02:17:53 -1.9 C 3.27 g/m*3 -1.9 C 0 km/h
253 20-02-2008 02:29:53 -2 C 3.25 g/m*3 -2 C 0 km/h
254 20-02-2008 02:41:53 -2.1 C 3.22 g/m*3 -2.1 C 0 km/h
255 20-02-2008 02:53:53 -2.3 C 3.18 g/m*3 -2.3 C 0 km/h
256 20-02-2008 03:05:53 -2.5 C 3.13 g/m*3 -2.5 C 0 km/h
257 20-02-2008 03:17:53 -2.5 C 3.13 g/m*3 -2.5 C 0 km/h
258 20-02-2008 03:29:53 -2.5 C 3.13 g/m*3 -2.5 C 0 km/h
259 20-02-2008 03:41:53 -2.7 C 3.09 g/m*3 -2.7 C 0 km/h
260 20-02-2008 03:53:53 -2.7 C 3.13 g/m*3 -2.7 C 0 km/h
261 20-02-2008 04:05:53 -2.6 C 3.15 g/m*3 -2.6 C 0 km/h
262 20-02-2008 04:17:53 -2.7 C 3.13 g/m*3 -2.7 C 0 km/h
263 20-02-2008 04:29:53 -2.7 C 3.17 g/m*3 -2.7 C 0 km/h
264 20-02-2008 04:41:53 -2.3 C 3.3 g/m*3 -2.3 C 0 km/h
265 20-02-2008 04:53:53 -2.1 C 3.35 g/m*3 -2.1 C 0 km/h
266 20-02-2008 05:05:54 -2.1 C 3.31 g/m*3 -2.1 C 0 km/h
267 20-02-2008 05:17:54 -1.9 C 3.35 g/m*3 -1.9 C 0 km/h
268 20-02-2008 05:29:54 -1.7 C 3.36 g/m*3 -1.7 C 0 km/h
269 20-02-2008 05:41:54 -1.6 C 3.34 g/m*3 -1.6 C 0 km/h
270 20-02-2008 05:53:54 -1.5 C 3.32 g/m*3 -1.5 C 0 km/h
271 20-02-2008 06:05:54 -1.5 C 3.27 g/m*3 -1.5 C 0 km/h
272 20-02-2008 06:17:54 -1.4 C 3.3 g/m*3 -1.4 C 0 km/h
273 20-02-2008 06:29:54 -1.4 C 3.25 g/m*3 -1.4 C 0 km/h
274 20-02-2008 06:41:54 -1.3 C 3.28 g/m*3 -1.3 C 0 km/h
275 20-02-2008 06:53:54 -1.2 C 3.3 g/m*3 -1.2 C 0 km/h
Sensor: Nr:Datum:Temp:Abs-Feuchte:Windchill:Wind:
Aussen-T/F 276 20-02-2008 07:05:02 -1.1 C 3.32 g/m*3 -1.1 C 0 km/h
277 20-02-2008 07:17:02 -1 C 3.3 g/m*3 -1 C 0 km/h
278 20-02-2008 07:29:02 -0.9 C 3.37 g/m*3 -0.9 C 0 km/h
279 20-02-2008 07:41:02 -0.8 C 3.35 g/m*3 -0.8 C 0 km/h
280 20-02-2008 07:53:02 -0.7 C 3.42 g/m*3 -0.7 C 0 km/h
281 20-02-2008 08:05:01 -0.7 C 3.42 g/m*3 -0.7 C 0 km/h
282 20-02-2008 08:17:02 -0.7 C 3.42 g/m*3 -0.7 C 0 km/h
283 20-02-2008 08:29:02 -0.5 C 3.46 g/m*3 -0.5 C 0 km/h
284 20-02-2008 08:41:02 -0.4 C 3.49 g/m*3 -0.4 C 0 km/h
285 20-02-2008 08:53:02 -0.3 C 3.56 g/m*3 -0.3 C 0 km/h
286 20-02-2008 09:05:02 -0.1 C 3.56 g/m*3 -0.1 C 0 km/h
287 20-02-2008 09:17:02 0 C 3.59 g/m*3 0 C 0 km/h
288 20-02-2008 09:29:02 0.4 C 3.69 g/m*3 0.4 C 0 km/h
289 20-02-2008 09:41:02 0.6 C 3.74 g/m*3 0.6 C 0 km/h
290 20-02-2008 09:53:02 0.6 C 3.74 g/m*3 0.6 C 0 km/h
291 20-02-2008 10:05:02 0.6 C 3.74 g/m*3 0.6 C 0 km/h
292 20-02-2008 10:17:02 0.8 C 3.84 g/m*3 0.8 C 0 km/h
293 20-02-2008 10:29:02 1.1 C 3.87 g/m*3 1.1 C 0 km/h
294 20-02-2008 10:41:03 1.3 C 4.03 g/m*3 1.3 C 0 km/h
295 20-02-2008 10:53:02 1.6 C 4.16 g/m*3 1.6 C 0 km/h
296 20-02-2008 11:05:02 2.1 C 4.36 g/m*3 2.1 C 0 km/h
297 20-02-2008 11:17:02 2.2 C 4.45 g/m*3 2.2 C 0 km/h
298 20-02-2008 11:29:02 2.3 C 4.54 g/m*3 2.3 C 0 km/h
299 20-02-2008 11:41:02 2.9 C 4.96 g/m*3 2.9 C 0 km/h
300 20-02-2008 11:53:01 3.1 C 5.03 g/m*3 3.1 C 0 km/h
Sensor: Nr:Datum:Temp:Abs-Feuchte:Windchill:Wind:
Aussen-T/F 301 20-02-2008 12:05:01 3.3 C 5.16 g/m*3 3.3 C 0 km/h
302 20-02-2008 12:17:02 3.3 C 5.16 g/m*3 3.3 C 0 km/h
303 20-02-2008 12:29:02 3.2 C 5.12 g/m*3 3.2 C 0 km/h
304 20-02-2008 12:41:02 3.3 C 5.16 g/m*3 3.3 C 0 km/h
305 20-02-2008 12:53:02 3.4 C 5.19 g/m*3 3.4 C 0 km/h
306 20-02-2008 13:05:02 3.7 C 5.36 g/m*3 3.7 C 0 km/h
307 20-02-2008 13:17:01 3.9 C 5.43 g/m*3 3.9 C 0 km/h
308 20-02-2008 13:29:01 4.2 C 5.48 g/m*3 4.2 C 0 km/h
309 20-02-2008 13:41:02 4.3 C 5.45 g/m*3 4.3 C 0 km/h
310 20-02-2008 13:53:01 4.1 C 5.38 g/m*3 4.1 C 0 km/h
311 20-02-2008 14:05:02 4 C 5.34 g/m*3 4 C 0 km/h
312 20-02-2008 14:17:02 3.9 C 5.43 g/m*3 3.9 C 0 km/h
313 20-02-2008 14:29:02 3.9 C 5.43 g/m*3 3.9 C 0 km/h
314 20-02-2008 14:41:02 3.9 C 5.43 g/m*3 3.9 C 0 km/h
315 20-02-2008 14:53:02 3.9 C 5.49 g/m*3 3.9 C 0 km/h
316 20-02-2008 15:05:02 4 C 5.47 g/m*3 4 C 0 km/h
317 20-02-2008 15:17:02 4.2 C 5.54 g/m*3 4.2 C 0 km/h
318 20-02-2008 15:29:02 4.2 C 5.61 g/m*3 4.2 C 0 km/h
319 20-02-2008 15:41:02 4 C 5.53 g/m*3 4 C 0 km/h
320 20-02-2008 15:53:02 4 C 5.53 g/m*3 4 C 0 km/h
321 20-02-2008 16:05:02 3.9 C 5.56 g/m*3 3.9 C 0 km/h
322 20-02-2008 16:17:02 3.8 C 5.52 g/m*3 3.8 C 0 km/h
323 20-02-2008 16:29:02 3.8 C 5.52 g/m*3 3.8 C 0 km/h
324 20-02-2008 16:41:01 3.8 C 5.52 g/m*3 3.8 C 0 km/h
325 20-02-2008 16:53:01 3.9 C 5.62 g/m*3 3.9 C 0 km/h
Sensor: Nr:Datum:Temp:Abs-Feuchte:Windchill:Wind:
Aussen-T/F 326 20-02-2008 17:05:02 4 C 5.66 g/m*3 4 C 0 km/h
327 20-02-2008 17:17:02 4 C 5.66 g/m*3 4 C 0 km/h
328 20-02-2008 17:29:02 4.2 C 5.8 g/m*3 4.2 C 0 km/h
329 20-02-2008 17:41:02 4.2 C 5.86 g/m*3 4.2 C 0 km/h
330 20-02-2008 17:53:02 4 C 5.79 g/m*3 4 C 0 km/h
331 20-02-2008 18:05:02 4 C 5.79 g/m*3 4 C 0 km/h
332 20-02-2008 18:17:01 4.2 C 5.86 g/m*3 4.2 C 0 km/h
333 20-02-2008 18:29:01 4.2 C 5.93 g/m*3 4.2 C 0 km/h
334 20-02-2008 18:41:01 4.2 C 5.93 g/m*3 4.2 C 0 km/h
335 20-02-2008 18:53:01 4.3 C 5.97 g/m*3 4.3 C 0 km/h
336 20-02-2008 19:05:02 4.8 C 6.24 g/m*3 4.8 C 0 km/h
337 20-02-2008 19:17:02 4.9 C 6.28 g/m*3 4.9 C 0 km/h
338 20-02-2008 19:29:02 5.1 C 6.29 g/m*3 5.1 C 0 km/h
339 20-02-2008 19:41:02 5.1 C 6.29 g/m*3 5.1 C 0 km/h
340 20-02-2008 19:53:02 5.2 C 6.27 g/m*3 5.2 C 0 km/h
341 20-02-2008 20:05:02 5.1 C 6.22 g/m*3 5.1 C 0 km/h
342 20-02-2008 20:17:02 5.3 C 6.31 g/m*3 5.3 C 0 km/h
343 20-02-2008 20:29:02 5.4 C 6.35 g/m*3 5.4 C 0 km/h
344 20-02-2008 20:41:02 5.4 C 6.35 g/m*3 5.4 C 0 km/h
345 20-02-2008 20:53:01 5.4 C 6.35 g/m*3 5.4 C 0 km/h
346 20-02-2008 21:05:02 5.2 C 6.2 g/m*3 5.2 C 0 km/h
347 20-02-2008 21:17:02 4.9 C 6.14 g/m*3 4.9 C 0 km/h
348 20-02-2008 21:29:02 4.7 C 6.06 g/m*3 4.7 C 0 km/h
349 20-02-2008 21:41:02 4.5 C 5.98 g/m*3 4.5 C 0 km/h
350 20-02-2008 21:53:02 4.4 C 6.01 g/m*3 4.4 C 0 km/h
Sensor: Nr:Datum:Temp:Abs-Feuchte:Windchill:Wind:
Aussen-T/F 351 20-02-2008 22:05:02 4.4 C 6.01 g/m*3 4.4 C 0 km/h
352 20-02-2008 22:17:02 4.4 C 6.07 g/m*3 4.4 C 0 km/h
353 20-02-2008 22:29:02 4.1 C 5.95 g/m*3 4.1 C 0 km/h
354 20-02-2008 22:41:01 4.1 C 5.95 g/m*3 4.1 C 0 km/h
355 20-02-2008 22:53:01 3.8 C 5.9 g/m*3 3.8 C 0 km/h
356 20-02-2008 23:05:01 3.7 C 5.86 g/m*3 3.7 C 0 km/h
357 20-02-2008 23:17:01 3.6 C 5.82 g/m*3 3.6 C 0 km/h
358 20-02-2008 23:29:02 3.4 C 5.8 g/m*3 3.4 C 0 km/h
359 20-02-2008 23:41:02 3.4 C 5.8 g/m*3 3.4 C 0 km/h
360 20-02-2008 23:53:02 3.3 C 5.76 g/m*3 3.3 C 0 km/h
361 21-02-2008 00:05:02 3.4 C 5.8 g/m*3 3.4 C 0 km/h
362 21-02-2008 00:17:02 3.2 C 5.72 g/m*3 3.2 C 0 km/h
363 21-02-2008 00:29:02 3 C 5.65 g/m*3 3 C 0 km/h
364 21-02-2008 00:41:02 2.7 C 5.54 g/m*3 2.7 C 0 km/h
365 21-02-2008 00:53:02 2.6 C 5.5 g/m*3 2.6 C 0 km/h
366 21-02-2008 01:05:02 2.4 C 5.42 g/m*3 2.4 C 0 km/h
367 21-02-2008 01:17:02 2.2 C 5.35 g/m*3 2.2 C 0 km/h
368 21-02-2008 01:29:02 2 C 5.28 g/m*3 2 C 0 km/h
369 21-02-2008 01:41:02 2 C 5.28 g/m*3 2 C 0 km/h
370 21-02-2008 01:53:02 2 C 5.28 g/m*3 2 C 0 km/h
371 21-02-2008 02:05:02 1.7 C 5.17 g/m*3 1.7 C 0 km/h
372 21-02-2008 02:17:02 1.5 C 5.1 g/m*3 1.5 C 0 km/h
373 21-02-2008 02:29:02 1.6 C 5.14 g/m*3 1.6 C 0 km/h
374 21-02-2008 02:41:02 1.6 C 5.14 g/m*3 1.6 C 0 km/h
375 21-02-2008 02:53:02 1.4 C 5.07 g/m*3 1.4 C 0 km/h
Sensor: Nr:Datum:Temp:Abs-Feuchte:Windchill:Wind:
Aussen-T/F 376 21-02-2008 03:05:02 1.2 C 5 g/m*3 1.2 C 0 km/h
377 21-02-2008 03:17:03 1.1 C 4.96 g/m*3 1.1 C 0 km/h
378 21-02-2008 03:29:03 1.1 C 4.96 g/m*3 1.1 C 0 km/h
379 21-02-2008 03:41:03 1.1 C 4.96 g/m*3 1.1 C 0 km/h
380 21-02-2008 03:53:03 0.8 C 4.86 g/m*3 0.8 C 0 km/h
381 21-02-2008 04:05:03 0.9 C 4.9 g/m*3 0.9 C 0 km/h
382 21-02-2008 04:17:03 2 C 5.28 g/m*3 2 C 0 km/h
383 21-02-2008 04:29:03 2.3 C 5.39 g/m*3 2.3 C 0 km/h
384 21-02-2008 04:41:03 2.7 C 5.54 g/m*3 2.7 C 0 km/h
385 21-02-2008 04:53:03 2.7 C 5.54 g/m*3 2.7 C 0 km/h
386 21-02-2008 05:05:03 2.6 C 5.5 g/m*3 2.6 C 0 km/h
387 21-02-2008 05:17:03 3 C 5.65 g/m*3 3 C 0 km/h
388 21-02-2008 05:29:03 3.3 C 5.76 g/m*3 3.3 C 0 km/h
389 21-02-2008 05:41:03 3.1 C 5.69 g/m*3 3.1 C 0 km/h
390 21-02-2008 05:53:03 3.2 C 5.72 g/m*3 3.2 C 0 km/h
391 21-02-2008 06:05:03 3.3 C 5.76 g/m*3 3.3 C 0 km/h
392 21-02-2008 06:17:03 3.4 C 5.8 g/m*3 3.4 C 0 km/h
393 21-02-2008 06:29:03 3.7 C 5.92 g/m*3 3.7 C 0 km/h
394 21-02-2008 06:41:03 4 C 6.04 g/m*3 4 C 0 km/h
395 21-02-2008 06:53:02 4.1 C 6.08 g/m*3 4.1 C 0 km/h
396 21-02-2008 07:05:02 4 C 6.04 g/m*3 4 C 0 km/h
397 21-02-2008 07:17:02 4.2 C 6.12 g/m*3 4.2 C 0 km/h
398 21-02-2008 07:29:02 4.3 C 6.16 g/m*3 4.3 C 0 km/h
399 21-02-2008 07:41:01 4.4 C 6.14 g/m*3 4.4 C 0 km/h
400 21-02-2008 07:53:01 4.5 C 6.11 g/m*3 4.5 C 0 km/h
Sensor: Nr:Datum:Temp:Abs-Feuchte:Windchill:Wind:
Aussen-T/F 401 21-02-2008 08:05:01 4.6 C 6.15 g/m*3 4.6 C 0 km/h
402 21-02-2008 08:17:02 4.6 C 6.09 g/m*3 4.6 C 0 km/h
403 21-02-2008 08:29:02 4.6 C 6.02 g/m*3 4.6 C 0 km/h
404 21-02-2008 08:41:02 4.7 C 6 g/m*3 4.7 C 0 km/h
405 21-02-2008 08:53:02 4.7 C 5.93 g/m*3 4.7 C 0 km/h
406 21-02-2008 09:05:01 4.8 C 5.97 g/m*3 4.8 C 0 km/h
407 21-02-2008 09:17:01 5 C 5.91 g/m*3 5 C 0 km/h
408 21-02-2008 09:29:01 5.1 C 5.88 g/m*3 5.1 C 0 km/h
409 21-02-2008 09:41:01 5.2 C 5.92 g/m*3 5.2 C 0 km/h
410 21-02-2008 09:53:01 5.4 C 5.93 g/m*3 5.4 C 0 km/h
411 21-02-2008 10:05:02 5.6 C 6.01 g/m*3 5.6 C 0 km/h
412 21-02-2008 10:17:01 5.8 C 6.02 g/m*3 5.8 C 0 km/h
413 21-02-2008 10:29:01 6.1 C 6.06 g/m*3 6.1 C 0 km/h
414 21-02-2008 10:41:01 6.2 C 6.1 g/m*3 6.2 C 0 km/h
415 21-02-2008 10:53:01 6.3 C 6.07 g/m*3 6.3 C 0 km/h
416 21-02-2008 11:05:02 6.5 C 6.15 g/m*3 6.5 C 0 km/h
417 21-02-2008 11:17:01 6.7 C 6.23 g/m*3 6.7 C 0 km/h
418 21-02-2008 11:29:01 7 C 6.28 g/m*3 7 C 0 km/h
419 21-02-2008 11:41:01 7.3 C 6.4 g/m*3 7.3 C 0 km/h
420 21-02-2008 11:53:01 8.2 C 6.36 g/m*3 8.2 C 0 km/h
421 21-02-2008 12:05:02 8.6 C 6.1 g/m*3 8.6 C 0 km/h
422 21-02-2008 12:17:02 8.8 C 6.01 g/m*3 8.8 C 0 km/h
423 21-02-2008 12:29:02 9.1 C 6.03 g/m*3 9.1 C 0 km/h
424 21-02-2008 12:41:01 9.3 C 5.84 g/m*3 9.3 C 0 km/h
425 21-02-2008 12:53:01 9.3 C 5.75 g/m*3 9.3 C 0 km/h
Sensor: Nr:Datum:Temp:Abs-Feuchte:Windchill:Wind:
Aussen-T/F 426 21-02-2008 13:05:03 9.5 C 5.83 g/m*3 9.5 C 0 km/h
427 21-02-2008 13:17:02 9.6 C 5.77 g/m*3 9.6 C 0 km/h
428 21-02-2008 13:29:02 9.7 C 5.81 g/m*3 9.7 C 0 km/h
429 21-02-2008 13:41:02 10.4 C 5.69 g/m*3 10.4 C 0 km/h
430 21-02-2008 13:53:02 10.6 C 5.47 g/m*3 10.6 C 0 km/h
431 21-02-2008 14:05:01 11.2 C 5.47 g/m*3 11.2 C 0 km/h
432 21-02-2008 14:17:01 11 C 5.31 g/m*3 11 C 0 km/h
433 21-02-2008 14:29:01 11 C 5.31 g/m*3 11 C 0 km/h
434 21-02-2008 14:41:01 10.8 C 5.44 g/m*3 10.8 C 0 km/h
435 21-02-2008 14:53:01 10.8 C 5.44 g/m*3 10.8 C 0 km/h
436 21-02-2008 15:05:01 11 C 5.41 g/m*3 11 C 0 km/h
437 21-02-2008 15:17:02 10.9 C 5.37 g/m*3 10.9 C 0 km/h
438 21-02-2008 15:29:02 11.2 C 5.17 g/m*3 11.2 C 0 km/h
439 21-02-2008 15:41:01 11.2 C 5.07 g/m*3 11.2 C 0 km/h
440 21-02-2008 15:53:02 11.2 C 5.17 g/m*3 11.2 C 0 km/h
441 21-02-2008 16:05:01 11 C 5.1 g/m*3 11 C 0 km/h
442 21-02-2008 16:17:01 11 C 5.2 g/m*3 11 C 0 km/h
443 21-02-2008 16:29:01 11 C 5.2 g/m*3 11 C 0 km/h
444 21-02-2008 16:41:02 10.9 C 5.27 g/m*3 10.9 C 0 km/h
445 21-02-2008 16:53:02 10.5 C 5.24 g/m*3 10.5 C 0 km/h
446 21-02-2008 17:05:02 10.2 C 5.23 g/m*3 10.2 C 0 km/h
447 21-02-2008 17:17:01 10 C 5.17 g/m*3 10 C 0 km/h
448 21-02-2008 17:29:02 9.9 C 5.23 g/m*3 9.9 C 0 km/h
449 21-02-2008 17:41:01 9.7 C 5.25 g/m*3 9.7 C 0 km/h
450 21-02-2008 17:53:01 9.6 C 5.22 g/m*3 9.6 C 0 km/h
Sensor: Nr:Datum:Temp:Abs-Feuchte:Windchill:Wind:
Aussen-T/F 451 21-02-2008 18:05:01 9.6 C 5.22 g/m*3 9.6 C 0 km/h
452 21-02-2008 18:17:02 9.5 C 5.19 g/m*3 9.5 C 0 km/h
453 21-02-2008 18:29:02 9.4 C 5.16 g/m*3 9.4 C 0 km/h
454 21-02-2008 18:41:02 9.3 C 5.12 g/m*3 9.3 C 0 km/h
455 21-02-2008 18:53:02 9.2 C 5.18 g/m*3 9.2 C 0 km/h
456 21-02-2008 19:05:01 9.1 C 5.23 g/m*3 9.1 C 0 km/h
457 21-02-2008 19:17:02 9.1 C 5.23 g/m*3 9.1 C 0 km/h
458 21-02-2008 19:29:02 9.1 C 5.15 g/m*3 9.1 C 0 km/h
459 21-02-2008 19:41:02 9.1 C 5.15 g/m*3 9.1 C 0 km/h
460 21-02-2008 19:53:02 9.1 C 5.23 g/m*3 9.1 C 0 km/h
461 21-02-2008 20:05:02 8.9 C 5.34 g/m*3 8.9 C 0 km/h
462 21-02-2008 20:17:01 8.6 C 5.5 g/m*3 8.6 C 0 km/h
463 21-02-2008 20:29:01 8.5 C 5.55 g/m*3 8.5 C 0 km/h
464 21-02-2008 20:41:01 8.6 C 5.5 g/m*3 8.6 C 0 km/h
465 21-02-2008 20:53:01 8.6 C 5.41 g/m*3 8.6 C 0 km/h
466 21-02-2008 21:05:01 8.6 C 5.5 g/m*3 8.6 C 0 km/h
467 21-02-2008 21:17:02 8.4 C 5.68 g/m*3 8.4 C 0 km/h
468 21-02-2008 21:29:02 8.4 C 5.77 g/m*3 8.4 C 0 km/h
469 21-02-2008 21:41:02 8.4 C 5.77 g/m*3 8.4 C 0 km/h
470 21-02-2008 21:53:02 8.4 C 5.85 g/m*3 8.4 C 0 km/h
471 21-02-2008 22:06:03 8.4 C 5.85 g/m*3 8.4 C 0 km/h
472 21-02-2008 22:18:03 8.4 C 5.94 g/m*3 8.4 C 0 km/h
473 21-02-2008 22:30:03 8.4 C 5.94 g/m*3 8.4 C 0 km/h
474 21-02-2008 22:42:03 8.4 C 6.02 g/m*3 8.4 C 0 km/h
475 21-02-2008 22:54:03 8.5 C 6.06 g/m*3 8.5 C 0 km/h
Sensor: Nr:Datum:Temp:Abs-Feuchte:Windchill:Wind:
Aussen-T/F 476 21-02-2008 23:06:03 8.5 C 6.06 g/m*3 8.5 C 0 km/h
477 21-02-2008 23:18:03 8.4 C 6.11 g/m*3 8.4 C 0 km/h
478 21-02-2008 23:30:03 8.2 C 6.2 g/m*3 8.2 C 0 km/h
479 21-02-2008 23:42:03 8 C 6.37 g/m*3 8 C 0 km/h
480 21-02-2008 23:54:03 7.9 C 6.65 g/m*3 7.9 C 0 km/h
481 22-02-2008 00:06:03 7.8 C 6.77 g/m*3 7.8 C 0 km/h
482 22-02-2008 00:18:03 7.7 C 6.81 g/m*3 7.7 C 0 km/h
483 22-02-2008 00:30:03 7.8 C 6.94 g/m*3 7.8 C 0 km/h
484 22-02-2008 00:42:03 7.8 C 6.94 g/m*3 7.8 C 0 km/h
485 22-02-2008 00:54:03 7.9 C 6.9 g/m*3 7.9 C 0 km/h
486 22-02-2008 01:06:04 7.9 C 6.9 g/m*3 7.9 C 0 km/h
487 22-02-2008 01:18:04 7.8 C 6.86 g/m*3 7.8 C 0 km/h
488 22-02-2008 01:30:04 7.8 C 6.94 g/m*3 7.8 C 0 km/h
489 22-02-2008 01:42:04 7.8 C 6.94 g/m*3 7.8 C 0 km/h
490 22-02-2008 01:54:04 7.8 C 6.94 g/m*3 7.8 C 0 km/h
491 22-02-2008 02:06:04 7.9 C 6.98 g/m*3 7.9 C 0 km/h
492 22-02-2008 02:18:04 8.4 C 6.96 g/m*3 8.4 C 0 km/h
493 22-02-2008 02:30:04 8.5 C 6.66 g/m*3 8.5 C 0 km/h
494 22-02-2008 02:42:04 8.5 C 6.57 g/m*3 8.5 C 0 km/h
495 22-02-2008 02:54:04 8.6 C 6.53 g/m*3 8.6 C 0 km/h
496 22-02-2008 03:06:04 8.7 C 6.49 g/m*3 8.7 C 0 km/h
497 22-02-2008 03:18:04 9.1 C 6.39 g/m*3 9.1 C 0 km/h
498 22-02-2008 03:30:04 8.8 C 6.35 g/m*3 8.8 C 0 km/h
499 22-02-2008 03:42:04 8.8 C 6.27 g/m*3 8.8 C 0 km/h
500 22-02-2008 03:54:04 8.8 C 6.27 g/m*3 8.8 C 0 km/h
Sensor: Nr:Datum:Temp:Abs-Feuchte:Windchill:Wind:
Aussen-T/F 501 22-02-2008 04:06:04 9.1 C 6.21 g/m*3 9.1 C 0 km/h
502 22-02-2008 04:18:04 9.1 C 6.21 g/m*3 9.1 C 0 km/h
503 22-02-2008 04:30:04 9 C 6.26 g/m*3 9 C 0 km/h
504 22-02-2008 04:42:04 9 C 6.35 g/m*3 9 C 0 km/h
505 22-02-2008 04:54:04 9.2 C 6.34 g/m*3 9.2 C 0 km/h
506 22-02-2008 05:06:05 9.2 C 6.25 g/m*3 9.2 C 0 km/h
507 22-02-2008 05:18:05 9.2 C 6.25 g/m*3 9.2 C 0 km/h
508 22-02-2008 05:30:05 9.3 C 6.29 g/m*3 9.3 C 0 km/h
509 22-02-2008 05:42:05 9.1 C 6.21 g/m*3 9.1 C 0 km/h
510 22-02-2008 05:54:05 9.2 C 6.25 g/m*3 9.2 C 0 km/h
511 22-02-2008 06:06:05 9.1 C 6.12 g/m*3 9.1 C 0 km/h
512 22-02-2008 06:18:05 9.1 C 6.12 g/m*3 9.1 C 0 km/h
513 22-02-2008 06:30:05 9.2 C 6.16 g/m*3 9.2 C 0 km/h
514 22-02-2008 06:42:05 9.2 C 6.25 g/m*3 9.2 C 0 km/h
515 22-02-2008 06:54:05 9.3 C 6.2 g/m*3 9.3 C 0 km/h
516 22-02-2008 07:06:02 9.2 C 6.07 g/m*3 9.2 C 0 km/h
517 22-02-2008 07:18:03 9.2 C 6.07 g/m*3 9.2 C 0 km/h
518 22-02-2008 07:30:03 9.3 C 5.93 g/m*3 9.3 C 0 km/h
519 22-02-2008 07:42:03 9.2 C 5.8 g/m*3 9.2 C 0 km/h
520 22-02-2008 07:54:01 9.3 C 5.84 g/m*3 9.3 C 0 km/h
521 22-02-2008 08:06:02 9.3 C 5.75 g/m*3 9.3 C 0 km/h
522 22-02-2008 08:18:02 9.3 C 5.66 g/m*3 9.3 C 0 km/h
523 22-02-2008 08:30:02 9.4 C 5.61 g/m*3 9.4 C 0 km/h
524 22-02-2008 08:42:01 9.5 C 5.64 g/m*3 9.5 C 0 km/h
525 22-02-2008 08:54:02 9.5 C 5.64 g/m*3 9.5 C 0 km/h
Sensor: Nr:Datum:Temp:Abs-Feuchte:Windchill:Wind:
Aussen-T/F 526 22-02-2008 09:06:02 9.6 C 5.59 g/m*3 9.6 C 0 km/h
527 22-02-2008 09:18:01 9.6 C 5.5 g/m*3 9.6 C 0 km/h
528 22-02-2008 09:30:01 9.7 C 5.53 g/m*3 9.7 C 0 km/h
529 22-02-2008 09:42:01 9.7 C 5.53 g/m*3 9.7 C 0 km/h
530 22-02-2008 09:54:02 9.8 C 5.47 g/m*3 9.8 C 0 km/h
531 22-02-2008 10:06:01 9.9 C 5.51 g/m*3 9.9 C 0 km/h
532 22-02-2008 10:18:02 10.1 C 5.48 g/m*3 10.1 C 0 km/h
533 22-02-2008 10:30:02 10.1 C 5.48 g/m*3 10.1 C 0 km/h
534 22-02-2008 10:42:02 10.3 C 5.46 g/m*3 10.3 C 0 km/h
535 22-02-2008 10:54:02 10.3 C 5.46 g/m*3 10.3 C 0 km/h
536 22-02-2008 11:06:02 10.2 C 5.42 g/m*3 10.2 C 0 km/h
537 22-02-2008 11:18:02 10.4 C 5.49 g/m*3 10.4 C 0 km/h
538 22-02-2008 11:30:02 10.4 C 5.4 g/m*3 10.4 C 0 km/h
539 22-02-2008 11:42:02 10.5 C 5.53 g/m*3 10.5 C 0 km/h
540 22-02-2008 11:54:02 10.5 C 5.53 g/m*3 10.5 C 0 km/h
541 22-02-2008 12:06:03 10.6 C 5.56 g/m*3 10.6 C 0 km/h
542 22-02-2008 12:18:02 10.6 C 5.56 g/m*3 10.6 C 0 km/h
543 22-02-2008 12:30:02 10.8 C 5.54 g/m*3 10.8 C 0 km/h
544 22-02-2008 12:42:02 10.5 C 5.53 g/m*3 10.5 C 0 km/h
545 22-02-2008 12:54:02 10.7 C 5.6 g/m*3 10.7 C 0 km/h
546 22-02-2008 13:06:02 10.6 C 5.56 g/m*3 10.6 C 0 km/h
547 22-02-2008 13:18:01 10.4 C 5.49 g/m*3 10.4 C 0 km/h
548 22-02-2008 13:30:01 10.5 C 5.53 g/m*3 10.5 C 0 km/h
549 22-02-2008 13:42:02 10.4 C 5.49 g/m*3 10.4 C 0 km/h
550 22-02-2008 13:54:01 10.6 C 5.56 g/m*3 10.6 C 0 km/h
Sensor: Nr:Datum:Temp:Abs-Feuchte:Windchill:Wind:
Aussen-T/F 551 22-02-2008 14:06:02 10.6 C 5.56 g/m*3 10.6 C 0 km/h
552 22-02-2008 14:18:02 10.4 C 5.49 g/m*3 10.4 C 0 km/h
553 22-02-2008 14:30:02 10.5 C 5.43 g/m*3 10.5 C 0 km/h
554 22-02-2008 14:42:02 10.6 C 5.47 g/m*3 10.6 C 0 km/h
555 22-02-2008 14:54:02 10.5 C 5.43 g/m*3 10.5 C 0 km/h
556 22-02-2008 15:06:02 10.4 C 5.4 g/m*3 10.4 C 0 km/h
557 22-02-2008 15:18:02 10.3 C 5.36 g/m*3 10.3 C 0 km/h
558 22-02-2008 15:30:02 10.2 C 5.42 g/m*3 10.2 C 0 km/h
559 22-02-2008 15:42:02 10 C 5.36 g/m*3 10 C 0 km/h
560 22-02-2008 15:54:02 10.1 C 5.39 g/m*3 10.1 C 0 km/h
561 22-02-2008 16:06:02 10.2 C 5.42 g/m*3 10.2 C 0 km/h
562 22-02-2008 16:18:02 10.1 C 5.39 g/m*3 10.1 C 0 km/h
563 22-02-2008 16:30:02 10.1 C 5.48 g/m*3 10.1 C 0 km/h
564 22-02-2008 16:42:01 10.1 C 5.48 g/m*3 10.1 C 0 km/h
565 22-02-2008 16:54:02 10 C 5.54 g/m*3 10 C 0 km/h
566 22-02-2008 17:06:02 10.1 C 5.58 g/m*3 10.1 C 0 km/h
567 22-02-2008 17:18:02 10 C 5.54 g/m*3 10 C 0 km/h
568 22-02-2008 17:30:03 10 C 5.54 g/m*3 10 C 0 km/h
569 22-02-2008 17:42:01 10 C 5.54 g/m*3 10 C 0 km/h
570 22-02-2008 17:54:02 10 C 5.54 g/m*3 10 C 0 km/h
571 22-02-2008 18:06:02 10 C 5.64 g/m*3 10 C 0 km/h
572 22-02-2008 18:18:02 9.9 C 5.7 g/m*3 9.9 C 0 km/h
573 22-02-2008 18:30:02 10 C 5.64 g/m*3 10 C 0 km/h
574 22-02-2008 18:42:02 10 C 5.64 g/m*3 10 C 0 km/h
575 22-02-2008 18:54:02 10 C 5.64 g/m*3 10 C 0 km/h
Sensor: Nr:Datum:Temp:Abs-Feuchte:Windchill:Wind:
Aussen-T/F 576 22-02-2008 19:06:02 10 C 5.64 g/m*3 10 C 0 km/h
577 22-02-2008 19:18:02 10.2 C 5.61 g/m*3 10.2 C 0 km/h
578 22-02-2008 19:30:02 10.4 C 5.59 g/m*3 10.4 C 0 km/h
579 22-02-2008 19:42:02 10.4 C 5.59 g/m*3 10.4 C 0 km/h
580 22-02-2008 19:54:02 10.3 C 5.55 g/m*3 10.3 C 0 km/h
581 22-02-2008 20:06:03 10.4 C 5.59 g/m*3 10.4 C 0 km/h
582 22-02-2008 20:18:02 10.3 C 5.55 g/m*3 10.3 C 0 km/h
583 22-02-2008 20:30:03 10.3 C 5.55 g/m*3 10.3 C 0 km/h
584 22-02-2008 20:42:02 10.2 C 5.61 g/m*3 10.2 C 0 km/h
585 22-02-2008 20:54:02 10.2 C 5.61 g/m*3 10.2 C 0 km/h
586 22-02-2008 21:06:01 10.1 C 5.58 g/m*3 10.1 C 0 km/h
587 22-02-2008 21:18:02 10.4 C 5.59 g/m*3 10.4 C 0 km/h
588 22-02-2008 21:30:02 10.4 C 5.59 g/m*3 10.4 C 0 km/h
589 22-02-2008 21:43:03 10.4 C 5.59 g/m*3 10.4 C 0 km/h
590 22-02-2008 21:55:03 10.4 C 5.59 g/m*3 10.4 C 0 km/h
591 22-02-2008 22:07:03 10.4 C 5.59 g/m*3 10.4 C 0 km/h
592 22-02-2008 22:19:03 10.4 C 5.59 g/m*3 10.4 C 0 km/h
593 22-02-2008 22:31:03 10.4 C 5.69 g/m*3 10.4 C 0 km/h
594 22-02-2008 22:43:03 10.4 C 5.69 g/m*3 10.4 C 0 km/h
595 22-02-2008 22:55:03 10.4 C 5.69 g/m*3 10.4 C 0 km/h
596 22-02-2008 23:07:03 10.4 C 5.69 g/m*3 10.4 C 0 km/h
597 22-02-2008 23:19:03 10.4 C 5.69 g/m*3 10.4 C 0 km/h
598 22-02-2008 23:31:03 10.6 C 5.76 g/m*3 10.6 C 0 km/h
599 22-02-2008 23:43:04 10.7 C 5.8 g/m*3 10.7 C 0 km/h
600 22-02-2008 23:55:04 10.7 C 5.8 g/m*3 10.7 C 0 km/h
Sensor: Nr:Datum:Temp:Abs-Feuchte:Windchill:Wind:
Aussen-T/F 601 23-02-2008 00:07:04 10.7 C 5.89 g/m*3 10.7 C 0 km/h
602 23-02-2008 00:19:04 10.6 C 5.86 g/m*3 10.6 C 0 km/h
603 23-02-2008 00:31:04 10.6 C 5.86 g/m*3 10.6 C 0 km/h
604 23-02-2008 00:43:04 10.5 C 5.92 g/m*3 10.5 C 0 km/h
605 23-02-2008 00:55:04 10.4 C 5.88 g/m*3 10.4 C 0 km/h
606 23-02-2008 01:07:04 10.2 C 5.9 g/m*3 10.2 C 0 km/h
607 23-02-2008 01:19:04 9.8 C 5.94 g/m*3 9.8 C 0 km/h
608 23-02-2008 01:31:04 9.5 C 5.92 g/m*3 9.5 C 0 km/h
609 23-02-2008 01:43:04 9.4 C 5.97 g/m*3 9.4 C 0 km/h
610 23-02-2008 01:55:04 9.6 C 6.05 g/m*3 9.6 C 0 km/h
611 23-02-2008 02:07:04 9.9 C 5.88 g/m*3 9.9 C 0 km/h
612 23-02-2008 02:19:04 10.3 C 5.65 g/m*3 10.3 C 0 km/h
613 23-02-2008 02:31:04 10.4 C 5.49 g/m*3 10.4 C 0 km/h
614 23-02-2008 02:43:04 10.1 C 5.39 g/m*3 10.1 C 0 km/h
615 23-02-2008 02:55:04 9.8 C 5.47 g/m*3 9.8 C 0 km/h
616 23-02-2008 03:07:04 9.4 C 5.52 g/m*3 9.4 C 0 km/h
617 23-02-2008 03:19:04 9.3 C 5.57 g/m*3 9.3 C 0 km/h
618 23-02-2008 03:31:04 9.1 C 5.59 g/m*3 9.1 C 0 km/h
619 23-02-2008 03:43:05 9 C 5.64 g/m*3 9 C 0 km/h
620 23-02-2008 03:55:05 8.6 C 5.67 g/m*3 8.6 C 0 km/h
621 23-02-2008 04:07:05 8.4 C 5.68 g/m*3 8.4 C 0 km/h
622 23-02-2008 04:19:03 8.3 C 5.73 g/m*3 8.3 C 0 km/h
623 23-02-2008 04:31:02 8.2 C 5.69 g/m*3 8.2 C 0 km/h
624 23-02-2008 04:43:02 8.1 C 5.74 g/m*3 8.1 C 0 km/h
625 23-02-2008 04:55:01 8.2 C 5.78 g/m*3 8.2 C 0 km/h
Sensor: Nr:Datum:Temp:Abs-Feuchte:Windchill:Wind:
Aussen-T/F 626 23-02-2008 05:07:02 8 C 5.7 g/m*3 8 C 0 km/h
627 23-02-2008 05:19:02 7.8 C 5.79 g/m*3 7.8 C 0 km/h
628 23-02-2008 05:31:02 7.5 C 5.76 g/m*3 7.5 C 0 km/h
629 23-02-2008 05:43:02 7.4 C 5.81 g/m*3 7.4 C 0 km/h
630 23-02-2008 05:55:02 7.3 C 5.85 g/m*3 7.3 C 0 km/h
631 23-02-2008 06:07:02 7.2 C 5.89 g/m*3 7.2 C 0 km/h
632 23-02-2008 06:19:01 7.1 C 5.85 g/m*3 7.1 C 0 km/h
633 23-02-2008 06:31:02 6.9 C 5.93 g/m*3 6.9 C 0 km/h
634 23-02-2008 06:43:02 6.9 C 6 g/m*3 6.9 C 0 km/h
635 23-02-2008 06:55:02 6.9 C 6 g/m*3 6.9 C 0 km/h
636 23-02-2008 07:07:01 6.9 C 6.08 g/m*3 6.9 C 0 km/h
637 23-02-2008 07:19:02 6.8 C 6.04 g/m*3 6.8 C 0 km/h
638 23-02-2008 07:31:01 6.9 C 6.08 g/m*3 6.9 C 0 km/h
639 23-02-2008 07:43:02 6.9 C 6.08 g/m*3 6.9 C 0 km/h
640 23-02-2008 07:55:02 6.9 C 6.08 g/m*3 6.9 C 0 km/h
641 23-02-2008 08:07:02 6.9 C 6.08 g/m*3 6.9 C 0 km/h
642 23-02-2008 08:19:02 6.8 C 6.04 g/m*3 6.8 C 0 km/h
643 23-02-2008 08:31:02 7 C 6.04 g/m*3 7 C 0 km/h
644 23-02-2008 08:43:02 7.2 C 6.12 g/m*3 7.2 C 0 km/h
645 23-02-2008 08:55:02 7.3 C 6.08 g/m*3 7.3 C 0 km/h
646 23-02-2008 09:07:02 7.4 C 6.04 g/m*3 7.4 C 0 km/h
647 23-02-2008 09:19:02 7.5 C 6.08 g/m*3 7.5 C 0 km/h
648 23-02-2008 09:31:02 7.7 C 6.16 g/m*3 7.7 C 0 km/h
649 23-02-2008 09:43:02 7.9 C 6.24 g/m*3 7.9 C 0 km/h
650 23-02-2008 09:55:02 8 C 6.2 g/m*3 8 C 0 km/h
Sensor: Nr:Datum:Temp:Abs-Feuchte:Windchill:Wind:
Aussen-T/F 651 23-02-2008 10:07:01 8.4 C 6.28 g/m*3 8.4 C 0 km/h
652 23-02-2008 10:19:02 8.6 C 6.27 g/m*3 8.6 C 0 km/h
653 23-02-2008 10:31:01 8.9 C 6.31 g/m*3 8.9 C 0 km/h
654 23-02-2008 10:43:01 9.4 C 6.24 g/m*3 9.4 C 0 km/h
655 23-02-2008 10:55:02 9.7 C 5.99 g/m*3 9.7 C 0 km/h
656 23-02-2008 11:07:01 10 C 5.73 g/m*3 10 C 0 km/h
657 23-02-2008 11:19:02 10.1 C 5.58 g/m*3 10.1 C 0 km/h
658 23-02-2008 11:31:02 10.2 C 5.52 g/m*3 10.2 C 0 km/h
659 23-02-2008 11:43:02 10.4 C 5.59 g/m*3 10.4 C 0 km/h
660 23-02-2008 11:55:02 10.8 C 5.63 g/m*3 10.8 C 0 km/h
661 23-02-2008 12:07:02 11.2 C 5.27 g/m*3 11.2 C 0 km/h
662 23-02-2008 12:19:02 11.3 C 5.1 g/m*3 11.3 C 0 km/h
663 23-02-2008 12:31:02 11.3 C 5.1 g/m*3 11.3 C 0 km/h
664 23-02-2008 12:43:02 11.8 C 5.05 g/m*3 11.8 C 0 km/h
665 23-02-2008 12:55:02 12.3 C 4.89 g/m*3 12.3 C 0 km/h
666 23-02-2008 13:07:03 12.6 C 4.98 g/m*3 12.6 C 0 km/h
667 23-02-2008 13:19:02 12.7 C 4.79 g/m*3 12.7 C 0 km/h
668 23-02-2008 13:31:02 12.7 C 4.79 g/m*3 12.7 C 0 km/h
669 23-02-2008 13:43:02 12.7 C 4.79 g/m*3 12.7 C 0 km/h
670 23-02-2008 13:55:01 13.2 C 4.71 g/m*3 13.2 C 0 km/h
671 23-02-2008 14:07:03 13.4 C 4.65 g/m*3 13.4 C 0 km/h
672 23-02-2008 14:19:02 13.8 C 4.65 g/m*3 13.8 C 0 km/h
673 23-02-2008 14:31:01 14 C 4.46 g/m*3 14 C 0 km/h
674 23-02-2008 14:43:01 14.1 C 4.49 g/m*3 14.1 C 0 km/h
675 23-02-2008 14:55:01 14.1 C 4.61 g/m*3 14.1 C 0 km/h
Sensor: Nr:Datum:Temp:Abs-Feuchte:Windchill:Wind:
Aussen-T/F 676 23-02-2008 15:07:01 13.9 C 4.68 g/m*3 13.9 C 0 km/h
677 23-02-2008 15:19:02 14.1 C 4.61 g/m*3 14.1 C 0 km/h
678 23-02-2008 15:31:01 14.2 C 4.64 g/m*3 14.2 C 0 km/h
679 23-02-2008 15:43:01 13.9 C 4.56 g/m*3 13.9 C 0 km/h
680 23-02-2008 15:55:02 13.6 C 4.71 g/m*3 13.6 C 0 km/h
681 23-02-2008 16:07:01 13.5 C 4.68 g/m*3 13.5 C 0 km/h
682 23-02-2008 16:19:02 13.4 C 4.65 g/m*3 13.4 C 0 km/h
683 23-02-2008 16:31:02 13.4 C 4.65 g/m*3 13.4 C 0 km/h
684 23-02-2008 16:43:02 13.1 C 4.68 g/m*3 13.1 C 0 km/h
685 23-02-2008 16:55:02 12.8 C 4.82 g/m*3 12.8 C 0 km/h
686 23-02-2008 17:07:03 13 C 4.76 g/m*3 13 C 0 km/h
687 23-02-2008 17:19:02 12.9 C 4.96 g/m*3 12.9 C 0 km/h
688 23-02-2008 17:31:02 12.8 C 5.04 g/m*3 12.8 C 0 km/h
689 23-02-2008 17:43:02 12.4 C 5.03 g/m*3 12.4 C 0 km/h
690 23-02-2008 17:55:02 11.9 C 4.98 g/m*3 11.9 C 0 km/h
691 23-02-2008 18:07:02 11.4 C 5.13 g/m*3 11.4 C 0 km/h
692 23-02-2008 18:19:03 10.8 C 5.24 g/m*3 10.8 C 0 km/h
693 23-02-2008 18:31:03 10.2 C 5.23 g/m*3 10.2 C 0 km/h
694 23-02-2008 18:43:03 9.8 C 5.29 g/m*3 9.8 C 0 km/h
695 23-02-2008 18:55:02 9.6 C 5.31 g/m*3 9.6 C 0 km/h
696 23-02-2008 19:07:02 9.4 C 5.34 g/m*3 9.4 C 0 km/h
697 23-02-2008 19:19:02 9.3 C 5.39 g/m*3 9.3 C 0 km/h
698 23-02-2008 19:31:02 9.2 C 5.36 g/m*3 9.2 C 0 km/h
699 23-02-2008 19:43:02 8.8 C 5.31 g/m*3 8.8 C 0 km/h
700 23-02-2008 19:55:02 8.6 C 5.41 g/m*3 8.6 C 0 km/h
Sensor: Nr:Datum:Temp:Abs-Feuchte:Windchill:Wind:
Aussen-T/F 701 23-02-2008 20:07:02 8.4 C 5.43 g/m*3 8.4 C 0 km/h
702 23-02-2008 20:19:02 8.2 C 5.36 g/m*3 8.2 C 0 km/h
703 23-02-2008 20:31:03 8 C 5.37 g/m*3 8 C 0 km/h
704 23-02-2008 20:43:03 7.9 C 5.5 g/m*3 7.9 C 0 km/h
705 23-02-2008 20:55:02 7.7 C 5.43 g/m*3 7.7 C 0 km/h
706 23-02-2008 21:07:02 7.4 C 5.33 g/m*3 7.4 C 0 km/h
707 23-02-2008 21:19:01 7.3 C 5.37 g/m*3 7.3 C 0 km/h
708 23-02-2008 21:31:02 7.2 C 5.42 g/m*3 7.2 C 0 km/h
709 23-02-2008 21:43:02 7.1 C 5.38 g/m*3 7.1 C 0 km/h
710 23-02-2008 21:55:02 6.8 C 5.35 g/m*3 6.8 C 0 km/h
711 23-02-2008 22:07:01 6.6 C 5.36 g/m*3 6.6 C 0 km/h
712 23-02-2008 22:20:02 6.5 C 5.32 g/m*3 6.5 C 0 km/h
713 23-02-2008 22:32:02 6.2 C 5.29 g/m*3 6.2 C 0 km/h
714 23-02-2008 22:44:02 5.9 C 5.26 g/m*3 5.9 C 0 km/h
715 23-02-2008 22:56:02 5.9 C 5.34 g/m*3 5.9 C 0 km/h
716 23-02-2008 23:08:02 5.8 C 5.3 g/m*3 5.8 C 0 km/h
717 23-02-2008 23:20:02 5.7 C 5.34 g/m*3 5.7 C 0 km/h
718 23-02-2008 23:32:02 5.7 C 5.41 g/m*3 5.7 C 0 km/h
719 23-02-2008 23:44:02 5.7 C 5.48 g/m*3 5.7 C 0 km/h
720 23-02-2008 23:56:02 5.4 C 5.37 g/m*3 5.4 C 0 km/h
721 24-02-2008 00:08:02 5.3 C 5.34 g/m*3 5.3 C 0 km/h
722 24-02-2008 00:20:02 5.3 C 5.41 g/m*3 5.3 C 0 km/h
723 24-02-2008 00:32:02 5.3 C 5.48 g/m*3 5.3 C 0 km/h
724 24-02-2008 00:44:02 5.1 C 5.4 g/m*3 5.1 C 0 km/h
725 24-02-2008 00:56:02 4.8 C 5.3 g/m*3 4.8 C 0 km/h
Sensor: Nr:Datum:Temp:Abs-Feuchte:Windchill:Wind:
Aussen-T/F 726 24-02-2008 01:08:02 4.8 C 5.3 g/m*3 4.8 C 0 km/h
727 24-02-2008 01:20:02 4.6 C 5.29 g/m*3 4.6 C 0 km/h
728 24-02-2008 01:32:02 4.6 C 5.36 g/m*3 4.6 C 0 km/h
729 24-02-2008 01:44:02 4.5 C 5.32 g/m*3 4.5 C 0 km/h
730 24-02-2008 01:56:03 4.3 C 5.25 g/m*3 4.3 C 0 km/h
731 24-02-2008 02:08:03 4.3 C 5.32 g/m*3 4.3 C 0 km/h
732 24-02-2008 02:20:03 4.1 C 5.25 g/m*3 4.1 C 0 km/h
733 24-02-2008 02:32:03 4 C 5.21 g/m*3 4 C 0 km/h
734 24-02-2008 02:44:03 3.8 C 5.21 g/m*3 3.8 C 0 km/h
735 24-02-2008 02:56:03 3.6 C 5.14 g/m*3 3.6 C 0 km/h
736 24-02-2008 03:08:03 3.5 C 5.1 g/m*3 3.5 C 0 km/h
737 24-02-2008 03:20:03 3.4 C 5.13 g/m*3 3.4 C 0 km/h
738 24-02-2008 03:32:03 3.3 C 5.1 g/m*3 3.3 C 0 km/h
739 24-02-2008 03:44:03 3.1 C 5.03 g/m*3 3.1 C 0 km/h
740 24-02-2008 03:56:03 3 C 4.99 g/m*3 3 C 0 km/h
741 24-02-2008 04:08:03 2.8 C 4.99 g/m*3 2.8 C 0 km/h
742 24-02-2008 04:20:03 2.7 C 4.95 g/m*3 2.7 C 0 km/h
743 24-02-2008 04:32:03 2.6 C 4.86 g/m*3 2.6 C 0 km/h
744 24-02-2008 04:44:03 2.5 C 4.83 g/m*3 2.5 C 0 km/h
745 24-02-2008 04:56:03 2.6 C 4.92 g/m*3 2.6 C 0 km/h
746 24-02-2008 05:08:03 2.5 C 4.94 g/m*3 2.5 C 0 km/h
747 24-02-2008 05:20:03 2.4 C 4.91 g/m*3 2.4 C 0 km/h
748 24-02-2008 05:32:03 2.3 C 4.88 g/m*3 2.3 C 0 km/h
749 24-02-2008 05:44:03 2.1 C 4.81 g/m*3 2.1 C 0 km/h
750 24-02-2008 05:56:03 2.1 C 4.81 g/m*3 2.1 C 0 km/h
Sensor: Nr:Datum:Temp:Abs-Feuchte:Windchill:Wind:
Aussen-T/F 751 24-02-2008 06:08:04 2.1 C 4.81 g/m*3 2.1 C 0 km/h
752 24-02-2008 06:20:04 1.9 C 4.8 g/m*3 1.9 C 0 km/h
753 24-02-2008 06:32:04 1.8 C 4.77 g/m*3 1.8 C 0 km/h
754 24-02-2008 06:44:04 1.9 C 4.86 g/m*3 1.9 C 0 km/h
755 24-02-2008 06:56:04 1.8 C 4.82 g/m*3 1.8 C 0 km/h
756 24-02-2008 07:08:04 1.8 C 4.82 g/m*3 1.8 C 0 km/h
757 24-02-2008 07:20:04 1.8 C 4.88 g/m*3 1.8 C 0 km/h
758 24-02-2008 07:32:04 1.6 C 4.81 g/m*3 1.6 C 0 km/h
759 24-02-2008 07:44:04 1.7 C 4.85 g/m*3 1.7 C 0 km/h
760 24-02-2008 07:56:04 1.8 C 4.88 g/m*3 1.8 C 0 km/h
761 24-02-2008 08:08:04 2.1 C 4.98 g/m*3 2.1 C 0 km/h
762 24-02-2008 08:20:04 2.2 C 5.01 g/m*3 2.2 C 0 km/h
763 24-02-2008 08:32:04 2.7 C 5.24 g/m*3 2.7 C 0 km/h
764 24-02-2008 08:44:04 3.2 C 5.42 g/m*3 3.2 C 0 km/h
765 24-02-2008 08:56:04 3.6 C 5.63 g/m*3 3.6 C 0 km/h
766 24-02-2008 09:08:04 4.1 C 5.76 g/m*3 4.1 C 0 km/h
767 24-02-2008 09:20:04 4.5 C 5.98 g/m*3 4.5 C 0 km/h
768 24-02-2008 09:32:04 4.8 C 6.1 g/m*3 4.8 C 0 km/h
769 24-02-2008 09:44:04 5 C 6.05 g/m*3 5 C 0 km/h
770 24-02-2008 09:56:02 5.1 C 6.02 g/m*3 5.1 C 0 km/h
771 24-02-2008 10:08:02 5.2 C 5.99 g/m*3 5.2 C 0 km/h
772 24-02-2008 10:20:02 5.6 C 6.08 g/m*3 5.6 C 0 km/h
773 24-02-2008 10:32:02 5.7 C 5.98 g/m*3 5.7 C 0 km/h
774 24-02-2008 10:44:02 5.8 C 6.02 g/m*3 5.8 C 0 km/h
775 24-02-2008 10:56:01 6.1 C 5.92 g/m*3 6.1 C 0 km/h
Sensor: Nr:Datum:Temp:Abs-Feuchte:Windchill:Wind:
Aussen-T/F 776 24-02-2008 11:08:02 6.9 C 6.08 g/m*3 6.9 C 0 km/h
777 24-02-2008 11:20:02 7 C 5.89 g/m*3 7 C 0 km/h
778 24-02-2008 11:32:02 7.4 C 6.04 g/m*3 7.4 C 0 km/h
779 24-02-2008 11:44:02 7.9 C 5.91 g/m*3 7.9 C 0 km/h
780 24-02-2008 11:56:02 8.2 C 5.86 g/m*3 8.2 C 0 km/h
781 24-02-2008 12:08:02 8.4 C 5.85 g/m*3 8.4 C 0 km/h
782 24-02-2008 12:20:02 8.9 C 5.87 g/m*3 8.9 C 0 km/h
783 24-02-2008 12:32:02 8.2 C 5.44 g/m*3 8.2 C 0 km/h
784 24-02-2008 12:44:02 8.3 C 5.65 g/m*3 8.3 C 0 km/h
785 24-02-2008 12:56:02 8.4 C 5.68 g/m*3 8.4 C 0 km/h
786 24-02-2008 13:08:02 8.2 C 5.69 g/m*3 8.2 C 0 km/h
787 24-02-2008 13:20:02 8.7 C 5.88 g/m*3 8.7 C 0 km/h
788 24-02-2008 13:32:01 9 C 5.73 g/m*3 9 C 0 km/h
789 24-02-2008 13:44:01 9.9 C 5.98 g/m*3 9.9 C 0 km/h
790 24-02-2008 13:56:02 10.8 C 6.03 g/m*3 10.8 C 0 km/h
791 24-02-2008 14:08:03 11.5 C 5.89 g/m*3 11.5 C 0 km/h
792 24-02-2008 14:20:02 12 C 5.75 g/m*3 12 C 0 km/h
793 24-02-2008 14:32:02 12.7 C 5.79 g/m*3 12.7 C 0 km/h
794 24-02-2008 14:44:02 13.3 C 5.55 g/m*3 13.3 C 0 km/h
795 24-02-2008 14:56:02 13.7 C 5.45 g/m*3 13.7 C 0 km/h
796 24-02-2008 15:08:02 14.3 C 5.41 g/m*3 14.3 C 0 km/h
797 24-02-2008 15:20:02 14.2 C 5.49 g/m*3 14.2 C 0 km/h
798 24-02-2008 15:32:02 14.3 C 5.41 g/m*3 14.3 C 0 km/h
799 24-02-2008 15:44:02 14.7 C 5.41 g/m*3 14.7 C 0 km/h
800 24-02-2008 15:56:02 14.4 C 5.32 g/m*3 14.4 C 0 km/h
Sensor: Nr:Datum:Temp:Abs-Feuchte:Windchill:Wind:
Aussen-T/F 801 24-02-2008 16:08:02 15.1 C 5.42 g/m*3 15.1 C 0 km/h
802 24-02-2008 16:20:02 14.8 C 5.45 g/m*3 14.8 C 0 km/h
803 24-02-2008 16:32:02 14.5 C 5.6 g/m*3 14.5 C 0 km/h
804 24-02-2008 16:44:02 14 C 5.55 g/m*3 14 C 0 km/h
805 24-02-2008 16:56:01 13.9 C 5.63 g/m*3 13.9 C 0 km/h
806 24-02-2008 17:08:02 14.1 C 5.46 g/m*3 14.1 C 0 km/h
807 24-02-2008 17:20:03 13.6 C 5.53 g/m*3 13.6 C 0 km/h
808 24-02-2008 17:32:02 13 C 5.56 g/m*3 13 C 0 km/h
809 24-02-2008 17:44:02 12.4 C 5.68 g/m*3 12.4 C 0 km/h
810 24-02-2008 17:56:02 11.4 C 5.85 g/m*3 11.4 C 0 km/h
811 24-02-2008 18:08:01 10.3 C 5.84 g/m*3 10.3 C 0 km/h
812 24-02-2008 18:20:01 9.7 C 5.99 g/m*3 9.7 C 0 km/h
813 24-02-2008 18:32:01 9.4 C 5.97 g/m*3 9.4 C 0 km/h
814 24-02-2008 18:44:01 9.1 C 6.12 g/m*3 9.1 C 0 km/h
815 24-02-2008 18:56:02 9 C 6.08 g/m*3 9 C 0 km/h
816 24-02-2008 19:08:02 8.7 C 6.14 g/m*3 8.7 C 0 km/h
817 24-02-2008 19:20:02 8.4 C 6.02 g/m*3 8.4 C 0 km/h
818 24-02-2008 19:32:02 8.1 C 5.91 g/m*3 8.1 C 0 km/h
819 24-02-2008 19:44:02 8 C 6.04 g/m*3 8 C 0 km/h
820 24-02-2008 19:56:02 7.9 C 6.24 g/m*3 7.9 C 0 km/h
821 24-02-2008 20:08:02 7.7 C 6.08 g/m*3 7.7 C 0 km/h
822 24-02-2008 20:20:02 7.5 C 5.92 g/m*3 7.5 C 0 km/h
823 24-02-2008 20:32:02 7.3 C 6 g/m*3 7.3 C 0 km/h
824 24-02-2008 20:44:02 6.9 C 6 g/m*3 6.9 C 0 km/h
825 24-02-2008 20:56:02 6.6 C 5.81 g/m*3 6.6 C 0 km/h
Sensor: Nr:Datum:Temp:Abs-Feuchte:Windchill:Wind:
Aussen-T/F 826 24-02-2008 21:08:02 6.4 C 5.89 g/m*3 6.4 C 0 km/h
827 24-02-2008 21:20:03 6.2 C 5.81 g/m*3 6.2 C 0 km/h
828 24-02-2008 21:32:02 6 C 5.73 g/m*3 6 C 0 km/h
829 24-02-2008 21:44:03 6 C 5.88 g/m*3 6 C 0 km/h
830 24-02-2008 21:56:02 5.9 C 5.91 g/m*3 5.9 C 0 km/h
831 24-02-2008 22:08:02 5.7 C 5.84 g/m*3 5.7 C 0 km/h
832 24-02-2008 22:21:02 5.5 C 5.83 g/m*3 5.5 C 0 km/h
833 24-02-2008 22:33:02 5.5 C 5.83 g/m*3 5.5 C 0 km/h
834 24-02-2008 22:45:03 5.6 C 5.94 g/m*3 5.6 C 0 km/h
835 24-02-2008 22:57:03 5.2 C 5.71 g/m*3 5.2 C 0 km/h
836 24-02-2008 23:09:03 5.1 C 5.68 g/m*3 5.1 C 0 km/h
837 24-02-2008 23:21:03 4.9 C 5.6 g/m*3 4.9 C 0 km/h
838 24-02-2008 23:33:03 4.9 C 5.67 g/m*3 4.9 C 0 km/h
839 24-02-2008 23:45:03 5 C 5.64 g/m*3 5 C 0 km/h
840 24-02-2008 23:57:03 4.9 C 5.74 g/m*3 4.9 C 0 km/h
841 25-02-2008 00:09:03 4.8 C 5.77 g/m*3 4.8 C 0 km/h
842 25-02-2008 00:21:03 5.1 C 5.88 g/m*3 5.1 C 0 km/h
843 25-02-2008 00:33:03 5.3 C 6.03 g/m*3 5.3 C 0 km/h
844 25-02-2008 00:45:03 5.2 C 5.99 g/m*3 5.2 C 0 km/h
845 25-02-2008 00:57:03 5.2 C 5.99 g/m*3 5.2 C 0 km/h
846 25-02-2008 01:09:03 5.4 C 6.14 g/m*3 5.4 C 0 km/h
847 25-02-2008 01:21:03 5.3 C 6.03 g/m*3 5.3 C 0 km/h
848 25-02-2008 01:33:03 5.5 C 6.18 g/m*3 5.5 C 0 km/h
849 25-02-2008 01:45:03 5.3 C 6.03 g/m*3 5.3 C 0 km/h
850 25-02-2008 01:57:03 6.7 C 6.61 g/m*3 6.7 C 0 km/h
Sensor: Nr:Datum:Temp:Abs-Feuchte:Windchill:Wind:
Aussen-T/F 851 25-02-2008 02:09:03 7.1 C 6.4 g/m*3 7.1 C 0 km/h
852 25-02-2008 02:21:03 7.3 C 6.16 g/m*3 7.3 C 0 km/h
853 25-02-2008 02:33:03 7.5 C 6.16 g/m*3 7.5 C 0 km/h
854 25-02-2008 02:45:04 7.6 C 6.12 g/m*3 7.6 C 0 km/h
855 25-02-2008 02:57:04 7.6 C 6.12 g/m*3 7.6 C 0 km/h
856 25-02-2008 03:09:04 7.6 C 6.04 g/m*3 7.6 C 0 km/h
857 25-02-2008 03:21:04 7.8 C 6.04 g/m*3 7.8 C 0 km/h
858 25-02-2008 03:33:04 7.9 C 6 g/m*3 7.9 C 0 km/h
859 25-02-2008 03:45:04 8 C 5.87 g/m*3 8 C 0 km/h
860 25-02-2008 03:57:04 8 C 5.87 g/m*3 8 C 0 km/h
861 25-02-2008 04:09:04 8.1 C 5.91 g/m*3 8.1 C 0 km/h
862 25-02-2008 04:21:04 8 C 6.04 g/m*3 8 C 0 km/h
863 25-02-2008 04:33:04 8.2 C 6.11 g/m*3 8.2 C 0 km/h
864 25-02-2008 04:45:04 8.2 C 6.11 g/m*3 8.2 C 0 km/h
865 25-02-2008 04:57:04 8 C 6.28 g/m*3 8 C 0 km/h
866 25-02-2008 05:09:04 8 C 6.45 g/m*3 8 C 0 km/h
867 25-02-2008 05:21:04 7.9 C 6.65 g/m*3 7.9 C 0 km/h
868 25-02-2008 05:33:04 8 C 6.7 g/m*3 8 C 0 km/h
869 25-02-2008 05:45:04 7.9 C 6.82 g/m*3 7.9 C 0 km/h
870 25-02-2008 05:57:04 7.9 C 6.9 g/m*3 7.9 C 0 km/h
871 25-02-2008 06:09:04 7.8 C 6.86 g/m*3 7.8 C 0 km/h
872 25-02-2008 06:21:04 7.8 C 6.86 g/m*3 7.8 C 0 km/h
873 25-02-2008 06:33:05 7.9 C 6.98 g/m*3 7.9 C 0 km/h
874 25-02-2008 06:45:05 8.1 C 6.91 g/m*3 8.1 C 0 km/h
875 25-02-2008 06:57:05 8.2 C 6.87 g/m*3 8.2 C 0 km/h
Sensor: Nr:Datum:Temp:Abs-Feuchte:Windchill:Wind:
Aussen-T/F 876 25-02-2008 07:09:02 8.2 C 6.78 g/m*3 8.2 C 0 km/h
877 25-02-2008 07:21:02 8.2 C 6.78 g/m*3 8.2 C 0 km/h
878 25-02-2008 07:33:03 8.1 C 6.74 g/m*3 8.1 C 0 km/h
879 25-02-2008 07:45:03 8.1 C 6.82 g/m*3 8.1 C 0 km/h
880 25-02-2008 07:57:03 8.1 C 6.82 g/m*3 8.1 C 0 km/h
881 25-02-2008 08:09:02 8.2 C 6.87 g/m*3 8.2 C 0 km/h
882 25-02-2008 08:21:02 8.2 C 6.95 g/m*3 8.2 C 0 km/h
883 25-02-2008 08:33:02 8.2 C 6.87 g/m*3 8.2 C 0 km/h
884 25-02-2008 08:45:02 8.5 C 7 g/m*3 8.5 C 0 km/h
885 25-02-2008 08:57:02 8.5 C 6.83 g/m*3 8.5 C 0 km/h
886 25-02-2008 09:09:03 8.7 C 6.4 g/m*3 8.7 C 0 km/h
887 25-02-2008 09:21:02 8.9 C 6.31 g/m*3 8.9 C 0 km/h
888 25-02-2008 09:33:02 8.9 C 6.13 g/m*3 8.9 C 0 km/h
889 25-02-2008 09:45:02 9.1 C 6.12 g/m*3 9.1 C 0 km/h
890 25-02-2008 09:57:02 9.1 C 5.94 g/m*3 9.1 C 0 km/h
891 25-02-2008 10:09:02 9 C 5.82 g/m*3 9 C 0 km/h
892 25-02-2008 10:21:02 9 C 5.73 g/m*3 9 C 0 km/h
893 25-02-2008 10:33:02 9.1 C 5.86 g/m*3 9.1 C 0 km/h
894 25-02-2008 10:45:02 9.3 C 5.84 g/m*3 9.3 C 0 km/h
895 25-02-2008 10:57:03 9.5 C 5.92 g/m*3 9.5 C 0 km/h
896 25-02-2008 11:09:01 9.5 C 5.73 g/m*3 9.5 C 0 km/h
897 25-02-2008 11:21:02 9.8 C 5.57 g/m*3 9.8 C 0 km/h
898 25-02-2008 11:33:01 9.8 C 5.29 g/m*3 9.8 C 0 km/h
899 25-02-2008 11:45:02 10.2 C 5.42 g/m*3 10.2 C 0 km/h
900 25-02-2008 11:57:02 10.9 C 5.17 g/m*3 10.9 C 0 km/h
Sensor: Nr:Datum:Temp:Abs-Feuchte:Windchill:Wind:
Aussen-T/F 901 25-02-2008 12:09:02 10.4 C 5.11 g/m*3 10.4 C 0 km/h
902 25-02-2008 12:21:02 10.4 C 5.3 g/m*3 10.4 C 0 km/h
903 25-02-2008 12:33:02 11 C 5.1 g/m*3 11 C 0 km/h
904 25-02-2008 12:45:03 11 C 5.1 g/m*3 11 C 0 km/h
905 25-02-2008 12:57:04 11.2 C 5.07 g/m*3 11.2 C 0 km/h
906 25-02-2008 13:09:02 11.5 C 5.06 g/m*3 11.5 C 0 km/h
907 25-02-2008 13:21:02 12.4 C 5.03 g/m*3 12.4 C 0 km/h
908 25-02-2008 13:33:03 12.8 C 5.04 g/m*3 12.8 C 0 km/h
909 25-02-2008 13:45:02 13.1 C 4.79 g/m*3 13.1 C 0 km/h
910 25-02-2008 13:57:02 14 C 4.95 g/m*3 14 C 0 km/h
911 25-02-2008 14:09:02 14.7 C 4.78 g/m*3 14.7 C 0 km/h
912 25-02-2008 14:21:02 14.8 C 4.81 g/m*3 14.8 C 0 km/h
913 25-02-2008 14:33:02 14.6 C 4.63 g/m*3 14.6 C 0 km/h
914 25-02-2008 14:45:02 14.9 C 4.59 g/m*3 14.9 C 0 km/h
915 25-02-2008 14:57:02 15 C 4.49 g/m*3 15 C 0 km/h
916 25-02-2008 15:09:02 14.8 C 4.56 g/m*3 14.8 C 0 km/h
917 25-02-2008 15:21:01 15 C 4.74 g/m*3 15 C 0 km/h
918 25-02-2008 15:33:02 15.3 C 4.57 g/m*3 15.3 C 0 km/h
919 25-02-2008 15:45:02 15.6 C 4.52 g/m*3 15.6 C 0 km/h
920 25-02-2008 15:57:02 15.8 C 4.44 g/m*3 15.8 C 0 km/h
921 25-02-2008 16:09:02 15.9 C 4.47 g/m*3 15.9 C 0 km/h
922 25-02-2008 16:21:02 15.9 C 4.33 g/m*3 15.9 C 0 km/h
923 25-02-2008 16:33:02 14.8 C 4.43 g/m*3 14.8 C 0 km/h
924 25-02-2008 16:45:02 14.3 C 4.55 g/m*3 14.3 C 0 km/h
925 25-02-2008 16:57:02 13.9 C 5.15 g/m*3 13.9 C 0 km/h
Sensor: Nr:Datum:Temp:Abs-Feuchte:Windchill:Wind:
Aussen-T/F 926 25-02-2008 17:09:02 13.5 C 5.26 g/m*3 13.5 C 0 km/h
927 25-02-2008 17:21:02 13.2 C 5.51 g/m*3 13.2 C 0 km/h
928 25-02-2008 17:33:02 12.7 C 5.57 g/m*3 12.7 C 0 km/h
929 25-02-2008 17:45:01 12.2 C 5.61 g/m*3 12.2 C 0 km/h
930 25-02-2008 17:57:01 11.7 C 5.75 g/m*3 11.7 C 0 km/h
931 25-02-2008 18:09:02 11.1 C 5.74 g/m*3 11.1 C 0 km/h
932 25-02-2008 18:21:01 10.8 C 5.83 g/m*3 10.8 C 0 km/h
933 25-02-2008 18:33:02 10.7 C 5.89 g/m*3 10.7 C 0 km/h
934 25-02-2008 18:45:02 10.4 C 5.88 g/m*3 10.4 C 0 km/h
935 25-02-2008 18:57:02 10.4 C 5.98 g/m*3 10.4 C 0 km/h
936 25-02-2008 19:09:02 10.6 C 5.95 g/m*3 10.6 C 0 km/h
937 25-02-2008 19:21:01 10.6 C 5.95 g/m*3 10.6 C 0 km/h
938 25-02-2008 19:33:01 10.5 C 5.92 g/m*3 10.5 C 0 km/h
939 25-02-2008 19:45:03 10.5 C 6.01 g/m*3 10.5 C 0 km/h
940 25-02-2008 19:57:03 10.5 C 6.01 g/m*3 10.5 C 0 km/h
941 25-02-2008 20:09:02 10.7 C 6.09 g/m*3 10.7 C 0 km/h
942 25-02-2008 20:21:02 10.7 C 6.09 g/m*3 10.7 C 0 km/h
943 25-02-2008 20:33:03 10.6 C 6.05 g/m*3 10.6 C 0 km/h
944 25-02-2008 20:45:02 10.6 C 6.15 g/m*3 10.6 C 0 km/h
945 25-02-2008 20:57:02 10.7 C 6.09 g/m*3 10.7 C 0 km/h
946 25-02-2008 21:09:02 10.8 C 6.13 g/m*3 10.8 C 0 km/h
947 25-02-2008 21:21:02 10.8 C 6.03 g/m*3 10.8 C 0 km/h
948 25-02-2008 21:33:02 10.5 C 6.01 g/m*3 10.5 C 0 km/h
949 25-02-2008 21:45:02 10.1 C 6.05 g/m*3 10.1 C 0 km/h
950 25-02-2008 21:57:02 10.1 C 6.15 g/m*3 10.1 C 0 km/h
Sensor: Nr:Datum:Temp:Abs-Feuchte:Windchill:Wind:
Aussen-T/F 951 25-02-2008 22:09:02 10 C 6.11 g/m*3 10 C 0 km/h
952 25-02-2008 22:21:02 10.1 C 6.24 g/m*3 10.1 C 0 km/h
953 25-02-2008 22:33:02 10.1 C 6.24 g/m*3 10.1 C 0 km/h
954 25-02-2008 22:45:02 10.2 C 6.38 g/m*3 10.2 C 0 km/h
955 25-02-2008 22:57:02 10.2 C 6.38 g/m*3 10.2 C 0 km/h
956 25-02-2008 23:09:02 10.2 C 6.38 g/m*3 10.2 C 0 km/h
957 25-02-2008 23:21:02 10.1 C 6.34 g/m*3 10.1 C 0 km/h
958 25-02-2008 23:33:02 10 C 6.3 g/m*3 10 C 0 km/h
959 25-02-2008 23:45:02 10.1 C 6.43 g/m*3 10.1 C 0 km/h
960 25-02-2008 23:57:02 10.2 C 6.38 g/m*3 10.2 C 0 km/h
961 26-02-2008 00:09:02 10.3 C 6.42 g/m*3 10.3 C 0 km/h
962 26-02-2008 00:21:02 10.4 C 6.55 g/m*3 10.4 C 0 km/h
963 26-02-2008 00:33:02 10.5 C 6.6 g/m*3 10.5 C 0 km/h
964 26-02-2008 00:45:02 10.4 C 6.55 g/m*3 10.4 C 0 km/h
965 26-02-2008 00:57:02 10.5 C 6.6 g/m*3 10.5 C 0 km/h
966 26-02-2008 01:09:02 10.1 C 6.52 g/m*3 10.1 C 0 km/h
967 26-02-2008 01:21:02 9.7 C 6.55 g/m*3 9.7 C 0 km/h
968 26-02-2008 01:33:02 9.4 C 6.6 g/m*3 9.4 C 0 km/h
969 26-02-2008 01:45:01 9.7 C 6.82 g/m*3 9.7 C 0 km/h
970 26-02-2008 01:57:01 10 C 6.77 g/m*3 10 C 0 km/h
971 26-02-2008 02:09:01 9.8 C 6.77 g/m*3 9.8 C 0 km/h
972 26-02-2008 02:21:02 9.7 C 6.82 g/m*3 9.7 C 0 km/h
973 26-02-2008 02:33:02 9.9 C 6.82 g/m*3 9.9 C 0 km/h
974 26-02-2008 02:46:03 10.2 C 6.85 g/m*3 10.2 C 0 km/h
975 26-02-2008 02:58:03 10.4 C 6.84 g/m*3 10.4 C 0 km/h
Sensor: Nr:Datum:Temp:Abs-Feuchte:Windchill:Wind:
Aussen-T/F 976 26-02-2008 03:10:03 10.8 C 6.82 g/m*3 10.8 C 0 km/h
977 26-02-2008 03:22:03 10.7 C 6.68 g/m*3 10.7 C 0 km/h
978 26-02-2008 03:34:02 10.7 C 6.78 g/m*3 10.7 C 0 km/h
979 26-02-2008 03:46:02 10.6 C 6.73 g/m*3 10.6 C 0 km/h
980 26-02-2008 03:58:02 10.5 C 6.69 g/m*3 10.5 C 0 km/h
981 26-02-2008 04:10:02 10.4 C 6.75 g/m*3 10.4 C 0 km/h
982 26-02-2008 04:22:02 10.5 C 6.89 g/m*3 10.5 C 0 km/h
983 26-02-2008 04:34:02 10.5 C 6.89 g/m*3 10.5 C 0 km/h
984 26-02-2008 04:46:02 10.5 C 6.79 g/m*3 10.5 C 0 km/h
985 26-02-2008 04:58:02 10.4 C 6.75 g/m*3 10.4 C 0 km/h
986 26-02-2008 05:10:01 10.3 C 6.7 g/m*3 10.3 C 0 km/h
987 26-02-2008 05:22:02 10.6 C 6.83 g/m*3 10.6 C 0 km/h
988 26-02-2008 05:34:02 10.6 C 6.73 g/m*3 10.6 C 0 km/h
989 26-02-2008 05:46:02 10.5 C 6.69 g/m*3 10.5 C 0 km/h
990 26-02-2008 05:58:02 10.4 C 6.75 g/m*3 10.4 C 0 km/h
991 26-02-2008 06:10:03 10.4 C 6.75 g/m*3 10.4 C 0 km/h
992 26-02-2008 06:22:02 10.4 C 6.65 g/m*3 10.4 C 0 km/h
993 26-02-2008 06:34:02 10.4 C 6.55 g/m*3 10.4 C 0 km/h
994 26-02-2008 06:46:01 10.4 C 6.55 g/m*3 10.4 C 0 km/h
995 26-02-2008 06:58:01 10.3 C 6.51 g/m*3 10.3 C 0 km/h
996 26-02-2008 07:10:01 10.1 C 6.43 g/m*3 10.1 C 0 km/h
997 26-02-2008 07:22:02 10 C 6.39 g/m*3 10 C 0 km/h
998 26-02-2008 07:34:01 10 C 6.39 g/m*3 10 C 0 km/h
999 26-02-2008 07:46:02 10 C 6.39 g/m*3 10 C 0 km/h
1000 26-02-2008 07:58:02 10 C 6.39 g/m*3 10 C 0 km/h
Sensor: Nr:Datum:Temp:Abs-Feuchte:Windchill:Wind:
Aussen-T/F 1001 26-02-2008 08:10:01 10.2 C 6.47 g/m*3 10.2 C 0 km/h
1002 26-02-2008 08:22:02 10.5 C 6.5 g/m*3 10.5 C 0 km/h
1003 26-02-2008 08:34:02 10.8 C 6.42 g/m*3 10.8 C 0 km/h
1004 26-02-2008 08:46:02 11 C 6.31 g/m*3 11 C 0 km/h
1005 26-02-2008 08:58:02 11.1 C 6.14 g/m*3 11.1 C 0 km/h
1006 26-02-2008 09:10:02 11.4 C 5.95 g/m*3 11.4 C 0 km/h
1007 26-02-2008 09:22:02 11.7 C 5.86 g/m*3 11.7 C 0 km/h
1008 26-02-2008 09:34:02 11.9 C 5.82 g/m*3 11.9 C 0 km/h
1009 26-02-2008 09:46:02 12.2 C 5.5 g/m*3 12.2 C 0 km/h
1010 26-02-2008 09:58:02 12.6 C 5.42 g/m*3 12.6 C 0 km/h
1011 26-02-2008 10:10:02 13.1 C 5.25 g/m*3 13.1 C 0 km/h
1012 26-02-2008 10:22:02 13.5 C 5.26 g/m*3 13.5 C 0 km/h
1013 26-02-2008 10:34:02 13.5 C 5.26 g/m*3 13.5 C 0 km/h
1014 26-02-2008 10:46:01 13.5 C 5.26 g/m*3 13.5 C 0 km/h
1015 26-02-2008 10:58:01 13.7 C 5.33 g/m*3 13.7 C 0 km/h
1016 26-02-2008 11:10:01 13.7 C 5.33 g/m*3 13.7 C 0 km/h
1017 26-02-2008 11:22:02 13.8 C 5.36 g/m*3 13.8 C 0 km/h
1018 26-02-2008 11:34:01 13.7 C 5.45 g/m*3 13.7 C 0 km/h
1019 26-02-2008 11:46:02 13.7 C 5.45 g/m*3 13.7 C 0 km/h
1020 26-02-2008 11:58:02 13.6 C 5.41 g/m*3 13.6 C 0 km/h
1021 26-02-2008 12:10:01 13.5 C 5.5 g/m*3 13.5 C 0 km/h
1022 26-02-2008 12:22:02 13.4 C 5.46 g/m*3 13.4 C 0 km/h
1023 26-02-2008 12:34:02 13.4 C 5.58 g/m*3 13.4 C 0 km/h
1024 26-02-2008 12:46:02 13.4 C 5.58 g/m*3 13.4 C 0 km/h
1025 26-02-2008 12:58:02 13.4 C 5.58 g/m*3 13.4 C 0 km/h
Sensor: Nr:Datum:Temp:Abs-Feuchte:Windchill:Wind:
Aussen-T/F 1026 26-02-2008 13:10:02 13.4 C 5.7 g/m*3 13.4 C 0 km/h
1027 26-02-2008 13:22:02 13.4 C 5.81 g/m*3 13.4 C 0 km/h
1028 26-02-2008 13:34:02 13.4 C 5.81 g/m*3 13.4 C 0 km/h
1029 26-02-2008 13:46:02 13.5 C 5.97 g/m*3 13.5 C 0 km/h
1030 26-02-2008 13:58:02 13.5 C 6.08 g/m*3 13.5 C 0 km/h
1031 26-02-2008 14:10:02 13.5 C 6.08 g/m*3 13.5 C 0 km/h
1032 26-02-2008 14:22:03 13.4 C 6.04 g/m*3 13.4 C 0 km/h
1033 26-02-2008 14:34:02 13.4 C 6.16 g/m*3 13.4 C 0 km/h
1034 26-02-2008 14:46:02 13.4 C 6.16 g/m*3 13.4 C 0 km/h
1035 26-02-2008 14:58:02 13.4 C 6.16 g/m*3 13.4 C 0 km/h
1036 26-02-2008 15:10:01 13.2 C 6.09 g/m*3 13.2 C 0 km/h
1037 26-02-2008 15:22:02 13.2 C 6.2 g/m*3 13.2 C 0 km/h
1038 26-02-2008 15:34:01 13.1 C 6.05 g/m*3 13.1 C 0 km/h
1039 26-02-2008 15:46:02 13 C 6.12 g/m*3 13 C 0 km/h
1040 26-02-2008 15:58:02 12.9 C 6.2 g/m*3 12.9 C 0 km/h
1041 26-02-2008 16:10:01 12.8 C 6.16 g/m*3 12.8 C 0 km/h
1042 26-02-2008 16:22:02 12.7 C 6.23 g/m*3 12.7 C 0 km/h
1043 26-02-2008 16:34:02 12.4 C 6.45 g/m*3 12.4 C 0 km/h
1044 26-02-2008 16:46:02 12 C 6.5 g/m*3 12 C 0 km/h
1045 26-02-2008 16:58:02 12 C 6.5 g/m*3 12 C 0 km/h
1046 26-02-2008 17:10:02 11.8 C 6.63 g/m*3 11.8 C 0 km/h
1047 26-02-2008 17:22:02 11.8 C 6.74 g/m*3 11.8 C 0 km/h
1048 26-02-2008 17:34:02 11.2 C 6.99 g/m*3 11.2 C 0 km/h
1049 26-02-2008 17:46:01 10.9 C 7.16 g/m*3 10.9 C 0 km/h
1050 26-02-2008 17:58:01 10.8 C 7.22 g/m*3 10.8 C 0 km/h
Sensor: Nr:Datum:Temp:Abs-Feuchte:Windchill:Wind:
Aussen-T/F 1051 26-02-2008 18:10:01 10.5 C 7.37 g/m*3 10.5 C 0 km/h
1052 26-02-2008 18:22:01 10.4 C 7.61 g/m*3 10.4 C 0 km/h
1053 26-02-2008 18:34:02 10.4 C 7.61 g/m*3 10.4 C 0 km/h
1054 26-02-2008 18:46:02 10.5 C 7.57 g/m*3 10.5 C 0 km/h
1055 26-02-2008 18:58:02 10.4 C 7.52 g/m*3 10.4 C 0 km/h
1056 26-02-2008 19:10:02 10.4 C 7.52 g/m*3 10.4 C 0 km/h
1057 26-02-2008 19:22:02 10.5 C 7.57 g/m*3 10.5 C 0 km/h
1058 26-02-2008 19:34:02 10.5 C 7.57 g/m*3 10.5 C 0 km/h
1059 26-02-2008 19:46:02 10.3 C 7.57 g/m*3 10.3 C 0 km/h
1060 26-02-2008 19:58:02 10.1 C 7.66 g/m*3 10.1 C 0 km/h
1061 26-02-2008 20:10:02 10.1 C 7.75 g/m*3 10.1 C 0 km/h
1062 26-02-2008 20:22:02 10.1 C 7.75 g/m*3 10.1 C 0 km/h
1063 26-02-2008 20:34:02 10.2 C 7.8 g/m*3 10.2 C 0 km/h
1064 26-02-2008 20:46:02 10.1 C 7.75 g/m*3 10.1 C 0 km/h
1065 26-02-2008 20:58:02 9.8 C 7.33 g/m*3 9.8 C 0 km/h
1066 26-02-2008 21:10:03 9.7 C 6.27 g/m*3 9.7 C 0 km/h
1067 26-02-2008 21:22:03 9.3 C 6.2 g/m*3 9.3 C 0 km/h
1068 26-02-2008 21:34:02 9.4 C 6.15 g/m*3 9.4 C 0 km/h
1069 26-02-2008 21:46:02 9.2 C 6.16 g/m*3 9.2 C 0 km/h
1070 26-02-2008 21:58:02 9.3 C 6.2 g/m*3 9.3 C 0 km/h
1071 26-02-2008 22:10:02 9.3 C 6.29 g/m*3 9.3 C 0 km/h
1072 26-02-2008 22:23:03 9.2 C 6.16 g/m*3 9.2 C 0 km/h
1073 26-02-2008 22:35:04 9 C 6.17 g/m*3 9 C 0 km/h
1074 26-02-2008 22:47:04 8.9 C 6.22 g/m*3 8.9 C 0 km/h
1075 26-02-2008 22:59:04 8.6 C 6.02 g/m*3 8.6 C 0 km/h
Sensor: Nr:Datum:Temp:Abs-Feuchte:Windchill:Wind:
Aussen-T/F 1076 26-02-2008 23:11:04 8.7 C 5.97 g/m*3 8.7 C 0 km/h
1077 26-02-2008 23:23:04 8.4 C 5.94 g/m*3 8.4 C 0 km/h
1078 26-02-2008 23:35:04 8.1 C 5.91 g/m*3 8.1 C 0 km/h
1079 26-02-2008 23:47:04 8.1 C 5.74 g/m*3 8.1 C 0 km/h
1080 26-02-2008 23:59:04 8 C 5.79 g/m*3 8 C 0 km/h
1081 27-02-2008 00:11:04 7.8 C 5.63 g/m*3 7.8 C 0 km/h
1082 27-02-2008 00:23:04 7.8 C 5.14 g/m*3 7.8 C 0 km/h
1083 27-02-2008 00:35:04 7.6 C 5.08 g/m*3 7.6 C 0 km/h
1084 27-02-2008 00:47:04 7.6 C 4.91 g/m*3 7.6 C 0 km/h
1085 27-02-2008 00:59:04 7.8 C 4.82 g/m*3 7.8 C 0 km/h
1086 27-02-2008 01:11:04 7.6 C 4.67 g/m*3 7.6 C 0 km/h
1087 27-02-2008 01:23:04 7.4 C 4.69 g/m*3 7.4 C 0 km/h
1088 27-02-2008 01:35:04 7.4 C 4.69 g/m*3 7.4 C 0 km/h
1089 27-02-2008 01:47:04 7.5 C 4.72 g/m*3 7.5 C 0 km/h
1090 27-02-2008 01:59:04 7.4 C 4.69 g/m*3 7.4 C 0 km/h
1091 27-02-2008 02:11:04 7.4 C 4.69 g/m*3 7.4 C 0 km/h
1092 27-02-2008 02:23:04 7.4 C 4.69 g/m*3 7.4 C 0 km/h
1093 27-02-2008 02:35:04 7.3 C 4.66 g/m*3 7.3 C 0 km/h
1094 27-02-2008 02:47:05 7.1 C 4.68 g/m*3 7.1 C 0 km/h
1095 27-02-2008 02:59:05 6.9 C 4.77 g/m*3 6.9 C 0 km/h
1096 27-02-2008 03:11:05 6.9 C 4.77 g/m*3 6.9 C 0 km/h
1097 27-02-2008 03:23:05 6.9 C 4.62 g/m*3 6.9 C 0 km/h
1098 27-02-2008 03:35:05 6.9 C 4.54 g/m*3 6.9 C 0 km/h
1099 27-02-2008 03:47:05 7 C 4.42 g/m*3 7 C 0 km/h
1100 27-02-2008 03:59:05 6.9 C 4.46 g/m*3 6.9 C 0 km/h
Sensor: Nr:Datum:Temp:Abs-Feuchte:Windchill:Wind:
Aussen-T/F 1101 27-02-2008 04:11:05 6.9 C 4.54 g/m*3 6.9 C 0 km/h
1102 27-02-2008 04:23:05 6.9 C 4.54 g/m*3 6.9 C 0 km/h
1103 27-02-2008 04:35:05 6.9 C 4.54 g/m*3 6.9 C 0 km/h
1104 27-02-2008 04:47:05 6.7 C 4.64 g/m*3 6.7 C 0 km/h
1105 27-02-2008 04:59:05 6.4 C 4.69 g/m*3 6.4 C 0 km/h
1106 27-02-2008 05:11:05 6.3 C 4.74 g/m*3 6.3 C 0 km/h
1107 27-02-2008 05:23:05 6.2 C 4.78 g/m*3 6.2 C 0 km/h
1108 27-02-2008 05:35:05 5.9 C 4.76 g/m*3 5.9 C 0 km/h
1109 27-02-2008 05:47:05 5.9 C 4.76 g/m*3 5.9 C 0 km/h
1110 27-02-2008 05:59:05 5.7 C 4.77 g/m*3 5.7 C 0 km/h
1111 27-02-2008 06:11:05 5.4 C 4.81 g/m*3 5.4 C 0 km/h
1112 27-02-2008 06:23:05 5.4 C 4.81 g/m*3 5.4 C 0 km/h
1113 27-02-2008 06:35:05 5.6 C 4.81 g/m*3 5.6 C 0 km/h
1114 27-02-2008 06:47:06 5.6 C 4.81 g/m*3 5.6 C 0 km/h
1115 27-02-2008 06:59:06 5.6 C 4.81 g/m*3 5.6 C 0 km/h
1116 27-02-2008 07:11:03 5.6 C 4.81 g/m*3 5.6 C 0 km/h
1117 27-02-2008 07:23:02 5.4 C 4.81 g/m*3 5.4 C 0 km/h
1118 27-02-2008 07:35:03 5.2 C 4.75 g/m*3 5.2 C 0 km/h
1119 27-02-2008 07:47:03 5.1 C 4.79 g/m*3 5.1 C 0 km/h
1120 27-02-2008 07:59:03 5.1 C 4.86 g/m*3 5.1 C 0 km/h
1121 27-02-2008 08:11:02 5.2 C 4.82 g/m*3 5.2 C 0 km/h
1122 27-02-2008 08:23:02 5.9 C 4.83 g/m*3 5.9 C 0 km/h
1123 27-02-2008 08:35:03 6.3 C 4.66 g/m*3 6.3 C 0 km/h
1124 27-02-2008 08:47:03 6.4 C 4.69 g/m*3 6.4 C 0 km/h
1125 27-02-2008 08:59:03 6.8 C 4.82 g/m*3 6.8 C 0 km/h
Sensor: Nr:Datum:Temp:Abs-Feuchte:Windchill:Wind:
Aussen-T/F 1126 27-02-2008 09:11:02 6.7 C 4.71 g/m*3 6.7 C 0 km/h
1127 27-02-2008 09:23:02 6.8 C 4.74 g/m*3 6.8 C 0 km/h
1128 27-02-2008 09:35:03 6.9 C 4.7 g/m*3 6.9 C 0 km/h
1129 27-02-2008 09:47:02 7 C 4.65 g/m*3 7 C 0 km/h
1130 27-02-2008 09:59:02 7.4 C 4.69 g/m*3 7.4 C 0 km/h
1131 27-02-2008 10:11:02 7.5 C 4.64 g/m*3 7.5 C 0 km/h
1132 27-02-2008 10:23:02 7.8 C 4.57 g/m*3 7.8 C 0 km/h
1133 27-02-2008 10:35:02 8.5 C 4.53 g/m*3 8.5 C 0 km/h
1134 27-02-2008 10:47:02 8.9 C 4.47 g/m*3 8.9 C 0 km/h
1135 27-02-2008 10:59:02 8.8 C 4.35 g/m*3 8.8 C 0 km/h
1136 27-02-2008 11:11:02 8.7 C 4.41 g/m*3 8.7 C 0 km/h
1137 27-02-2008 11:23:02 8.9 C 4.38 g/m*3 8.9 C 0 km/h
1138 27-02-2008 11:35:01 9 C 4.32 g/m*3 9 C 0 km/h
1139 27-02-2008 11:47:01 9.2 C 4.38 g/m*3 9.2 C 0 km/h
1140 27-02-2008 11:59:01 9.4 C 4.25 g/m*3 9.4 C 0 km/h
1141 27-02-2008 12:11:02 9.8 C 4.18 g/m*3 9.8 C 0 km/h
1142 27-02-2008 12:23:02 9.6 C 3.94 g/m*3 9.6 C 0 km/h
1143 27-02-2008 12:35:01 9.8 C 4.18 g/m*3 9.8 C 0 km/h
1144 27-02-2008 12:47:01 9.8 C 4.18 g/m*3 9.8 C 0 km/h
1145 27-02-2008 12:59:01 10 C 4.04 g/m*3 10 C 0 km/h
1146 27-02-2008 13:11:02 10.1 C 4.07 g/m*3 10.1 C 0 km/h
1147 27-02-2008 13:23:01 10 C 3.85 g/m*3 10 C 0 km/h
1148 27-02-2008 13:35:02 10 C 3.95 g/m*3 10 C 0 km/h
1149 27-02-2008 13:47:03 10.4 C 3.86 g/m*3 10.4 C 0 km/h
1150 27-02-2008 13:59:03 10.4 C 3.95 g/m*3 10.4 C 0 km/h
Sensor: Nr:Datum:Temp:Abs-Feuchte:Windchill:Wind:
Aussen-T/F 1151 27-02-2008 14:11:02 10.1 C 3.97 g/m*3 10.1 C 0 km/h
1152 27-02-2008 14:23:02 10.1 C 3.88 g/m*3 10.1 C 0 km/h
1153 27-02-2008 14:35:03 10.1 C 3.88 g/m*3 10.1 C 0 km/h
1154 27-02-2008 14:47:02 11.3 C 3.98 g/m*3 11.3 C 0 km/h
1155 27-02-2008 14:59:02 10.9 C 3.98 g/m*3 10.9 C 0 km/h
1156 27-02-2008 15:11:02 11.8 C 3.89 g/m*3 11.8 C 0 km/h
1157 27-02-2008 15:23:02 11.2 C 3.75 g/m*3 11.2 C 0 km/h
1158 27-02-2008 15:35:02 10.9 C 3.68 g/m*3 10.9 C 0 km/h
1159 27-02-2008 15:47:02 11.1 C 3.73 g/m*3 11.1 C 0 km/h
1160 27-02-2008 15:59:02 10.6 C 3.9 g/m*3 10.6 C 0 km/h
1161 27-02-2008 16:11:02 10.7 C 3.83 g/m*3 10.7 C 0 km/h
1162 27-02-2008 16:23:02 10.6 C 3.71 g/m*3 10.6 C 0 km/h
1163 27-02-2008 16:35:02 10.8 C 3.66 g/m*3 10.8 C 0 km/h
1164 27-02-2008 16:47:02 11 C 3.5 g/m*3 11 C 0 km/h
1165 27-02-2008 16:59:02 10.7 C 3.54 g/m*3 10.7 C 0 km/h
1166 27-02-2008 17:11:01 10.8 C 3.85 g/m*3 10.8 C 0 km/h
1167 27-02-2008 17:23:02 10.6 C 3.71 g/m*3 10.6 C 0 km/h
1168 27-02-2008 17:35:02 10.4 C 3.66 g/m*3 10.4 C 0 km/h
1169 27-02-2008 17:47:02 10.1 C 3.69 g/m*3 10.1 C 0 km/h
1170 27-02-2008 17:59:02 9.7 C 3.87 g/m*3 9.7 C 0 km/h
1171 27-02-2008 18:11:01 9.3 C 4.04 g/m*3 9.3 C 0 km/h
1172 27-02-2008 18:23:01 8.8 C 4.09 g/m*3 8.8 C 0 km/h
1173 27-02-2008 18:35:02 8.6 C 4.04 g/m*3 8.6 C 0 km/h
1174 27-02-2008 18:47:01 8.3 C 4.05 g/m*3 8.3 C 0 km/h
1175 27-02-2008 18:59:01 7.9 C 4.11 g/m*3 7.9 C 0 km/h
Sensor: Nr:Datum:Temp:Abs-Feuchte:Windchill:Wind:
Aussen-T/F 1176 27-02-2008 19:11:02 7.6 C 4.11 g/m*3 7.6 C 0 km/h
1177 27-02-2008 19:23:01 7.3 C 4.03 g/m*3 7.3 C 0 km/h
1178 27-02-2008 19:35:01 7.1 C 4.06 g/m*3 7.1 C 0 km/h
1179 27-02-2008 19:47:01 6.9 C 4.08 g/m*3 6.9 C 0 km/h
1180 27-02-2008 19:59:01 6.7 C 4.1 g/m*3 6.7 C 0 km/h
1181 27-02-2008 20:11:02 6.6 C 4.08 g/m*3 6.6 C 0 km/h
1182 27-02-2008 20:23:01 6.8 C 4.13 g/m*3 6.8 C 0 km/h
1183 27-02-2008 20:35:01 6.6 C 4.15 g/m*3 6.6 C 0 km/h
1184 27-02-2008 20:47:01 6.3 C 4.15 g/m*3 6.3 C 0 km/h
1185 27-02-2008 20:59:01 6 C 4.14 g/m*3 6 C 0 km/h
1186 27-02-2008 21:11:01 5.9 C 4.33 g/m*3 5.9 C 0 km/h
1187 27-02-2008 21:23:02 5.8 C 4.37 g/m*3 5.8 C 0 km/h
1188 27-02-2008 21:35:01 5.7 C 4.34 g/m*3 5.7 C 0 km/h
1189 27-02-2008 21:47:02 5.7 C 4.34 g/m*3 5.7 C 0 km/h
1190 27-02-2008 21:59:02 5.3 C 4.3 g/m*3 5.3 C 0 km/h
1191 27-02-2008 22:11:02 5.1 C 4.31 g/m*3 5.1 C 0 km/h
1192 27-02-2008 22:23:01 5 C 4.35 g/m*3 5 C 0 km/h
1193 27-02-2008 22:35:02 5 C 4.35 g/m*3 5 C 0 km/h
1194 27-02-2008 22:47:02 5 C 4.35 g/m*3 5 C 0 km/h
1195 27-02-2008 22:59:02 5.1 C 4.38 g/m*3 5.1 C 0 km/h
1196 27-02-2008 23:11:01 5.4 C 4.4 g/m*3 5.4 C 0 km/h
1197 27-02-2008 23:24:02 5.5 C 4.42 g/m*3 5.5 C 0 km/h
1198 27-02-2008 23:36:02 5.6 C 4.45 g/m*3 5.6 C 0 km/h
1199 27-02-2008 23:48:02 5.7 C 4.41 g/m*3 5.7 C 0 km/h
1200 28-02-2008 00:00:02 5.7 C 4.41 g/m*3 5.7 C 0 km/h
Sensor: Nr:Datum:Temp:Abs-Feuchte:Windchill:Wind:
Aussen-T/F 1201 28-02-2008 00:12:02 5.7 C 4.48 g/m*3 5.7 C 0 km/h
1202 28-02-2008 00:24:02 5.7 C 4.48 g/m*3 5.7 C 0 km/h
1203 28-02-2008 00:36:02 5.8 C 4.51 g/m*3 5.8 C 0 km/h
1204 28-02-2008 00:48:02 5.8 C 4.51 g/m*3 5.8 C 0 km/h
1205 28-02-2008 01:00:02 5.8 C 4.51 g/m*3 5.8 C 0 km/h
1206 28-02-2008 01:12:02 5.9 C 4.54 g/m*3 5.9 C 0 km/h
1207 28-02-2008 01:24:03 6 C 4.5 g/m*3 6 C 0 km/h
1208 28-02-2008 01:36:03 6 C 4.5 g/m*3 6 C 0 km/h
1209 28-02-2008 01:48:03 5.9 C 4.54 g/m*3 5.9 C 0 km/h
1210 28-02-2008 02:00:03 5.9 C 4.61 g/m*3 5.9 C 0 km/h
1211 28-02-2008 02:12:03 5.8 C 4.58 g/m*3 5.8 C 0 km/h
1212 28-02-2008 02:24:03 5.7 C 4.63 g/m*3 5.7 C 0 km/h
1213 28-02-2008 02:36:03 5.3 C 4.57 g/m*3 5.3 C 0 km/h
1214 28-02-2008 02:48:03 5 C 4.48 g/m*3 5 C 0 km/h
1215 28-02-2008 03:00:03 4.9 C 4.59 g/m*3 4.9 C 0 km/h
1216 28-02-2008 03:12:03 4.8 C 4.56 g/m*3 4.8 C 0 km/h
1217 28-02-2008 03:24:03 4.7 C 4.53 g/m*3 4.7 C 0 km/h
1218 28-02-2008 03:36:03 4.5 C 4.47 g/m*3 4.5 C 0 km/h
1219 28-02-2008 03:48:03 4.4 C 4.51 g/m*3 4.4 C 0 km/h
1220 28-02-2008 04:00:03 4 C 4.39 g/m*3 4 C 0 km/h
1221 28-02-2008 04:12:03 3.9 C 4.48 g/m*3 3.9 C 0 km/h
1222 28-02-2008 04:24:03 4.1 C 4.48 g/m*3 4.1 C 0 km/h
1223 28-02-2008 04:36:03 4.2 C 4.57 g/m*3 4.2 C 0 km/h
1224 28-02-2008 04:48:03 4.3 C 4.67 g/m*3 4.3 C 0 km/h
1225 28-02-2008 05:00:03 4.4 C 4.7 g/m*3 4.4 C 0 km/h
Sensor: Nr:Datum:Temp:Abs-Feuchte:Windchill:Wind:
Aussen-T/F 1226 28-02-2008 05:12:04 4.3 C 4.67 g/m*3 4.3 C 0 km/h
1227 28-02-2008 05:24:04 4.5 C 4.73 g/m*3 4.5 C 0 km/h
1228 28-02-2008 05:36:04 4.1 C 4.61 g/m*3 4.1 C 0 km/h
1229 28-02-2008 05:48:04 4.3 C 4.67 g/m*3 4.3 C 0 km/h
1230 28-02-2008 06:00:04 4.5 C 4.67 g/m*3 4.5 C 0 km/h
1231 28-02-2008 06:12:04 4.4 C 4.57 g/m*3 4.4 C 0 km/h
1232 28-02-2008 06:24:04 4.7 C 4.66 g/m*3 4.7 C 0 km/h
1233 28-02-2008 06:36:04 4.8 C 4.56 g/m*3 4.8 C 0 km/h
1234 28-02-2008 06:48:04 4.9 C 4.59 g/m*3 4.9 C 0 km/h
1235 28-02-2008 07:00:04 4.9 C 4.66 g/m*3 4.9 C 0 km/h
1236 28-02-2008 07:12:02 5 C 4.55 g/m*3 5 C 0 km/h
1237 28-02-2008 07:24:02 5.1 C 4.58 g/m*3 5.1 C 0 km/h
1238 28-02-2008 07:36:01 5.2 C 4.54 g/m*3 5.2 C 0 km/h
1239 28-02-2008 07:48:02 5.1 C 4.58 g/m*3 5.1 C 0 km/h
1240 28-02-2008 08:00:02 5.3 C 4.64 g/m*3 5.3 C 0 km/h
1241 28-02-2008 08:12:02 5.5 C 4.64 g/m*3 5.5 C 0 km/h
1242 28-02-2008 08:24:02 5.6 C 4.67 g/m*3 5.6 C 0 km/h
1243 28-02-2008 08:36:02 5.8 C 4.66 g/m*3 5.8 C 0 km/h
1244 28-02-2008 08:48:02 5.8 C 4.73 g/m*3 5.8 C 0 km/h
1245 28-02-2008 09:00:02 5.9 C 4.69 g/m*3 5.9 C 0 km/h
1246 28-02-2008 09:12:02 6 C 4.65 g/m*3 6 C 0 km/h
1247 28-02-2008 09:24:01 6.2 C 4.56 g/m*3 6.2 C 0 km/h
1248 28-02-2008 09:36:01 6.6 C 4.6 g/m*3 6.6 C 0 km/h
1249 28-02-2008 09:48:01 6.9 C 4.7 g/m*3 6.9 C 0 km/h
1250 28-02-2008 10:00:01 7.1 C 4.6 g/m*3 7.1 C 0 km/h
Sensor: Nr:Datum:Temp:Abs-Feuchte:Windchill:Wind:
Aussen-T/F 1251 28-02-2008 10:12:02 7.4 C 4.61 g/m*3 7.4 C 0 km/h
1252 28-02-2008 10:24:01 7.6 C 4.59 g/m*3 7.6 C 0 km/h
1253 28-02-2008 10:36:01 8 C 4.55 g/m*3 8 C 0 km/h
1254 28-02-2008 10:48:01 8.2 C 4.61 g/m*3 8.2 C 0 km/h
1255 28-02-2008 11:00:01 8.5 C 4.53 g/m*3 8.5 C 0 km/h
1256 28-02-2008 11:12:01 9 C 4.58 g/m*3 9 C 0 km/h
1257 28-02-2008 11:24:02 9.3 C 4.22 g/m*3 9.3 C 0 km/h
1258 28-02-2008 11:36:01 9.3 C 4.04 g/m*3 9.3 C 0 km/h
1259 28-02-2008 11:48:02 9.6 C 3.76 g/m*3 9.6 C 0 km/h
1260 28-02-2008 12:00:02 9.8 C 3.34 g/m*3 9.8 C 0 km/h
1261 28-02-2008 12:12:02 9.8 C 2.97 g/m*3 9.8 C 0 km/h
1262 28-02-2008 12:24:02 10 C 3.01 g/m*3 10 C 0 km/h
1263 28-02-2008 12:36:01 10.3 C 3.06 g/m*3 10.3 C 0 km/h
1264 28-02-2008 12:48:01 10.8 C 3.06 g/m*3 10.8 C 0 km/h
1265 28-02-2008 13:00:01 11 C 2.9 g/m*3 11 C 0 km/h
1266 28-02-2008 13:12:02 11.2 C 2.94 g/m*3 11.2 C 0 km/h
1267 28-02-2008 13:24:02 11.4 C 3.08 g/m*3 11.4 C 0 km/h
1268 28-02-2008 13:36:02 11.6 C 3.01 g/m*3 11.6 C 0 km/h
1269 28-02-2008 13:48:02 11.5 C 3 g/m*3 11.5 C 0 km/h
1270 28-02-2008 14:00:02 11.7 C 3.14 g/m*3 11.7 C 0 km/h
1271 28-02-2008 14:12:02 11.8 C 3.16 g/m*3 11.8 C 0 km/h
1272 28-02-2008 14:24:02 11.8 C 3.05 g/m*3 11.8 C 0 km/h
1273 28-02-2008 14:36:02 11.8 C 3.05 g/m*3 11.8 C 0 km/h
1274 28-02-2008 14:48:02 12.2 C 3.13 g/m*3 12.2 C 0 km/h
1275 28-02-2008 15:00:02 12.4 C 3.06 g/m*3 12.4 C 0 km/h
Sensor: Nr:Datum:Temp:Abs-Feuchte:Windchill:Wind:
Aussen-T/F 1276 28-02-2008 15:12:02 12.4 C 3.06 g/m*3 12.4 C 0 km/h
1277 28-02-2008 15:24:02 12.3 C 3.15 g/m*3 12.3 C 0 km/h
1278 28-02-2008 15:36:01 11.9 C 3.28 g/m*3 11.9 C 0 km/h
1279 28-02-2008 15:48:01 11.8 C 3.26 g/m*3 11.8 C 0 km/h
1280 28-02-2008 16:00:01 11.7 C 3.35 g/m*3 11.7 C 0 km/h
1281 28-02-2008 16:12:02 11.7 C 3.35 g/m*3 11.7 C 0 km/h
1282 28-02-2008 16:24:02 11.8 C 3.37 g/m*3 11.8 C 0 km/h
1283 28-02-2008 16:36:02 11.7 C 3.45 g/m*3 11.7 C 0 km/h
1284 28-02-2008 16:48:02 11.4 C 3.49 g/m*3 11.4 C 0 km/h
1285 28-02-2008 17:00:02 11.4 C 3.59 g/m*3 11.4 C 0 km/h
1286 28-02-2008 17:12:02 11.3 C 3.57 g/m*3 11.3 C 0 km/h
1287 28-02-2008 17:24:02 11.2 C 3.65 g/m*3 11.2 C 0 km/h
1288 28-02-2008 17:36:02 11.1 C 3.63 g/m*3 11.1 C 0 km/h
1289 28-02-2008 17:48:02 10.7 C 4.22 g/m*3 10.7 C 0 km/h
1290 28-02-2008 18:00:02 10 C 4.79 g/m*3 10 C 0 km/h
1291 28-02-2008 18:12:02 9.1 C 5.23 g/m*3 9.1 C 0 km/h
1292 28-02-2008 18:24:02 8.7 C 5.36 g/m*3 8.7 C 0 km/h
1293 28-02-2008 18:36:01 8.5 C 5.64 g/m*3 8.5 C 0 km/h
1294 28-02-2008 18:48:01 8.2 C 5.78 g/m*3 8.2 C 0 km/h
1295 28-02-2008 19:00:01 7.9 C 6.16 g/m*3 7.9 C 0 km/h
1296 28-02-2008 19:12:02 7.5 C 6.32 g/m*3 7.5 C 0 km/h
1297 28-02-2008 19:24:02 7.5 C 6.56 g/m*3 7.5 C 0 km/h
1298 28-02-2008 19:36:02 7.5 C 6.72 g/m*3 7.5 C 0 km/h
1299 28-02-2008 19:48:02 7.5 C 6.72 g/m*3 7.5 C 0 km/h
1300 28-02-2008 20:00:02 7.7 C 6.81 g/m*3 7.7 C 0 km/h
Sensor: Nr:Datum:Temp:Abs-Feuchte:Windchill:Wind:
Aussen-T/F 1301 28-02-2008 20:12:02 7.5 C 6.8 g/m*3 7.5 C 0 km/h
1302 28-02-2008 20:24:02 7.6 C 6.93 g/m*3 7.6 C 0 km/h
1303 28-02-2008 20:36:02 7.5 C 6.96 g/m*3 7.5 C 0 km/h
1304 28-02-2008 20:48:01 7.5 C 6.96 g/m*3 7.5 C 0 km/h
1305 28-02-2008 21:00:01 7.4 C 6.92 g/m*3 7.4 C 0 km/h
1306 28-02-2008 21:12:01 7.4 C 7 g/m*3 7.4 C 0 km/h
1307 28-02-2008 21:24:01 7.3 C 6.95 g/m*3 7.3 C 0 km/h
1308 28-02-2008 21:36:02 7.3 C 6.95 g/m*3 7.3 C 0 km/h
1309 28-02-2008 21:48:02 7.2 C 6.99 g/m*3 7.2 C 0 km/h
1310 28-02-2008 22:00:02 7.2 C 6.99 g/m*3 7.2 C 0 km/h
1311 28-02-2008 22:12:02 7.2 C 6.99 g/m*3 7.2 C 0 km/h
1312 28-02-2008 22:24:02 7.2 C 6.99 g/m*3 7.2 C 0 km/h
1313 28-02-2008 22:36:03 7.2 C 7.06 g/m*3 7.2 C 0 km/h
1314 28-02-2008 22:49:04 7.2 C 7.06 g/m*3 7.2 C 0 km/h
1315 28-02-2008 23:01:04 7.2 C 7.06 g/m*3 7.2 C 0 km/h
1316 28-02-2008 23:13:04 7.1 C 7.02 g/m*3 7.1 C 0 km/h
1317 28-02-2008 23:25:04 7.1 C 7.02 g/m*3 7.1 C 0 km/h
1318 28-02-2008 23:37:04 7.1 C 7.02 g/m*3 7.1 C 0 km/h
1319 28-02-2008 23:49:04 7.1 C 7.1 g/m*3 7.1 C 0 km/h
1320 29-02-2008 00:01:04 7.2 C 7.14 g/m*3 7.2 C 0 km/h
1321 29-02-2008 00:13:04 7.1 C 7.1 g/m*3 7.1 C 0 km/h
1322 29-02-2008 00:25:04 7 C 7.05 g/m*3 7 C 0 km/h
1323 29-02-2008 00:37:04 7 C 7.05 g/m*3 7 C 0 km/h
1324 29-02-2008 00:49:04 7 C 7.05 g/m*3 7 C 0 km/h
1325 29-02-2008 01:01:04 6.8 C 7.04 g/m*3 6.8 C 0 km/h
Sensor: Nr:Datum:Temp:Abs-Feuchte:Windchill:Wind:
Aussen-T/F 1326 29-02-2008 01:13:05 6.9 C 7.16 g/m*3 6.9 C 0 km/h
1327 29-02-2008 01:25:05 6.9 C 7.16 g/m*3 6.9 C 0 km/h
1328 29-02-2008 01:37:05 7 C 7.13 g/m*3 7 C 0 km/h
1329 29-02-2008 01:49:05 7 C 7.21 g/m*3 7 C 0 km/h
1330 29-02-2008 02:01:05 7 C 7.21 g/m*3 7 C 0 km/h
1331 29-02-2008 02:13:05 7 C 7.21 g/m*3 7 C 0 km/h
1332 29-02-2008 02:25:05 7 C 7.21 g/m*3 7 C 0 km/h
1333 29-02-2008 02:37:05 7.1 C 7.25 g/m*3 7.1 C 0 km/h
1334 29-02-2008 02:49:05 7.1 C 7.25 g/m*3 7.1 C 0 km/h
1335 29-02-2008 03:01:05 7.1 C 7.25 g/m*3 7.1 C 0 km/h
1336 29-02-2008 03:13:05 7.1 C 7.25 g/m*3 7.1 C 0 km/h
1337 29-02-2008 03:25:05 7 C 7.21 g/m*3 7 C 0 km/h
1338 29-02-2008 03:37:05 7 C 7.21 g/m*3 7 C 0 km/h
1339 29-02-2008 03:49:05 7 C 7.21 g/m*3 7 C 0 km/h
1340 29-02-2008 04:01:05 7 C 7.21 g/m*3 7 C 0 km/h
1341 29-02-2008 04:13:05 6.9 C 7.24 g/m*3 6.9 C 0 km/h
1342 29-02-2008 04:25:05 6.9 C 7.24 g/m*3 6.9 C 0 km/h
1343 29-02-2008 04:37:05 7 C 7.28 g/m*3 7 C 0 km/h
1344 29-02-2008 04:49:05 7 C 7.28 g/m*3 7 C 0 km/h
1345 29-02-2008 05:01:06 6.9 C 7.24 g/m*3 6.9 C 0 km/h
1346 29-02-2008 05:13:06 6.9 C 7.31 g/m*3 6.9 C 0 km/h
1347 29-02-2008 05:25:06 7 C 7.28 g/m*3 7 C 0 km/h
1348 29-02-2008 05:37:06 7 C 7.28 g/m*3 7 C 0 km/h
1349 29-02-2008 05:49:06 7.1 C 7.33 g/m*3 7.1 C 0 km/h
1350 29-02-2008 06:01:06 7.1 C 7.33 g/m*3 7.1 C 0 km/h
Sensor: Nr:Datum:Temp:Abs-Feuchte:Windchill:Wind:
Aussen-T/F 1351 29-02-2008 06:13:06 7.1 C 7.33 g/m*3 7.1 C 0 km/h
1352 29-02-2008 06:25:06 7.1 C 7.41 g/m*3 7.1 C 0 km/h
1353 29-02-2008 06:37:06 7.1 C 7.41 g/m*3 7.1 C 0 km/h
1354 29-02-2008 06:49:01 7.1 C 7.41 g/m*3 7.1 C 0 km/h
1355 29-02-2008 07:01:02 7.1 C 7.41 g/m*3 7.1 C 0 km/h
1356 29-02-2008 07:13:02 7 C 7.36 g/m*3 7 C 0 km/h
1357 29-02-2008 07:25:01 7.1 C 7.41 g/m*3 7.1 C 0 km/h
1358 29-02-2008 07:37:01 7.2 C 7.46 g/m*3 7.2 C 0 km/h
1359 29-02-2008 07:49:01 7.3 C 7.51 g/m*3 7.3 C 0 km/h
1360 29-02-2008 08:01:02 7.4 C 7.55 g/m*3 7.4 C 0 km/h
1361 29-02-2008 08:13:02 7.3 C 7.51 g/m*3 7.3 C 0 km/h
1362 29-02-2008 08:25:01 7.4 C 7.55 g/m*3 7.4 C 0 km/h
1363 29-02-2008 08:37:01 7.4 C 7.55 g/m*3 7.4 C 0 km/h
1364 29-02-2008 08:49:02 7.4 C 7.55 g/m*3 7.4 C 0 km/h
1365 29-02-2008 09:01:02 7.4 C 7.55 g/m*3 7.4 C 0 km/h
1366 29-02-2008 09:13:03 7.4 C 7.55 g/m*3 7.4 C 0 km/h
1367 29-02-2008 09:25:02 7.8 C 7.75 g/m*3 7.8 C 0 km/h
1368 29-02-2008 09:37:03 7.8 C 7.75 g/m*3 7.8 C 0 km/h
1369 29-02-2008 09:49:02 7.7 C 7.7 g/m*3 7.7 C 0 km/h
1370 29-02-2008 10:01:02 7.9 C 7.8 g/m*3 7.9 C 0 km/h
1371 29-02-2008 10:13:02 8 C 7.85 g/m*3 8 C 0 km/h
1372 29-02-2008 10:25:02 8.3 C 8.01 g/m*3 8.3 C 0 km/h
1373 29-02-2008 10:37:02 8.6 C 8.16 g/m*3 8.6 C 0 km/h
1374 29-02-2008 10:49:02 8.8 C 8.27 g/m*3 8.8 C 0 km/h
1375 29-02-2008 11:01:02 8.8 C 8.27 g/m*3 8.8 C 0 km/h
Sensor: Nr:Datum:Temp:Abs-Feuchte:Windchill:Wind:
Aussen-T/F 1376 29-02-2008 11:13:02 9 C 8.38 g/m*3 9 C 0 km/h
1377 29-02-2008 11:25:01 9.1 C 8.43 g/m*3 9.1 C 0 km/h
1378 29-02-2008 11:37:02 9.1 C 8.43 g/m*3 9.1 C 0 km/h
1379 29-02-2008 11:49:02 9.1 C 8.43 g/m*3 9.1 C 0 km/h
1380 29-02-2008 12:01:01 9.5 C 8.65 g/m*3 9.5 C 0 km/h
1381 29-02-2008 12:13:01 9.8 C 8.81 g/m*3 9.8 C 0 km/h
1382 29-02-2008 12:25:01 10 C 8.83 g/m*3 10 C 0 km/h
1383 29-02-2008 12:37:02 9.9 C 8.78 g/m*3 9.9 C 0 km/h
1384 29-02-2008 12:49:02 10.2 C 8.85 g/m*3 10.2 C 0 km/h
1385 29-02-2008 13:01:02 10 C 8.64 g/m*3 10 C 0 km/h
1386 29-02-2008 13:13:02 9.9 C 8.68 g/m*3 9.9 C 0 km/h
1387 29-02-2008 13:25:02 10 C 8.64 g/m*3 10 C 0 km/h
1388 29-02-2008 13:37:02 10.2 C 8.76 g/m*3 10.2 C 0 km/h
1389 29-02-2008 13:49:02 10.6 C 8.88 g/m*3 10.6 C 0 km/h
1390 29-02-2008 14:01:02 11 C 9.01 g/m*3 11 C 0 km/h
1391 29-02-2008 14:13:02 11.1 C 8.86 g/m*3 11.1 C 0 km/h
1392 29-02-2008 14:25:01 11.1 C 8.46 g/m*3 11.1 C 0 km/h
1393 29-02-2008 14:37:02 11.1 C 8.26 g/m*3 11.1 C 0 km/h
1394 29-02-2008 14:49:02 11 C 8.11 g/m*3 11 C 0 km/h
1395 29-02-2008 15:01:03 10.9 C 6.86 g/m*3 10.9 C 0 km/h
1396 29-02-2008 15:13:03 10.8 C 6.23 g/m*3 10.8 C 0 km/h
1397 29-02-2008 15:25:02 10.7 C 6.09 g/m*3 10.7 C 0 km/h
1398 29-02-2008 15:37:02 10.7 C 6.09 g/m*3 10.7 C 0 km/h
1399 29-02-2008 15:49:01 10.7 C 5.89 g/m*3 10.7 C 0 km/h
1400 29-02-2008 16:01:02 10.8 C 5.83 g/m*3 10.8 C 0 km/h
Sensor: Nr:Datum:Temp:Abs-Feuchte:Windchill:Wind:
Aussen-T/F 1401 29-02-2008 16:13:02 10.8 C 5.83 g/m*3 10.8 C 0 km/h
1402 29-02-2008 16:25:02 10.6 C 5.56 g/m*3 10.6 C 0 km/h
1403 29-02-2008 16:37:01 10.5 C 5.63 g/m*3 10.5 C 0 km/h
1404 29-02-2008 16:49:01 10.5 C 5.53 g/m*3 10.5 C 0 km/h
1405 29-02-2008 17:01:02 10.4 C 5.49 g/m*3 10.4 C 0 km/h
1406 29-02-2008 17:13:02 10.4 C 5.49 g/m*3 10.4 C 0 km/h
1407 29-02-2008 17:25:02 10.3 C 5.55 g/m*3 10.3 C 0 km/h
1408 29-02-2008 17:37:02 10.2 C 5.61 g/m*3 10.2 C 0 km/h
1409 29-02-2008 17:49:02 10.2 C 5.61 g/m*3 10.2 C 0 km/h
1410 29-02-2008 18:01:02 10.1 C 5.77 g/m*3 10.1 C 0 km/h
1411 29-02-2008 18:13:02 9.9 C 5.88 g/m*3 9.9 C 0 km/h
1412 29-02-2008 18:25:02 9.8 C 5.94 g/m*3 9.8 C 0 km/h
1413 29-02-2008 18:37:02 9.8 C 6.12 g/m*3 9.8 C 0 km/h
1414 29-02-2008 18:49:02 9.7 C 5.99 g/m*3 9.7 C 0 km/h
1415 29-02-2008 19:01:02 9.6 C 6.05 g/m*3 9.6 C 0 km/h
1416 29-02-2008 19:13:02 9.6 C 6.14 g/m*3 9.6 C 0 km/h
1417 29-02-2008 19:25:02 9.6 C 6.14 g/m*3 9.6 C 0 km/h
1418 29-02-2008 19:37:02 9.5 C 6.28 g/m*3 9.5 C 0 km/h
1419 29-02-2008 19:49:02 9.5 C 6.37 g/m*3 9.5 C 0 km/h
1420 29-02-2008 20:01:02 9.5 C 6.37 g/m*3 9.5 C 0 km/h
1421 29-02-2008 20:13:02 9.5 C 6.37 g/m*3 9.5 C 0 km/h
1422 29-02-2008 20:25:02 9.6 C 6.5 g/m*3 9.6 C 0 km/h
1423 29-02-2008 20:37:02 9.6 C 6.5 g/m*3 9.6 C 0 km/h
1424 29-02-2008 20:49:02 9.7 C 6.55 g/m*3 9.7 C 0 km/h
1425 29-02-2008 21:01:02 9.8 C 6.49 g/m*3 9.8 C 0 km/h
Sensor: Nr:Datum:Temp:Abs-Feuchte:Windchill:Wind:
Aussen-T/F 1426 29-02-2008 21:13:02 10 C 6.39 g/m*3 10 C 0 km/h
1427 29-02-2008 21:25:03 10.2 C 6.38 g/m*3 10.2 C 0 km/h
1428 29-02-2008 21:37:02 10.3 C 6.32 g/m*3 10.3 C 0 km/h
1429 29-02-2008 21:49:01 10.3 C 6.42 g/m*3 10.3 C 0 km/h
1430 29-02-2008 22:01:01 10.4 C 6.26 g/m*3 10.4 C 0 km/h
1431 29-02-2008 22:13:01 10.3 C 6.22 g/m*3 10.3 C 0 km/h
1432 29-02-2008 22:25:02 10.2 C 6.09 g/m*3 10.2 C 0 km/h
1433 29-02-2008 22:37:02 10 C 6.11 g/m*3 10 C 0 km/h
1434 29-02-2008 22:49:02 9.9 C 6.26 g/m*3 9.9 C 0 km/h
1435 29-02-2008 23:01:02 9.9 C 6.26 g/m*3 9.9 C 0 km/h
1436 29-02-2008 23:13:02 9.8 C 6.03 g/m*3 9.8 C 0 km/h
1437 29-02-2008 23:25:02 9.7 C 5.99 g/m*3 9.7 C 0 km/h
1438 29-02-2008 23:37:02 9.5 C 6.01 g/m*3 9.5 C 0 km/h
1439 29-02-2008 23:49:01 9.4 C 6.15 g/m*3 9.4 C 0 km/h
1440 01-03-2008 00:01:01 9.2 C 6.25 g/m*3 9.2 C 0 km/h
1441 01-03-2008 00:13:01 9.2 C 6.43 g/m*3 9.2 C 0 km/h
1442 01-03-2008 00:25:01 9.3 C 6.47 g/m*3 9.3 C 0 km/h
1443 01-03-2008 00:37:01 9.4 C 6.6 g/m*3 9.4 C 0 km/h
1444 01-03-2008 00:49:01 9.6 C 6.5 g/m*3 9.6 C 0 km/h
1445 01-03-2008 01:01:02 9.6 C 6.5 g/m*3 9.6 C 0 km/h
1446 01-03-2008 01:13:02 9.6 C 6.6 g/m*3 9.6 C 0 km/h
1447 01-03-2008 01:25:01 9.8 C 6.68 g/m*3 9.8 C 0 km/h
1448 01-03-2008 01:37:01 9.9 C 6.72 g/m*3 9.9 C 0 km/h
1449 01-03-2008 01:49:01 10.1 C 6.62 g/m*3 10.1 C 0 km/h
1450 01-03-2008 02:01:02 10.2 C 6.76 g/m*3 10.2 C 0 km/h
Sensor: Nr:Datum:Temp:Abs-Feuchte:Windchill:Wind:
Aussen-T/F 1451 01-03-2008 02:13:02 10.3 C 6.9 g/m*3 10.3 C 0 km/h
1452 01-03-2008 02:25:01 10.1 C 7.09 g/m*3 10.1 C 0 km/h
1453 01-03-2008 02:37:01 10.2 C 7.04 g/m*3 10.2 C 0 km/h
1454 01-03-2008 02:50:02 10.3 C 7.09 g/m*3 10.3 C 0 km/h
1455 01-03-2008 03:02:02 10.3 C 7.09 g/m*3 10.3 C 0 km/h
1456 01-03-2008 03:14:03 10.2 C 7.04 g/m*3 10.2 C 0 km/h
1457 01-03-2008 03:26:03 10 C 7.14 g/m*3 10 C 0 km/h
1458 01-03-2008 03:38:01 10.1 C 7.19 g/m*3 10.1 C 0 km/h
1459 01-03-2008 03:50:01 10 C 7.05 g/m*3 10 C 0 km/h
1460 01-03-2008 04:02:02 10 C 7.14 g/m*3 10 C 0 km/h
1461 01-03-2008 04:14:02 10 C 7.05 g/m*3 10 C 0 km/h
1462 01-03-2008 04:26:02 10.1 C 7 g/m*3 10.1 C 0 km/h
1463 01-03-2008 04:38:01 9.9 C 7.19 g/m*3 9.9 C 0 km/h
1464 01-03-2008 04:50:01 9.8 C 7.42 g/m*3 9.8 C 0 km/h
1465 01-03-2008 05:02:02 9.8 C 7.42 g/m*3 9.8 C 0 km/h
1466 01-03-2008 05:14:02 9.9 C 7.47 g/m*3 9.9 C 0 km/h
1467 01-03-2008 05:26:02 9.9 C 7.56 g/m*3 9.9 C 0 km/h
1468 01-03-2008 05:38:01 10 C 7.42 g/m*3 10 C 0 km/h
1469 01-03-2008 05:50:02 10 C 7.42 g/m*3 10 C 0 km/h
1470 01-03-2008 06:02:02 10 C 7.71 g/m*3 10 C 0 km/h
1471 01-03-2008 06:14:02 9.6 C 7.79 g/m*3 9.6 C 0 km/h
1472 01-03-2008 06:26:01 10.1 C 7.47 g/m*3 10.1 C 0 km/h
1473 01-03-2008 06:38:02 10.7 C 6.97 g/m*3 10.7 C 0 km/h
1474 01-03-2008 06:50:53 11.1 C 6.55 g/m*3 11.1 C 0 km/h
1475 01-03-2008 07:02:53 7 C 5.5 g/m*3 7 C 0 km/h
Sensor: Nr:Datum:Temp:Abs-Feuchte:Windchill:Wind:
Aussen-T/F 1476 01-03-2008 07:14:53 5.8 C 5.8 g/m*3 5.8 C 0 km/h
1477 01-03-2008 07:26:53 6.1 C 5.84 g/m*3 6.1 C 0 km/h
1478 01-03-2008 07:38:53 6.6 C 5.28 g/m*3 6.6 C 0 km/h
1479 01-03-2008 07:50:53 7.1 C 4.76 g/m*3 7.1 C 0 km/h
1480 01-03-2008 08:02:03 7.4 C 4.69 g/m*3 7.4 C 0 km/h
1481 01-03-2008 08:14:03 7.7 C 4.62 g/m*3 7.7 C 0 km/h
1482 01-03-2008 08:26:03 7.9 C 4.52 g/m*3 7.9 C 0 km/h
1483 01-03-2008 08:38:02 8.2 C 4.35 g/m*3 8.2 C 0 km/h
1484 01-03-2008 08:50:02 8.5 C 4.27 g/m*3 8.5 C 0 km/h
1485 01-03-2008 09:02:02 8.5 C 4.18 g/m*3 8.5 C 0 km/h
1486 01-03-2008 09:14:02 8.6 C 3.87 g/m*3 8.6 C 0 km/h
1487 01-03-2008 09:26:02 8.7 C 3.89 g/m*3 8.7 C 0 km/h
1488 01-03-2008 09:38:02 9 C 3.61 g/m*3 9 C 0 km/h
1489 01-03-2008 09:50:02 9 C 3.7 g/m*3 9 C 0 km/h
1490 01-03-2008 10:02:02 9.2 C 3.75 g/m*3 9.2 C 0 km/h
1491 01-03-2008 10:14:02 9.2 C 3.75 g/m*3 9.2 C 0 km/h
1492 01-03-2008 10:26:01 9.3 C 3.77 g/m*3 9.3 C 0 km/h
1493 01-03-2008 10:38:01 9.2 C 3.75 g/m*3 9.2 C 0 km/h
1494 01-03-2008 10:50:02 9.1 C 3.73 g/m*3 9.1 C 0 km/h
1495 01-03-2008 11:02:01 9.2 C 3.75 g/m*3 9.2 C 0 km/h
1496 01-03-2008 11:14:01 9.2 C 3.75 g/m*3 9.2 C 0 km/h
1497 01-03-2008 11:26:01 9.1 C 3.9 g/m*3 9.1 C 0 km/h
1498 01-03-2008 11:38:02 9.2 C 3.93 g/m*3 9.2 C 0 km/h
1499 01-03-2008 11:50:01 9.3 C 3.95 g/m*3 9.3 C 0 km/h
1500 01-03-2008 12:02:02 9.3 C 4.13 g/m*3 9.3 C 0 km/h
Sensor: Nr:Datum:Temp:Abs-Feuchte:Windchill:Wind:
Aussen-T/F 1501 01-03-2008 12:14:02 9.4 C 4.16 g/m*3 9.4 C 0 km/h
1502 01-03-2008 12:26:02 9.4 C 4.07 g/m*3 9.4 C 0 km/h
1503 01-03-2008 12:38:01 9.5 C 4.01 g/m*3 9.5 C 0 km/h
1504 01-03-2008 12:50:02 9.4 C 4.07 g/m*3 9.4 C 0 km/h
1505 01-03-2008 13:02:01 9.3 C 4.13 g/m*3 9.3 C 0 km/h
1506 01-03-2008 13:14:01 9.2 C 4.11 g/m*3 9.2 C 0 km/h
1507 01-03-2008 13:26:01 9.1 C 4.17 g/m*3 9.1 C 0 km/h
1508 01-03-2008 13:38:02 9.2 C 4.11 g/m*3 9.2 C 0 km/h
1509 01-03-2008 13:50:01 9.3 C 4.04 g/m*3 9.3 C 0 km/h
1510 01-03-2008 14:02:02 9.6 C 4.12 g/m*3 9.6 C 0 km/h
1511 01-03-2008 14:14:02 9.7 C 3.96 g/m*3 9.7 C 0 km/h
1512 01-03-2008 14:26:02 9.9 C 3.92 g/m*3 9.9 C 0 km/h
1513 01-03-2008 14:38:01 10.4 C 3.86 g/m*3 10.4 C 0 km/h
1514 01-03-2008 14:50:02 11.1 C 3.63 g/m*3 11.1 C 0 km/h
1515 01-03-2008 15:02:01 11.3 C 3.57 g/m*3 11.3 C 0 km/h
1516 01-03-2008 15:14:01 11.5 C 3.41 g/m*3 11.5 C 0 km/h
1517 01-03-2008 15:26:01 11.3 C 3.26 g/m*3 11.3 C 0 km/h
1518 01-03-2008 15:38:02 11.5 C 3.31 g/m*3 11.5 C 0 km/h
1519 01-03-2008 15:50:02 11.3 C 3.06 g/m*3 11.3 C 0 km/h
1520 01-03-2008 16:02:02 11.4 C 2.98 g/m*3 11.4 C 0 km/h
1521 01-03-2008 16:14:02 11.5 C 2.89 g/m*3 11.5 C 0 km/h
1522 01-03-2008 16:26:02 11.1 C 2.82 g/m*3 11.1 C 0 km/h
1523 01-03-2008 16:38:03 10.8 C 2.87 g/m*3 10.8 C 0 km/h
1524 01-03-2008 16:50:01 10.6 C 2.93 g/m*3 10.6 C 0 km/h
1525 01-03-2008 17:02:02 10.7 C 3.04 g/m*3 10.7 C 0 km/h
Sensor: Nr:Datum:Temp:Abs-Feuchte:Windchill:Wind:
Aussen-T/F 1526 01-03-2008 17:14:02 10.8 C 2.97 g/m*3 10.8 C 0 km/h
1527 01-03-2008 17:26:02 10.5 C 3.01 g/m*3 10.5 C 0 km/h
1528 01-03-2008 17:38:01 10.4 C 2.99 g/m*3 10.4 C 0 km/h
1529 01-03-2008 17:50:02 10.1 C 3.22 g/m*3 10.1 C 0 km/h
1530 01-03-2008 18:02:02 10 C 3.29 g/m*3 10 C 0 km/h
1531 01-03-2008 18:14:02 9.8 C 3.34 g/m*3 9.8 C 0 km/h
1532 01-03-2008 18:26:02 9.7 C 3.5 g/m*3 9.7 C 0 km/h
1533 01-03-2008 18:38:02 9.6 C 3.48 g/m*3 9.6 C 0 km/h
1534 01-03-2008 18:50:02 9.5 C 3.55 g/m*3 9.5 C 0 km/h
1535 01-03-2008 19:02:02 9.5 C 3.55 g/m*3 9.5 C 0 km/h
1536 01-03-2008 19:14:02 9.3 C 3.59 g/m*3 9.3 C 0 km/h
1537 01-03-2008 19:26:02 9.3 C 3.59 g/m*3 9.3 C 0 km/h
1538 01-03-2008 19:38:01 9.3 C 3.68 g/m*3 9.3 C 0 km/h
1539 01-03-2008 19:50:02 9.2 C 3.75 g/m*3 9.2 C 0 km/h
1540 01-03-2008 20:02:01 8.6 C 4.3 g/m*3 8.6 C 0 km/h
1541 01-03-2008 20:14:01 8.4 C 4.41 g/m*3 8.4 C 0 km/h
1542 01-03-2008 20:26:02 8.6 C 4.38 g/m*3 8.6 C 0 km/h
1543 01-03-2008 20:38:02 8.8 C 4.35 g/m*3 8.8 C 0 km/h
1544 01-03-2008 20:50:02 8.9 C 4.38 g/m*3 8.9 C 0 km/h
1545 01-03-2008 21:02:01 8.9 C 4.47 g/m*3 8.9 C 0 km/h
1546 01-03-2008 21:14:01 8.9 C 4.38 g/m*3 8.9 C 0 km/h
1547 01-03-2008 21:26:01 9 C 4.32 g/m*3 9 C 0 km/h
1548 01-03-2008 21:38:02 9 C 4.32 g/m*3 9 C 0 km/h
1549 01-03-2008 21:50:02 8.9 C 4.29 g/m*3 8.9 C 0 km/h
1550 01-03-2008 22:02:02 8.8 C 4.35 g/m*3 8.8 C 0 km/h
Sensor: Nr:Datum:Temp:Abs-Feuchte:Windchill:Wind:
Aussen-T/F 1551 01-03-2008 22:14:02 8.7 C 4.41 g/m*3 8.7 C 0 km/h
1552 01-03-2008 22:26:02 8.7 C 4.41 g/m*3 8.7 C 0 km/h
1553 01-03-2008 22:38:03 8.9 C 4.29 g/m*3 8.9 C 0 km/h
1554 01-03-2008 22:50:02 8.9 C 4.2 g/m*3 8.9 C 0 km/h
1555 01-03-2008 23:02:02 8.9 C 4.2 g/m*3 8.9 C 0 km/h
1556 01-03-2008 23:14:03 8.8 C 4.09 g/m*3 8.8 C 0 km/h
1557 01-03-2008 23:26:02 8.7 C 4.06 g/m*3 8.7 C 0 km/h
1558 01-03-2008 23:38:01 8.8 C 4 g/m*3 8.8 C 0 km/h
1559 01-03-2008 23:50:01 8.7 C 4.06 g/m*3 8.7 C 0 km/h
1560 02-03-2008 00:02:02 8.7 C 4.06 g/m*3 8.7 C 0 km/h
1561 02-03-2008 00:14:02 8.7 C 3.98 g/m*3 8.7 C 0 km/h
1562 02-03-2008 00:27:04 8.7 C 4.06 g/m*3 8.7 C 0 km/h
1563 02-03-2008 00:39:04 8.6 C 4.04 g/m*3 8.6 C 0 km/h
1564 02-03-2008 00:51:04 8.5 C 4.1 g/m*3 8.5 C 0 km/h
1565 02-03-2008 01:03:04 8.5 C 4.1 g/m*3 8.5 C 0 km/h
1566 02-03-2008 01:15:04 8.5 C 4.18 g/m*3 8.5 C 0 km/h
1567 02-03-2008 01:27:04 8.6 C 4.12 g/m*3 8.6 C 0 km/h
1568 02-03-2008 01:39:05 8.6 C 4.21 g/m*3 8.6 C 0 km/h
1569 02-03-2008 01:51:05 8.6 C 4.21 g/m*3 8.6 C 0 km/h
1570 02-03-2008 02:03:05 8.7 C 4.24 g/m*3 8.7 C 0 km/h
1571 02-03-2008 02:15:05 8.6 C 4.38 g/m*3 8.6 C 0 km/h
1572 02-03-2008 02:27:05 8.6 C 4.47 g/m*3 8.6 C 0 km/h
1573 02-03-2008 02:39:05 8.7 C 4.41 g/m*3 8.7 C 0 km/h
1574 02-03-2008 02:51:05 8.7 C 4.41 g/m*3 8.7 C 0 km/h
1575 02-03-2008 03:03:05 8.7 C 4.5 g/m*3 8.7 C 0 km/h
Sensor: Nr:Datum:Temp:Abs-Feuchte:Windchill:Wind:
Aussen-T/F 1576 02-03-2008 03:15:05 8.7 C 4.58 g/m*3 8.7 C 0 km/h
1577 02-03-2008 03:27:05 8.6 C 4.64 g/m*3 8.6 C 0 km/h
1578 02-03-2008 03:39:05 8.6 C 4.73 g/m*3 8.6 C 0 km/h
1579 02-03-2008 03:51:05 8.5 C 4.87 g/m*3 8.5 C 0 km/h
1580 02-03-2008 04:03:05 8.4 C 5.09 g/m*3 8.4 C 0 km/h
1581 02-03-2008 04:15:05 8.3 C 5.23 g/m*3 8.3 C 0 km/h
1582 02-03-2008 04:27:05 8.3 C 5.31 g/m*3 8.3 C 0 km/h
1583 02-03-2008 04:39:05 8.4 C 5.51 g/m*3 8.4 C 0 km/h
1584 02-03-2008 04:51:05 8.5 C 5.55 g/m*3 8.5 C 0 km/h
1585 02-03-2008 05:03:05 8.5 C 5.64 g/m*3 8.5 C 0 km/h
1586 02-03-2008 05:15:05 8.4 C 5.94 g/m*3 8.4 C 0 km/h
1587 02-03-2008 05:27:06 8.4 C 6.19 g/m*3 8.4 C 0 km/h
1588 02-03-2008 05:39:06 8.3 C 6.41 g/m*3 8.3 C 0 km/h
1589 02-03-2008 05:51:06 8.2 C 6.53 g/m*3 8.2 C 0 km/h
1590 02-03-2008 06:03:06 8.4 C 6.62 g/m*3 8.4 C 0 km/h
1591 02-03-2008 06:15:06 8.5 C 6.74 g/m*3 8.5 C 0 km/h
1592 02-03-2008 06:27:06 8.9 C 6.75 g/m*3 8.9 C 0 km/h
1593 02-03-2008 06:39:06 9 C 6.61 g/m*3 9 C 0 km/h
1594 02-03-2008 06:51:06 9.2 C 6.61 g/m*3 9.2 C 0 km/h
1595 02-03-2008 07:03:06 9.2 C 6.61 g/m*3 9.2 C 0 km/h
1596 02-03-2008 07:15:06 9 C 6.79 g/m*3 9 C 0 km/h
1597 02-03-2008 07:27:06 9 C 7.05 g/m*3 9 C 0 km/h
1598 02-03-2008 07:39:06 8.8 C 7.22 g/m*3 8.8 C 0 km/h
1599 02-03-2008 07:51:06 8.8 C 7.4 g/m*3 8.8 C 0 km/h
1600 02-03-2008 08:03:06 8.8 C 7.49 g/m*3 8.8 C 0 km/h
Sensor: Nr:Datum:Temp:Abs-Feuchte:Windchill:Wind:
Aussen-T/F 1601 02-03-2008 08:15:06 8.8 C 7.57 g/m*3 8.8 C 0 km/h
1602 02-03-2008 08:27:06 9 C 7.49 g/m*3 9 C 0 km/h
1603 02-03-2008 08:39:06 9.2 C 7.5 g/m*3 9.2 C 0 km/h
1604 02-03-2008 08:51:02 9.9 C 7.56 g/m*3 9.9 C 0 km/h
1605 02-03-2008 09:03:02 10.4 C 7.04 g/m*3 10.4 C 0 km/h
1606 02-03-2008 09:15:02 10.9 C 6.76 g/m*3 10.9 C 0 km/h
1607 02-03-2008 09:27:02 11.3 C 6.43 g/m*3 11.3 C 0 km/h
1608 02-03-2008 09:39:02 11.4 C 6.57 g/m*3 11.4 C 0 km/h
1609 02-03-2008 09:51:02 11.5 C 6.51 g/m*3 11.5 C 0 km/h
1610 02-03-2008 10:03:02 11.2 C 6.69 g/m*3 11.2 C 0 km/h
1611 02-03-2008 10:15:02 11.6 C 6.65 g/m*3 11.6 C 0 km/h
1612 02-03-2008 10:27:02 12 C 6.29 g/m*3 12 C 0 km/h
1613 02-03-2008 10:39:02 12.3 C 5.86 g/m*3 12.3 C 0 km/h
1614 02-03-2008 10:51:02 12.4 C 5.79 g/m*3 12.4 C 0 km/h
1615 02-03-2008 11:03:01 12.7 C 5.68 g/m*3 12.7 C 0 km/h
1616 02-03-2008 11:15:01 13 C 5.44 g/m*3 13 C 0 km/h
1617 02-03-2008 11:27:01 13.2 C 5.28 g/m*3 13.2 C 0 km/h
1618 02-03-2008 11:39:02 13.2 C 4.94 g/m*3 13.2 C 0 km/h
1619 02-03-2008 11:51:03 13.6 C 4.71 g/m*3 13.6 C 0 km/h
1620 02-03-2008 12:03:03 13.5 C 4.8 g/m*3 13.5 C 0 km/h
1621 02-03-2008 12:15:02 13.6 C 4.94 g/m*3 13.6 C 0 km/h
1622 02-03-2008 12:27:02 13.8 C 4.77 g/m*3 13.8 C 0 km/h
1623 02-03-2008 12:39:03 13.8 C 4.77 g/m*3 13.8 C 0 km/h
1624 02-03-2008 12:51:02 13.4 C 5.11 g/m*3 13.4 C 0 km/h
1625 02-03-2008 13:03:02 13.1 C 5.25 g/m*3 13.1 C 0 km/h
Sensor: Nr:Datum:Temp:Abs-Feuchte:Windchill:Wind:
Aussen-T/F 1626 02-03-2008 13:15:02 13.6 C 5.3 g/m*3 13.6 C 0 km/h
1627 02-03-2008 13:27:02 14.3 C 4.91 g/m*3 14.3 C 0 km/h
1628 02-03-2008 13:39:02 14.1 C 4.98 g/m*3 14.1 C 0 km/h
1629 02-03-2008 13:51:02 14 C 5.07 g/m*3 14 C 0 km/h
1630 02-03-2008 14:03:01 13.9 C 5.04 g/m*3 13.9 C 0 km/h
1631 02-03-2008 14:15:02 14 C 4.95 g/m*3 14 C 0 km/h
1632 02-03-2008 14:27:02 14.1 C 4.85 g/m*3 14.1 C 0 km/h
1633 02-03-2008 14:39:02 14.1 C 4.61 g/m*3 14.1 C 0 km/h
1634 02-03-2008 14:51:02 14 C 4.7 g/m*3 14 C 0 km/h
1635 02-03-2008 15:03:02 13.7 C 4.86 g/m*3 13.7 C 0 km/h
1636 02-03-2008 15:15:01 13.7 C 4.86 g/m*3 13.7 C 0 km/h
1637 02-03-2008 15:27:01 13.9 C 4.8 g/m*3 13.9 C 0 km/h
1638 02-03-2008 15:39:01 14.4 C 4.57 g/m*3 14.4 C 0 km/h
1639 02-03-2008 15:51:01 14.3 C 4.55 g/m*3 14.3 C 0 km/h
1640 02-03-2008 16:03:02 14.2 C 4.52 g/m*3 14.2 C 0 km/h
1641 02-03-2008 16:15:02 13.9 C 4.8 g/m*3 13.9 C 0 km/h
1642 02-03-2008 16:27:02 13.8 C 4.77 g/m*3 13.8 C 0 km/h
1643 02-03-2008 16:39:01 13.5 C 4.68 g/m*3 13.5 C 0 km/h
1644 02-03-2008 16:51:02 13.5 C 4.68 g/m*3 13.5 C 0 km/h
1645 02-03-2008 17:03:01 13.4 C 4.65 g/m*3 13.4 C 0 km/h
1646 02-03-2008 17:15:02 13.4 C 4.65 g/m*3 13.4 C 0 km/h
1647 02-03-2008 17:27:02 13.4 C 4.65 g/m*3 13.4 C 0 km/h
1648 02-03-2008 17:39:02 13.2 C 4.94 g/m*3 13.2 C 0 km/h
1649 02-03-2008 17:51:02 13.1 C 4.91 g/m*3 13.1 C 0 km/h
1650 02-03-2008 18:03:02 13.1 C 4.68 g/m*3 13.1 C 0 km/h
Sensor: Nr:Datum:Temp:Abs-Feuchte:Windchill:Wind:
Aussen-T/F 1651 02-03-2008 18:15:02 13 C 4.65 g/m*3 13 C 0 km/h
1652 02-03-2008 18:27:02 12.8 C 4.59 g/m*3 12.8 C 0 km/h
1653 02-03-2008 18:39:03 12.9 C 4.51 g/m*3 12.9 C 0 km/h
1654 02-03-2008 18:51:02 12.8 C 4.48 g/m*3 12.8 C 0 km/h
1655 02-03-2008 19:03:02 12.8 C 4.59 g/m*3 12.8 C 0 km/h
1656 02-03-2008 19:15:02 12.7 C 4.68 g/m*3 12.7 C 0 km/h
1657 02-03-2008 19:27:02 12.5 C 4.84 g/m*3 12.5 C 0 km/h
1658 02-03-2008 19:39:01 12.5 C 4.62 g/m*3 12.5 C 0 km/h
1659 02-03-2008 19:51:02 12.4 C 4.59 g/m*3 12.4 C 0 km/h
1660 02-03-2008 20:03:01 12.3 C 4.34 g/m*3 12.3 C 0 km/h
1661 02-03-2008 20:15:02 12.1 C 4.29 g/m*3 12.1 C 0 km/h
1662 02-03-2008 20:27:02 12.1 C 4.18 g/m*3 12.1 C 0 km/h
1663 02-03-2008 20:39:02 12 C 4.26 g/m*3 12 C 0 km/h
1664 02-03-2008 20:51:02 12 C 4.26 g/m*3 12 C 0 km/h
1665 02-03-2008 21:03:01 11.9 C 4.34 g/m*3 11.9 C 0 km/h
1666 02-03-2008 21:15:02 11.8 C 4.32 g/m*3 11.8 C 0 km/h
1667 02-03-2008 21:27:02 11.9 C 4.34 g/m*3 11.9 C 0 km/h
1668 02-03-2008 21:39:01 11.7 C 4.39 g/m*3 11.7 C 0 km/h
1669 02-03-2008 21:51:02 11.8 C 4.42 g/m*3 11.8 C 0 km/h
1670 02-03-2008 22:03:02 11.7 C 4.5 g/m*3 11.7 C 0 km/h
1671 02-03-2008 22:16:02 11.6 C 4.68 g/m*3 11.6 C 0 km/h
1672 02-03-2008 22:28:02 11.4 C 4.72 g/m*3 11.4 C 0 km/h
1673 02-03-2008 22:40:02 11.4 C 4.82 g/m*3 11.4 C 0 km/h
1674 02-03-2008 22:52:02 11.2 C 5.07 g/m*3 11.2 C 0 km/h
1675 02-03-2008 23:04:02 10.5 C 5.72 g/m*3 10.5 C 0 km/h
Sensor: Nr:Datum:Temp:Abs-Feuchte:Windchill:Wind:
Aussen-T/F 1676 02-03-2008 23:16:02 10.5 C 6.01 g/m*3 10.5 C 0 km/h
1677 02-03-2008 23:28:02 10.4 C 6.07 g/m*3 10.4 C 0 km/h
1678 02-03-2008 23:40:02 10.4 C 6.07 g/m*3 10.4 C 0 km/h
1679 02-03-2008 23:52:02 10.5 C 6.11 g/m*3 10.5 C 0 km/h
1680 03-03-2008 00:04:02 10.4 C 6.26 g/m*3 10.4 C 0 km/h
1681 03-03-2008 00:16:02 9.8 C 6.96 g/m*3 9.8 C 0 km/h
1682 03-03-2008 00:28:02 9.5 C 7.19 g/m*3 9.5 C 0 km/h
1683 03-03-2008 00:40:02 9.4 C 7.33 g/m*3 9.4 C 0 km/h
1684 03-03-2008 00:52:02 9.3 C 7.19 g/m*3 9.3 C 0 km/h
1685 03-03-2008 01:04:02 9.4 C 6.33 g/m*3 9.4 C 0 km/h
1686 03-03-2008 01:16:02 9.6 C 5.31 g/m*3 9.6 C 0 km/h
1687 03-03-2008 01:28:02 9.6 C 4.86 g/m*3 9.6 C 0 km/h
1688 03-03-2008 01:40:03 9.4 C 4.79 g/m*3 9.4 C 0 km/h
1689 03-03-2008 01:52:03 9.1 C 4.88 g/m*3 9.1 C 0 km/h
1690 03-03-2008 02:04:03 9 C 4.85 g/m*3 9 C 0 km/h
1691 03-03-2008 02:16:03 9 C 5.03 g/m*3 9 C 0 km/h
1692 03-03-2008 02:28:03 9 C 5.11 g/m*3 9 C 0 km/h
1693 03-03-2008 02:40:03 9 C 5.03 g/m*3 9 C 0 km/h
1694 03-03-2008 02:52:03 9 C 4.94 g/m*3 9 C 0 km/h
1695 03-03-2008 03:04:03 9 C 4.85 g/m*3 9 C 0 km/h
1696 03-03-2008 03:16:03 9.1 C 4.88 g/m*3 9.1 C 0 km/h
1697 03-03-2008 03:28:03 9 C 5.03 g/m*3 9 C 0 km/h
1698 03-03-2008 03:40:03 8.9 C 5.17 g/m*3 8.9 C 0 km/h
1699 03-03-2008 03:52:03 8.9 C 4.99 g/m*3 8.9 C 0 km/h
1700 03-03-2008 04:04:03 9 C 4.94 g/m*3 9 C 0 km/h
Sensor: Nr:Datum:Temp:Abs-Feuchte:Windchill:Wind:
Aussen-T/F 1701 03-03-2008 04:16:03 9 C 4.94 g/m*3 9 C 0 km/h
1702 03-03-2008 04:28:03 9 C 4.94 g/m*3 9 C 0 km/h
1703 03-03-2008 04:40:03 8.9 C 4.99 g/m*3 8.9 C 0 km/h
1704 03-03-2008 04:52:03 8.9 C 5.08 g/m*3 8.9 C 0 km/h
1705 03-03-2008 05:04:03 8.9 C 5.08 g/m*3 8.9 C 0 km/h
1706 03-03-2008 05:16:03 8.9 C 5.17 g/m*3 8.9 C 0 km/h
1707 03-03-2008 05:28:03 8.9 C 5.26 g/m*3 8.9 C 0 km/h
1708 03-03-2008 05:40:04 8.7 C 5.53 g/m*3 8.7 C 0 km/h
1709 03-03-2008 05:52:04 8.4 C 5.85 g/m*3 8.4 C 0 km/h
1710 03-03-2008 06:04:04 8.3 C 5.9 g/m*3 8.3 C 0 km/h
1711 03-03-2008 06:16:04 8.4 C 6.02 g/m*3 8.4 C 0 km/h
1712 03-03-2008 06:28:04 8.4 C 5.94 g/m*3 8.4 C 0 km/h
1713 03-03-2008 06:40:04 8.5 C 5.89 g/m*3 8.5 C 0 km/h
1714 03-03-2008 06:52:04 8.5 C 5.89 g/m*3 8.5 C 0 km/h
1715 03-03-2008 07:04:02 8.2 C 5.86 g/m*3 8.2 C 0 km/h
1716 03-03-2008 07:16:02 8 C 5.87 g/m*3 8 C 0 km/h
1717 03-03-2008 07:28:02 7.9 C 6 g/m*3 7.9 C 0 km/h
1718 03-03-2008 07:40:02 7.8 C 6.12 g/m*3 7.8 C 0 km/h
1719 03-03-2008 07:52:02 7.6 C 6.12 g/m*3 7.6 C 0 km/h
1720 03-03-2008 08:04:02 7.6 C 6.2 g/m*3 7.6 C 0 km/h
1721 03-03-2008 08:16:02 7.3 C 6 g/m*3 7.3 C 0 km/h
1722 03-03-2008 08:28:02 7.3 C 6.08 g/m*3 7.3 C 0 km/h
1723 03-03-2008 08:40:02 7.3 C 6.16 g/m*3 7.3 C 0 km/h
1724 03-03-2008 08:52:02 7.3 C 6.16 g/m*3 7.3 C 0 km/h
1725 03-03-2008 09:04:03 7.4 C 6.28 g/m*3 7.4 C 0 km/h
Sensor: Nr:Datum:Temp:Abs-Feuchte:Windchill:Wind:
Aussen-T/F 1726 03-03-2008 09:16:02 7.2 C 6.04 g/m*3 7.2 C 0 km/h
1727 03-03-2008 09:28:02 7.3 C 6 g/m*3 7.3 C 0 km/h
1728 03-03-2008 09:40:02 7.6 C 5.8 g/m*3 7.6 C 0 km/h
1729 03-03-2008 09:52:01 7.7 C 5.51 g/m*3 7.7 C 0 km/h
1730 03-03-2008 10:04:02 7.5 C 5.36 g/m*3 7.5 C 0 km/h
1731 03-03-2008 10:16:01 7 C 5.27 g/m*3 7 C 0 km/h
1732 03-03-2008 10:28:01 6.6 C 5.44 g/m*3 6.6 C 0 km/h
1733 03-03-2008 10:40:01 6.7 C 5.62 g/m*3 6.7 C 0 km/h
1734 03-03-2008 10:52:01 6.7 C 5.62 g/m*3 6.7 C 0 km/h
1735 03-03-2008 11:04:02 7.2 C 5.65 g/m*3 7.2 C 0 km/h
1736 03-03-2008 11:16:02 7.4 C 5.25 g/m*3 7.4 C 0 km/h
1737 03-03-2008 11:28:02 7.8 C 5.22 g/m*3 7.8 C 0 km/h
1738 03-03-2008 11:40:01 7.8 C 4.98 g/m*3 7.8 C 0 km/h
1739 03-03-2008 11:52:02 7.9 C 4.93 g/m*3 7.9 C 0 km/h
1740 03-03-2008 12:04:01 8.5 C 4.87 g/m*3 8.5 C 0 km/h
1741 03-03-2008 12:16:02 8.5 C 4.87 g/m*3 8.5 C 0 km/h
1742 03-03-2008 12:28:02 8.4 C 4.92 g/m*3 8.4 C 0 km/h
1743 03-03-2008 12:40:02 8.6 C 4.9 g/m*3 8.6 C 0 km/h
1744 03-03-2008 12:52:02 8.6 C 4.55 g/m*3 8.6 C 0 km/h
1745 03-03-2008 13:04:02 8.9 C 4.47 g/m*3 8.9 C 0 km/h
1746 03-03-2008 13:16:02 8.7 C 4.41 g/m*3 8.7 C 0 km/h
1747 03-03-2008 13:28:02 8.8 C 4.35 g/m*3 8.8 C 0 km/h
1748 03-03-2008 13:40:02 8.9 C 4.29 g/m*3 8.9 C 0 km/h
1749 03-03-2008 13:52:02 9 C 4.23 g/m*3 9 C 0 km/h
1750 03-03-2008 14:04:01 9.3 C 3.5 g/m*3 9.3 C 0 km/h
Sensor: Nr:Datum:Temp:Abs-Feuchte:Windchill:Wind:
Aussen-T/F 1751 03-03-2008 14:16:01 9.4 C 3.44 g/m*3 9.4 C 0 km/h
1752 03-03-2008 14:28:01 9.5 C 3.19 g/m*3 9.5 C 0 km/h
1753 03-03-2008 14:40:02 9.2 C 3.13 g/m*3 9.2 C 0 km/h
1754 03-03-2008 14:52:02 9.2 C 2.86 g/m*3 9.2 C 0 km/h
1755 03-03-2008 15:04:02 9.3 C 2.7 g/m*3 9.3 C 0 km/h
1756 03-03-2008 15:16:02 9.5 C 2.28 g/m*3 9.5 C 0 km/h
1757 03-03-2008 15:28:02 9.8 C 2.32 g/m*3 9.8 C 0 km/h
1758 03-03-2008 15:40:03 9.7 C 1.94 g/m*3 9.7 C 0 km/h
1759 03-03-2008 15:52:02 9.3 C 1.8 g/m*3 9.3 C 0 km/h
1760 03-03-2008 16:04:02 9 C 2.29 g/m*3 9 C 0 km/h
1761 03-03-2008 16:16:02 8.5 C 2.31 g/m*3 8.5 C 0 km/h
1762 03-03-2008 16:28:02 9.1 C 1.77 g/m*3 9.1 C 0 km/h
1763 03-03-2008 16:40:02 8.7 C 1.73 g/m*3 8.7 C 0 km/h
1764 03-03-2008 16:52:02 9.5 C 1.82 g/m*3 9.5 C 0 km/h
1765 03-03-2008 17:04:02 9 C 1.76 g/m*3 9 C 0 km/h
1766 03-03-2008 17:16:02 8.8 C 1.74 g/m*3 8.8 C 0 km/h
1767 03-03-2008 17:28:02 8.4 C 1.7 g/m*3 8.4 C 0 km/h
1768 03-03-2008 17:40:02 8.5 C 1.71 g/m*3 8.5 C 0 km/h
1769 03-03-2008 17:52:02 8.1 C 1.66 g/m*3 8.1 C 0 km/h
1770 03-03-2008 18:04:02 7.6 C 1.61 g/m*3 7.6 C 0 km/h
1771 03-03-2008 18:16:03 7.3 C 1.58 g/m*3 7.3 C 0 km/h
1772 03-03-2008 18:28:03 7.1 C 1.56 g/m*3 7.1 C 0 km/h
1773 03-03-2008 18:40:02 6.9 C 1.54 g/m*3 6.9 C 0 km/h
1774 03-03-2008 18:52:02 6.5 C 1.5 g/m*3 6.5 C 0 km/h
1775 03-03-2008 19:04:02 6.4 C 1.49 g/m*3 6.4 C 0 km/h
Sensor: Nr:Datum:Temp:Abs-Feuchte:Windchill:Wind:
Aussen-T/F 1776 03-03-2008 19:16:02 6.3 C 1.48 g/m*3 6.3 C 0 km/h
1777 03-03-2008 19:28:02 6.1 C 1.83 g/m*3 6.1 C 0 km/h
1778 03-03-2008 19:40:02 5.9 C 1.87 g/m*3 5.9 C 0 km/h
1779 03-03-2008 19:52:03 5.5 C 2.04 g/m*3 5.5 C 0 km/h
1780 03-03-2008 20:04:02 5.1 C 2.19 g/m*3 5.1 C 0 km/h
1781 03-03-2008 20:16:02 4.7 C 2.33 g/m*3 4.7 C 0 km/h
1782 03-03-2008 20:28:02 4.5 C 2.37 g/m*3 4.5 C 0 km/h
1783 03-03-2008 20:40:03 4.5 C 2.43 g/m*3 4.5 C 0 km/h
1784 03-03-2008 20:52:02 4.2 C 2.38 g/m*3 4.2 C 0 km/h
1785 03-03-2008 21:04:02 4.1 C 2.5 g/m*3 4.1 C 0 km/h
1786 03-03-2008 21:16:02 3.8 C 2.57 g/m*3 3.8 C 0 km/h
1787 03-03-2008 21:28:02 3.7 C 2.62 g/m*3 3.7 C 0 km/h
1788 03-03-2008 21:40:02 3.7 C 2.55 g/m*3 3.7 C 0 km/h
1789 03-03-2008 21:52:02 3.6 C 2.6 g/m*3 3.6 C 0 km/h
1790 03-03-2008 22:04:02 3.4 C 2.63 g/m*3 3.4 C 0 km/h
1791 03-03-2008 22:16:02 3.3 C 2.73 g/m*3 3.3 C 0 km/h
1792 03-03-2008 22:28:02 3.3 C 2.73 g/m*3 3.3 C 0 km/h
1793 03-03-2008 22:41:02 3.2 C 2.71 g/m*3 3.2 C 0 km/h
1794 03-03-2008 22:53:02 3.1 C 2.75 g/m*3 3.1 C 0 km/h
1795 03-03-2008 23:05:02 3.1 C 2.75 g/m*3 3.1 C 0 km/h
1796 03-03-2008 23:17:02 2.9 C 2.78 g/m*3 2.9 C 0 km/h
1797 03-03-2008 23:29:02 2.6 C 2.84 g/m*3 2.6 C 0 km/h
1798 03-03-2008 23:41:02 2.4 C 2.85 g/m*3 2.4 C 0 km/h
1799 03-03-2008 23:53:02 2.2 C 2.93 g/m*3 2.2 C 0 km/h
1800 04-03-2008 00:05:02 2.1 C 2.97 g/m*3 2.1 C 0 km/h
Sensor: Nr:Datum:Temp:Abs-Feuchte:Windchill:Wind:
Aussen-T/F 1801 04-03-2008 00:17:02 2 C 2.95 g/m*3 2 C 0 km/h
1802 04-03-2008 00:29:02 2 C 3 g/m*3 2 C 0 km/h
1803 04-03-2008 00:41:02 1.9 C 3.04 g/m*3 1.9 C 0 km/h
1804 04-03-2008 00:53:02 1.8 C 3.07 g/m*3 1.8 C 0 km/h
1805 04-03-2008 01:05:02 2 C 3.06 g/m*3 2 C 0 km/h
1806 04-03-2008 01:17:02 2.3 C 3.06 g/m*3 2.3 C 0 km/h
1807 04-03-2008 01:29:02 2.3 C 3.12 g/m*3 2.3 C 0 km/h
1808 04-03-2008 01:41:02 2.2 C 3.1 g/m*3 2.2 C 0 km/h
1809 04-03-2008 01:53:02 2.2 C 3.15 g/m*3 2.2 C 0 km/h
1810 04-03-2008 02:05:02 2.3 C 3.18 g/m*3 2.3 C 0 km/h
1811 04-03-2008 02:17:03 2.4 C 3.2 g/m*3 2.4 C 0 km/h
1812 04-03-2008 02:29:03 2.5 C 3.22 g/m*3 2.5 C 0 km/h
1813 04-03-2008 02:41:03 2.4 C 3.25 g/m*3 2.4 C 0 km/h
1814 04-03-2008 02:53:03 2.3 C 3.29 g/m*3 2.3 C 0 km/h
1815 04-03-2008 03:05:03 2.3 C 3.29 g/m*3 2.3 C 0 km/h
1816 04-03-2008 03:17:03 2.5 C 3.45 g/m*3 2.5 C 0 km/h
1817 04-03-2008 03:29:03 2.5 C 3.56 g/m*3 2.5 C 0 km/h
1818 04-03-2008 03:41:03 2.5 C 3.74 g/m*3 2.5 C 0 km/h
1819 04-03-2008 03:53:03 2.3 C 3.86 g/m*3 2.3 C 0 km/h
1820 04-03-2008 04:05:03 2.2 C 3.94 g/m*3 2.2 C 0 km/h
1821 04-03-2008 04:17:03 2 C 4.11 g/m*3 2 C 0 km/h
1822 04-03-2008 04:29:03 2.2 C 4.28 g/m*3 2.2 C 0 km/h
1823 04-03-2008 04:41:03 2 C 4.33 g/m*3 2 C 0 km/h
1824 04-03-2008 04:53:03 1.9 C 4.42 g/m*3 1.9 C 0 km/h
1825 04-03-2008 05:05:03 1.6 C 4.38 g/m*3 1.6 C 0 km/h
Sensor: Nr:Datum:Temp:Abs-Feuchte:Windchill:Wind:
Aussen-T/F 1826 04-03-2008 05:17:03 1.5 C 4.4 g/m*3 1.5 C 0 km/h
1827 04-03-2008 05:29:03 1.3 C 4.4 g/m*3 1.3 C 0 km/h
1828 04-03-2008 05:41:03 1.2 C 4.42 g/m*3 1.2 C 0 km/h
1829 04-03-2008 05:53:03 1.1 C 4.44 g/m*3 1.1 C 0 km/h
1830 04-03-2008 06:05:03 0.7 C 4.37 g/m*3 0.7 C 0 km/h
1831 04-03-2008 06:17:03 0.5 C 4.31 g/m*3 0.5 C 0 km/h
1832 04-03-2008 06:29:04 0.5 C 4.36 g/m*3 0.5 C 0 km/h
1833 04-03-2008 06:41:04 0.4 C 4.33 g/m*3 0.4 C 0 km/h
1834 04-03-2008 06:53:04 0.3 C 4.35 g/m*3 0.3 C 0 km/h
1835 04-03-2008 07:05:04 0.3 C 4.4 g/m*3 0.3 C 0 km/h
1836 04-03-2008 07:17:02 0.3 C 4.4 g/m*3 0.3 C 0 km/h
1837 04-03-2008 07:29:02 0.2 C 4.37 g/m*3 0.2 C 0 km/h
1838 04-03-2008 07:41:02 0.3 C 4.45 g/m*3 0.3 C 0 km/h
1839 04-03-2008 07:53:02 0.3 C 4.45 g/m*3 0.3 C 0 km/h
1840 04-03-2008 08:05:02 0.3 C 4.45 g/m*3 0.3 C 0 km/h
1841 04-03-2008 08:17:02 0.3 C 4.45 g/m*3 0.3 C 0 km/h
1842 04-03-2008 08:29:02 0.3 C 4.45 g/m*3 0.3 C 0 km/h
1843 04-03-2008 08:41:02 0.3 C 4.5 g/m*3 0.3 C 0 km/h
1844 04-03-2008 08:53:01 0.4 C 4.53 g/m*3 0.4 C 0 km/h
1845 04-03-2008 09:05:02 0.5 C 4.56 g/m*3 0.5 C 0 km/h
1846 04-03-2008 09:17:02 0.5 C 4.51 g/m*3 0.5 C 0 km/h
1847 04-03-2008 09:29:02 0.5 C 4.56 g/m*3 0.5 C 0 km/h
1848 04-03-2008 09:41:01 0.6 C 4.54 g/m*3 0.6 C 0 km/h
1849 04-03-2008 09:53:02 0.6 C 4.54 g/m*3 0.6 C 0 km/h
1850 04-03-2008 10:05:02 0.7 C 4.58 g/m*3 0.7 C 0 km/h
Sensor: Nr:Datum:Temp:Abs-Feuchte:Windchill:Wind:
Aussen-T/F 1851 04-03-2008 10:17:02 0.8 C 4.61 g/m*3 0.8 C 0 km/h
1852 04-03-2008 10:29:02 1 C 4.67 g/m*3 1 C 0 km/h
1853 04-03-2008 10:41:02 1.2 C 4.68 g/m*3 1.2 C 0 km/h
1854 04-03-2008 10:53:02 1.5 C 4.78 g/m*3 1.5 C 0 km/h
1855 04-03-2008 11:05:01 1.8 C 4.88 g/m*3 1.8 C 0 km/h
1856 04-03-2008 11:17:01 1.9 C 4.91 g/m*3 1.9 C 0 km/h
1857 04-03-2008 11:29:01 2.2 C 4.96 g/m*3 2.2 C 0 km/h
1858 04-03-2008 11:41:02 2.8 C 5.22 g/m*3 2.8 C 0 km/h
1859 04-03-2008 11:53:02 3.2 C 5.18 g/m*3 3.2 C 0 km/h
1860 04-03-2008 12:05:03 3.3 C 4.85 g/m*3 3.3 C 0 km/h
1861 04-03-2008 12:17:02 3.8 C 4.64 g/m*3 3.8 C 0 km/h
1862 04-03-2008 12:29:03 4 C 4.39 g/m*3 4 C 0 km/h
1863 04-03-2008 12:41:02 4.3 C 4.35 g/m*3 4.3 C 0 km/h
1864 04-03-2008 12:53:02 4.4 C 4.18 g/m*3 4.4 C 0 km/h
1865 04-03-2008 13:05:01 4.7 C 4.26 g/m*3 4.7 C 0 km/h
1866 04-03-2008 13:17:01 4.8 C 4.22 g/m*3 4.8 C 0 km/h
1867 04-03-2008 13:29:01 4.7 C 4.13 g/m*3 4.7 C 0 km/h
1868 04-03-2008 13:41:02 5.3 C 4.37 g/m*3 5.3 C 0 km/h
1869 04-03-2008 13:53:02 5 C 4.08 g/m*3 5 C 0 km/h
1870 04-03-2008 14:05:03 5 C 4.08 g/m*3 5 C 0 km/h
1871 04-03-2008 14:17:02 5.4 C 4.19 g/m*3 5.4 C 0 km/h
1872 04-03-2008 14:29:02 5.4 C 4.12 g/m*3 5.4 C 0 km/h
1873 04-03-2008 14:41:02 5 C 4.01 g/m*3 5 C 0 km/h
1874 04-03-2008 14:53:01 5.3 C 4.09 g/m*3 5.3 C 0 km/h
1875 04-03-2008 15:05:02 5.5 C 4.14 g/m*3 5.5 C 0 km/h
Sensor: Nr:Datum:Temp:Abs-Feuchte:Windchill:Wind:
Aussen-T/F 1876 04-03-2008 15:17:02 6.1 C 4.16 g/m*3 6.1 C 0 km/h
1877 04-03-2008 15:29:02 5.5 C 3.93 g/m*3 5.5 C 0 km/h
1878 04-03-2008 15:41:01 5.2 C 3.99 g/m*3 5.2 C 0 km/h
1879 04-03-2008 15:53:02 5.4 C 4.12 g/m*3 5.4 C 0 km/h
1880 04-03-2008 16:05:01 5.7 C 3.91 g/m*3 5.7 C 0 km/h
1881 04-03-2008 16:17:01 6 C 3.85 g/m*3 6 C 0 km/h
1882 04-03-2008 16:29:01 6.2 C 3.82 g/m*3 6.2 C 0 km/h
1883 04-03-2008 16:41:02 6.2 C 3.75 g/m*3 6.2 C 0 km/h
1884 04-03-2008 16:53:02 5.5 C 3.86 g/m*3 5.5 C 0 km/h
1885 04-03-2008 17:05:01 5.8 C 3.94 g/m*3 5.8 C 0 km/h
1886 04-03-2008 17:17:01 5.3 C 3.88 g/m*3 5.3 C 0 km/h
1887 04-03-2008 17:29:01 5.2 C 3.86 g/m*3 5.2 C 0 km/h
1888 04-03-2008 17:41:02 4.9 C 3.98 g/m*3 4.9 C 0 km/h
1889 04-03-2008 17:53:02 4.8 C 4.02 g/m*3 4.8 C 0 km/h
1890 04-03-2008 18:05:02 4.6 C 3.97 g/m*3 4.6 C 0 km/h
1891 04-03-2008 18:17:02 4.5 C 3.88 g/m*3 4.5 C 0 km/h
1892 04-03-2008 18:29:02 4.3 C 3.83 g/m*3 4.3 C 0 km/h
1893 04-03-2008 18:41:02 4.1 C 3.84 g/m*3 4.1 C 0 km/h
1894 04-03-2008 18:53:02 3.9 C 3.79 g/m*3 3.9 C 0 km/h
1895 04-03-2008 19:05:02 3.4 C 3.66 g/m*3 3.4 C 0 km/h
1896 04-03-2008 19:17:02 3.1 C 3.83 g/m*3 3.1 C 0 km/h
1897 04-03-2008 19:29:02 3 C 3.86 g/m*3 3 C 0 km/h
1898 04-03-2008 19:41:02 3.6 C 3.78 g/m*3 3.6 C 0 km/h
1899 04-03-2008 19:53:02 3.8 C 3.64 g/m*3 3.8 C 0 km/h
1900 04-03-2008 20:05:02 4 C 3.62 g/m*3 4 C 0 km/h
Sensor: Nr:Datum:Temp:Abs-Feuchte:Windchill:Wind:
Aussen-T/F 1901 04-03-2008 20:17:03 3.9 C 3.73 g/m*3 3.9 C 0 km/h
1902 04-03-2008 20:29:03 3.7 C 3.61 g/m*3 3.7 C 0 km/h
1903 04-03-2008 20:41:02 3.3 C 3.52 g/m*3 3.3 C 0 km/h
1904 04-03-2008 20:53:02 3 C 3.45 g/m*3 3 C 0 km/h
1905 04-03-2008 21:05:02 3 C 3.51 g/m*3 3 C 0 km/h
1906 04-03-2008 21:17:01 3.5 C 3.32 g/m*3 3.5 C 0 km/h
1907 04-03-2008 21:29:01 3.3 C 3.46 g/m*3 3.3 C 0 km/h
1908 04-03-2008 21:42:02 3.1 C 3.65 g/m*3 3.1 C 0 km/h
1909 04-03-2008 21:54:02 3 C 3.81 g/m*3 3 C 0 km/h
1910 04-03-2008 22:06:02 2.5 C 3.91 g/m*3 2.5 C 0 km/h
1911 04-03-2008 22:18:02 2 C 3.83 g/m*3 2 C 0 km/h
1912 04-03-2008 22:30:02 1.7 C 3.92 g/m*3 1.7 C 0 km/h
1913 04-03-2008 22:42:02 1.4 C 3.89 g/m*3 1.4 C 0 km/h
1914 04-03-2008 22:54:03 1.5 C 4.03 g/m*3 1.5 C 0 km/h
1915 04-03-2008 23:06:03 1.7 C 4.08 g/m*3 1.7 C 0 km/h
1916 04-03-2008 23:18:03 1.5 C 3.97 g/m*3 1.5 C 0 km/h
1917 04-03-2008 23:30:03 1.5 C 4.03 g/m*3 1.5 C 0 km/h
1918 04-03-2008 23:42:03 1.7 C 4.03 g/m*3 1.7 C 0 km/h
1919 04-03-2008 23:54:03 2 C 3.89 g/m*3 2 C 0 km/h
1920 05-03-2008 00:06:03 1.9 C 3.92 g/m*3 1.9 C 0 km/h
1921 05-03-2008 00:18:03 1.9 C 3.92 g/m*3 1.9 C 0 km/h
1922 05-03-2008 00:30:03 1.7 C 3.92 g/m*3 1.7 C 0 km/h
1923 05-03-2008 00:42:03 1.5 C 3.71 g/m*3 1.5 C 0 km/h
1924 05-03-2008 00:54:03 1.5 C 3.6 g/m*3 1.5 C 0 km/h
1925 05-03-2008 01:06:03 1.4 C 3.57 g/m*3 1.4 C 0 km/h
Sensor: Nr:Datum:Temp:Abs-Feuchte:Windchill:Wind:
Aussen-T/F 1926 05-03-2008 01:18:03 1.3 C 3.6 g/m*3 1.3 C 0 km/h
1927 05-03-2008 01:30:03 1.3 C 3.5 g/m*3 1.3 C 0 km/h
1928 05-03-2008 01:42:03 1.2 C 3.53 g/m*3 1.2 C 0 km/h
1929 05-03-2008 01:54:03 0.9 C 3.51 g/m*3 0.9 C 0 km/h
1930 05-03-2008 02:06:03 0.7 C 3.51 g/m*3 0.7 C 0 km/h
1931 05-03-2008 02:18:03 0.5 C 3.46 g/m*3 0.5 C 0 km/h
1932 05-03-2008 02:30:03 0.4 C 3.39 g/m*3 0.4 C 0 km/h
1933 05-03-2008 02:42:03 0.3 C 3.36 g/m*3 0.3 C 0 km/h
1934 05-03-2008 02:54:04 0.1 C 3.27 g/m*3 0.1 C 0 km/h
1935 05-03-2008 03:06:04 0.1 C 3.27 g/m*3 0.1 C 0 km/h
1936 05-03-2008 03:18:04 0 C 3.25 g/m*3 0 C 0 km/h
1937 05-03-2008 03:30:04 -0.2 C 3.3 g/m*3 -0.2 C 0 km/h
1938 05-03-2008 03:42:04 -0.4 C 3.25 g/m*3 -0.4 C 0 km/h
1939 05-03-2008 03:54:04 -0.5 C 3.32 g/m*3 -0.5 C 0 km/h
1940 05-03-2008 04:06:04 -0.5 C 3.37 g/m*3 -0.5 C 0 km/h
1941 05-03-2008 04:18:04 -0.4 C 3.35 g/m*3 -0.4 C 0 km/h
1942 05-03-2008 04:30:04 -0.4 C 3.35 g/m*3 -0.4 C 0 km/h
1943 05-03-2008 04:42:04 -0.6 C 3.3 g/m*3 -0.6 C 0 km/h
1944 05-03-2008 04:54:04 -0.6 C 3.39 g/m*3 -0.6 C 0 km/h
1945 05-03-2008 05:06:04 -0.5 C 3.46 g/m*3 -0.5 C 0 km/h
1946 05-03-2008 05:18:04 -0.3 C 3.51 g/m*3 -0.3 C 0 km/h
1947 05-03-2008 05:30:04 -0.4 C 3.44 g/m*3 -0.4 C 0 km/h
1948 05-03-2008 05:42:04 -0.4 C 3.44 g/m*3 -0.4 C 0 km/h
1949 05-03-2008 05:54:04 -0.7 C 3.42 g/m*3 -0.7 C 0 km/h
1950 05-03-2008 06:06:04 -0.7 C 3.42 g/m*3 -0.7 C 0 km/h
Sensor: Nr:Datum:Temp:Abs-Feuchte:Windchill:Wind:
Aussen-T/F 1951 05-03-2008 06:18:04 -0.5 C 3.42 g/m*3 -0.5 C 0 km/h
1952 05-03-2008 06:30:04 -0.9 C 3.32 g/m*3 -0.9 C 0 km/h
1953 05-03-2008 06:42:04 -0.9 C 3.37 g/m*3 -0.9 C 0 km/h
1954 05-03-2008 06:54:04 -0.8 C 3.39 g/m*3 -0.8 C 0 km/h
1955 05-03-2008 07:06:02 -0.8 C 3.35 g/m*3 -0.8 C 0 km/h
1956 05-03-2008 07:18:02 -1 C 3.35 g/m*3 -1 C 0 km/h
1957 05-03-2008 07:30:02 -0.9 C 3.37 g/m*3 -0.9 C 0 km/h
1958 05-03-2008 07:42:02 -0.5 C 3.42 g/m*3 -0.5 C 0 km/h
1959 05-03-2008 07:54:02 -0.4 C 3.35 g/m*3 -0.4 C 0 km/h
1960 05-03-2008 08:06:04 -0.2 C 3.35 g/m*3 -0.2 C 0 km/h
1961 05-03-2008 08:18:02 0 C 3.34 g/m*3 0 C 0 km/h
1962 05-03-2008 08:30:02 0 C 3.29 g/m*3 0 C 0 km/h
1963 05-03-2008 08:42:02 0 C 3.2 g/m*3 0 C 0 km/h
1964 05-03-2008 08:54:02 -0.1 C 3.18 g/m*3 -0.1 C 0 km/h
1965 05-03-2008 09:06:03 0.5 C 3.31 g/m*3 0.5 C 0 km/h
1966 05-03-2008 09:18:02 0.6 C 3.18 g/m*3 0.6 C 0 km/h
1967 05-03-2008 09:30:02 0.9 C 3.2 g/m*3 0.9 C 0 km/h
1968 05-03-2008 09:42:02 0.8 C 3.12 g/m*3 0.8 C 0 km/h
1969 05-03-2008 09:54:01 0.6 C 3.13 g/m*3 0.6 C 0 km/h
1970 05-03-2008 10:06:01 0.9 C 3.14 g/m*3 0.9 C 0 km/h
1971 05-03-2008 10:18:02 1.4 C 3.09 g/m*3 1.4 C 0 km/h
1972 05-03-2008 10:30:02 1.7 C 3.1 g/m*3 1.7 C 0 km/h
1973 05-03-2008 10:42:02 2.2 C 3.1 g/m*3 2.2 C 0 km/h
1974 05-03-2008 10:54:02 2.5 C 2.99 g/m*3 2.5 C 0 km/h
1975 05-03-2008 11:06:02 3.1 C 2.93 g/m*3 3.1 C 0 km/h
Sensor: Nr:Datum:Temp:Abs-Feuchte:Windchill:Wind:
Aussen-T/F 1976 05-03-2008 11:18:02 2.8 C 2.87 g/m*3 2.8 C 0 km/h
1977 05-03-2008 11:30:02 2.5 C 2.87 g/m*3 2.5 C 0 km/h
1978 05-03-2008 11:42:02 3.1 C 2.81 g/m*3 3.1 C 0 km/h
1979 05-03-2008 11:54:02 3.2 C 2.59 g/m*3 3.2 C 0 km/h
1980 05-03-2008 12:06:02 3 C 2.62 g/m*3 3 C 0 km/h
1981 05-03-2008 12:18:01 3.8 C 2.63 g/m*3 3.8 C 0 km/h
1982 05-03-2008 12:30:01 4.3 C 2.27 g/m*3 4.3 C 0 km/h
1983 05-03-2008 12:42:01 3.5 C 2.52 g/m*3 3.5 C 0 km/h
1984 05-03-2008 12:54:02 4.3 C 2.53 g/m*3 4.3 C 0 km/h
1985 05-03-2008 13:06:02 4.6 C 2.25 g/m*3 4.6 C 0 km/h
1986 05-03-2008 13:18:02 5.3 C 2.08 g/m*3 5.3 C 0 km/h
1987 05-03-2008 13:30:02 4.3 C 1.82 g/m*3 4.3 C 0 km/h
1988 05-03-2008 13:42:02 5.7 C 1.85 g/m*3 5.7 C 0 km/h
1989 05-03-2008 13:54:02 3.8 C 2.63 g/m*3 3.8 C 0 km/h
1990 05-03-2008 14:06:02 3.7 C 2.87 g/m*3 3.7 C 0 km/h
1991 05-03-2008 14:18:01 4.8 C 2.62 g/m*3 4.8 C 0 km/h
1992 05-03-2008 14:30:01 5.3 C 2.5 g/m*3 5.3 C 0 km/h
1993 05-03-2008 14:42:02 6 C 2.18 g/m*3 6 C 0 km/h
1994 05-03-2008 14:54:02 6.5 C 2.02 g/m*3 6.5 C 0 km/h
1995 05-03-2008 15:06:01 4.9 C 2.23 g/m*3 4.9 C 0 km/h
1996 05-03-2008 15:18:01 4.5 C 2.43 g/m*3 4.5 C 0 km/h
1997 05-03-2008 15:30:01 6.1 C 2.34 g/m*3 6.1 C 0 km/h
1998 05-03-2008 15:42:01 6.7 C 2.13 g/m*3 6.7 C 0 km/h
1999 05-03-2008 15:54:02 5.4 C 2.3 g/m*3 5.4 C 0 km/h
2000 05-03-2008 16:06:01 5.2 C 2.27 g/m*3 5.2 C 0 km/h
Sensor: Nr:Datum:Temp:Abs-Feuchte:Windchill:Wind:
Aussen-T/F 2001 05-03-2008 16:18:02 5.5 C 2.18 g/m*3 5.5 C 0 km/h
2002 05-03-2008 16:30:02 6.1 C 2.05 g/m*3 6.1 C 0 km/h
2003 05-03-2008 16:42:02 6.9 C 2.31 g/m*3 6.9 C 0 km/h
2004 05-03-2008 16:54:02 6.7 C 2.05 g/m*3 6.7 C 0 km/h
2005 05-03-2008 17:06:02 6.3 C 1.85 g/m*3 6.3 C 0 km/h
2006 05-03-2008 17:18:02 5.7 C 1.78 g/m*3 5.7 C 0 km/h
2007 05-03-2008 17:30:03 6.1 C 1.9 g/m*3 6.1 C 0 km/h
2008 05-03-2008 17:42:02 5.7 C 1.92 g/m*3 5.7 C 0 km/h
2009 05-03-2008 17:54:02 5 C 2.04 g/m*3 5 C 0 km/h
2010 05-03-2008 18:06:02 4.4 C 2.09 g/m*3 4.4 C 0 km/h
2011 05-03-2008 18:18:02 3.8 C 2.57 g/m*3 3.8 C 0 km/h
2012 05-03-2008 18:30:02 3.2 C 2.59 g/m*3 3.2 C 0 km/h
2013 05-03-2008 18:42:03 2.7 C 2.74 g/m*3 2.7 C 0 km/h
2014 05-03-2008 18:54:02 2.3 C 2.67 g/m*3 2.3 C 0 km/h
2015 05-03-2008 19:06:02 2 C 2.67 g/m*3 2 C 0 km/h
2016 05-03-2008 19:18:02 1.7 C 2.72 g/m*3 1.7 C 0 km/h
2017 05-03-2008 19:30:02 1.5 C 2.79 g/m*3 1.5 C 0 km/h
2018 05-03-2008 19:42:01 1.3 C 2.86 g/m*3 1.3 C 0 km/h
2019 05-03-2008 19:54:02 1.2 C 2.89 g/m*3 1.2 C 0 km/h
2020 05-03-2008 20:06:02 0.9 C 2.94 g/m*3 0.9 C 0 km/h
2021 05-03-2008 20:18:02 0.7 C 2.95 g/m*3 0.7 C 0 km/h
2022 05-03-2008 20:30:02 0.6 C 2.88 g/m*3 0.6 C 0 km/h
2023 05-03-2008 20:42:02 0.5 C 2.86 g/m*3 0.5 C 0 km/h
2024 05-03-2008 20:54:02 0.4 C 2.89 g/m*3 0.4 C 0 km/h
2025 05-03-2008 21:06:01 0.3 C 2.82 g/m*3 0.3 C 0 km/h
Sensor: Nr:Datum:Temp:Abs-Feuchte:Windchill:Wind:
Aussen-T/F 2026 05-03-2008 21:18:02 0.1 C 2.83 g/m*3 0.1 C 0 km/h
2027 05-03-2008 21:30:02 0 C 2.91 g/m*3 0 C 0 km/h
2028 05-03-2008 21:42:01 0 C 2.91 g/m*3 0 C 0 km/h
2029 05-03-2008 21:54:02 -0.2 C 2.91 g/m*3 -0.2 C 0 km/h
2030 05-03-2008 22:07:02 -0.2 C 2.91 g/m*3 -0.2 C 0 km/h
2031 05-03-2008 22:19:02 -0.3 C 2.94 g/m*3 -0.3 C 0 km/h
2032 05-03-2008 22:31:02 -0.5 C 2.9 g/m*3 -0.5 C 0 km/h
2033 05-03-2008 22:43:02 -0.7 C 2.86 g/m*3 -0.7 C 0 km/h
2034 05-03-2008 22:55:02 -0.8 C 2.89 g/m*3 -0.8 C 0 km/h
2035 05-03-2008 23:07:02 -0.9 C 2.91 g/m*3 -0.9 C 0 km/h
2036 05-03-2008 23:19:02 -1 C 2.89 g/m*3 -1 C 0 km/h
2037 05-03-2008 23:31:02 -1.1 C 2.87 g/m*3 -1.1 C 0 km/h
2038 05-03-2008 23:43:02 -1.1 C 2.92 g/m*3 -1.1 C 0 km/h
2039 05-03-2008 23:55:02 -1.2 C 2.94 g/m*3 -1.2 C 0 km/h
2040 06-03-2008 00:07:02 -1.1 C 2.92 g/m*3 -1.1 C 0 km/h
2041 06-03-2008 00:19:02 -1.3 C 2.92 g/m*3 -1.3 C 0 km/h
2042 06-03-2008 00:31:02 -1.4 C 2.9 g/m*3 -1.4 C 0 km/h
2043 06-03-2008 00:43:03 -1.3 C 2.92 g/m*3 -1.3 C 0 km/h
2044 06-03-2008 00:55:03 -1.3 C 2.97 g/m*3 -1.3 C 0 km/h
2045 06-03-2008 01:07:03 -1.3 C 2.97 g/m*3 -1.3 C 0 km/h
2046 06-03-2008 01:19:03 -1.3 C 2.97 g/m*3 -1.3 C 0 km/h
2047 06-03-2008 01:31:03 -1.2 C 2.94 g/m*3 -1.2 C 0 km/h
2048 06-03-2008 01:43:03 -1.2 C 2.94 g/m*3 -1.2 C 0 km/h
2049 06-03-2008 01:55:03 -1.2 C 2.94 g/m*3 -1.2 C 0 km/h
2050 06-03-2008 02:07:03 -1.2 C 2.9 g/m*3 -1.2 C 0 km/h
Sensor: Nr:Datum:Temp:Abs-Feuchte:Windchill:Wind:
Aussen-T/F 2051 06-03-2008 02:19:03 -1.1 C 2.92 g/m*3 -1.1 C 0 km/h
2052 06-03-2008 02:31:03 -1.1 C 2.92 g/m*3 -1.1 C 0 km/h
2053 06-03-2008 02:43:03 -1.2 C 2.9 g/m*3 -1.2 C 0 km/h
2054 06-03-2008 02:55:03 -1.3 C 2.88 g/m*3 -1.3 C 0 km/h
2055 06-03-2008 03:07:03 -1.3 C 2.92 g/m*3 -1.3 C 0 km/h
2056 06-03-2008 03:19:03 -1.3 C 2.88 g/m*3 -1.3 C 0 km/h
2057 06-03-2008 03:31:03 -1.3 C 2.88 g/m*3 -1.3 C 0 km/h
2058 06-03-2008 03:43:03 -1.3 C 2.88 g/m*3 -1.3 C 0 km/h
2059 06-03-2008 03:55:03 -1.4 C 2.86 g/m*3 -1.4 C 0 km/h
2060 06-03-2008 04:07:03 -1.3 C 2.88 g/m*3 -1.3 C 0 km/h
2061 06-03-2008 04:19:03 -1.4 C 2.86 g/m*3 -1.4 C 0 km/h
2062 06-03-2008 04:31:03 -1.2 C 2.85 g/m*3 -1.2 C 0 km/h
2063 06-03-2008 04:43:03 -1.2 C 2.85 g/m*3 -1.2 C 0 km/h
2064 06-03-2008 04:55:04 -1.5 C 2.79 g/m*3 -1.5 C 0 km/h
2065 06-03-2008 05:07:04 -1.4 C 2.81 g/m*3 -1.4 C 0 km/h
2066 06-03-2008 05:19:04 -1.5 C 2.75 g/m*3 -1.5 C 0 km/h
2067 06-03-2008 05:31:04 -1.3 C 2.79 g/m*3 -1.3 C 0 km/h
2068 06-03-2008 05:43:04 -1 C 2.71 g/m*3 -1 C 0 km/h
2069 06-03-2008 05:55:04 -0.5 C 2.62 g/m*3 -0.5 C 0 km/h
2070 06-03-2008 06:07:04 -0.2 C 2.58 g/m*3 -0.2 C 0 km/h
2071 06-03-2008 06:19:04 0.3 C 2.57 g/m*3 0.3 C 0 km/h
2072 06-03-2008 06:31:04 0.6 C 2.52 g/m*3 0.6 C 0 km/h
2073 06-03-2008 06:43:04 0.8 C 2.56 g/m*3 0.8 C 0 km/h
2074 06-03-2008 06:55:04 0.8 C 2.56 g/m*3 0.8 C 0 km/h
2075 06-03-2008 07:07:02 0.9 C 2.63 g/m*3 0.9 C 0 km/h
Sensor: Nr:Datum:Temp:Abs-Feuchte:Windchill:Wind:
Aussen-T/F 2076 06-03-2008 07:19:02 0.9 C 2.63 g/m*3 0.9 C 0 km/h
2077 06-03-2008 07:31:02 0.8 C 2.66 g/m*3 0.8 C 0 km/h
2078 06-03-2008 07:43:02 0.8 C 2.61 g/m*3 0.8 C 0 km/h
2079 06-03-2008 07:55:02 0.9 C 2.58 g/m*3 0.9 C 0 km/h
2080 06-03-2008 08:07:02 1 C 2.54 g/m*3 1 C 0 km/h
2081 06-03-2008 08:19:02 1.1 C 2.56 g/m*3 1.1 C 0 km/h
2082 06-03-2008 08:31:03 1.1 C 2.56 g/m*3 1.1 C 0 km/h
2083 06-03-2008 08:43:03 1.3 C 2.54 g/m*3 1.3 C 0 km/h
2084 06-03-2008 08:55:02 1.5 C 2.58 g/m*3 1.5 C 0 km/h
2085 06-03-2008 09:07:02 1.5 C 2.58 g/m*3 1.5 C 0 km/h
2086 06-03-2008 09:19:01 1.7 C 2.61 g/m*3 1.7 C 0 km/h
2087 06-03-2008 09:31:02 1.8 C 2.58 g/m*3 1.8 C 0 km/h
2088 06-03-2008 09:43:02 2 C 2.56 g/m*3 2 C 0 km/h
2089 06-03-2008 09:55:02 2.1 C 2.57 g/m*3 2.1 C 0 km/h
2090 06-03-2008 10:07:01 2.2 C 2.59 g/m*3 2.2 C 0 km/h
2091 06-03-2008 10:19:01 2.4 C 2.63 g/m*3 2.4 C 0 km/h
2092 06-03-2008 10:31:02 2.6 C 2.66 g/m*3 2.6 C 0 km/h
2093 06-03-2008 10:43:02 2.8 C 2.64 g/m*3 2.8 C 0 km/h
2094 06-03-2008 10:55:02 3 C 2.62 g/m*3 3 C 0 km/h
2095 06-03-2008 11:07:02 3.2 C 2.65 g/m*3 3.2 C 0 km/h
2096 06-03-2008 11:19:02 3.5 C 2.64 g/m*3 3.5 C 0 km/h
2097 06-03-2008 11:31:02 4 C 2.67 g/m*3 4 C 0 km/h
2098 06-03-2008 11:43:02 4 C 2.61 g/m*3 4 C 0 km/h
2099 06-03-2008 11:55:01 4 C 2.61 g/m*3 4 C 0 km/h
2100 06-03-2008 12:07:01 4.4 C 2.68 g/m*3 4.4 C 0 km/h
Sensor: Nr:Datum:Temp:Abs-Feuchte:Windchill:Wind:
Aussen-T/F 2101 06-03-2008 12:19:02 4.5 C 2.63 g/m*3 4.5 C 0 km/h
2102 06-03-2008 12:31:01 4.3 C 2.66 g/m*3 4.3 C 0 km/h
2103 06-03-2008 12:43:01 4.2 C 2.71 g/m*3 4.2 C 0 km/h
2104 06-03-2008 12:55:02 4.3 C 2.72 g/m*3 4.3 C 0 km/h
2105 06-03-2008 13:07:01 4.6 C 2.71 g/m*3 4.6 C 0 km/h
2106 06-03-2008 13:19:02 4.8 C 2.68 g/m*3 4.8 C 0 km/h
2107 06-03-2008 13:31:02 4.8 C 2.75 g/m*3 4.8 C 0 km/h
2108 06-03-2008 13:43:03 5.2 C 2.75 g/m*3 5.2 C 0 km/h
2109 06-03-2008 13:55:02 5.2 C 2.69 g/m*3 5.2 C 0 km/h
2110 06-03-2008 14:07:02 5.4 C 2.79 g/m*3 5.4 C 0 km/h
2111 06-03-2008 14:19:02 5.4 C 2.79 g/m*3 5.4 C 0 km/h
2112 06-03-2008 14:31:02 5.6 C 2.83 g/m*3 5.6 C 0 km/h
2113 06-03-2008 14:43:02 5.5 C 2.81 g/m*3 5.5 C 0 km/h
2114 06-03-2008 14:55:02 5.8 C 2.87 g/m*3 5.8 C 0 km/h
2115 06-03-2008 15:07:02 5.7 C 2.85 g/m*3 5.7 C 0 km/h
2116 06-03-2008 15:19:01 6.1 C 2.92 g/m*3 6.1 C 0 km/h
2117 06-03-2008 15:31:02 5.9 C 2.88 g/m*3 5.9 C 0 km/h
2118 06-03-2008 15:43:02 6 C 2.98 g/m*3 6 C 0 km/h
2119 06-03-2008 15:55:01 6.1 C 2.92 g/m*3 6.1 C 0 km/h
2120 06-03-2008 16:07:02 6.1 C 2.92 g/m*3 6.1 C 0 km/h
2121 06-03-2008 16:19:02 6.2 C 3.02 g/m*3 6.2 C 0 km/h
2122 06-03-2008 16:31:01 6.2 C 3.02 g/m*3 6.2 C 0 km/h
2123 06-03-2008 16:43:01 6.3 C 3.03 g/m*3 6.3 C 0 km/h
2124 06-03-2008 16:55:02 6.3 C 3.03 g/m*3 6.3 C 0 km/h
2125 06-03-2008 17:07:01 6.2 C 3.02 g/m*3 6.2 C 0 km/h
Sensor: Nr:Datum:Temp:Abs-Feuchte:Windchill:Wind:
Aussen-T/F 2126 06-03-2008 17:19:02 6.1 C 3.07 g/m*3 6.1 C 0 km/h
2127 06-03-2008 17:31:02 6.1 C 3.14 g/m*3 6.1 C 0 km/h
2128 06-03-2008 17:43:02 5.9 C 3.24 g/m*3 5.9 C 0 km/h
2129 06-03-2008 17:55:02 5.7 C 3.2 g/m*3 5.7 C 0 km/h
2130 06-03-2008 18:07:02 5.7 C 3.2 g/m*3 5.7 C 0 km/h
2131 06-03-2008 18:19:02 5.6 C 3.25 g/m*3 5.6 C 0 km/h
2132 06-03-2008 18:31:02 5.4 C 3.28 g/m*3 5.4 C 0 km/h
2133 06-03-2008 18:43:02 5.3 C 3.26 g/m*3 5.3 C 0 km/h
2134 06-03-2008 18:55:02 5.3 C 3.33 g/m*3 5.3 C 0 km/h
2135 06-03-2008 19:07:02 5.3 C 3.33 g/m*3 5.3 C 0 km/h
2136 06-03-2008 19:19:02 5.4 C 3.28 g/m*3 5.4 C 0 km/h
2137 06-03-2008 19:31:02 5.4 C 3.35 g/m*3 5.4 C 0 km/h
2138 06-03-2008 19:43:02 5.4 C 3.49 g/m*3 5.4 C 0 km/h
2139 06-03-2008 19:55:02 5.3 C 3.53 g/m*3 5.3 C 0 km/h
2140 06-03-2008 20:07:01 5.2 C 3.44 g/m*3 5.2 C 0 km/h
2141 06-03-2008 20:19:02 5.3 C 3.4 g/m*3 5.3 C 0 km/h
2142 06-03-2008 20:31:02 5.3 C 3.47 g/m*3 5.3 C 0 km/h
2143 06-03-2008 20:43:02 5.2 C 3.51 g/m*3 5.2 C 0 km/h
2144 06-03-2008 20:55:02 5.1 C 3.56 g/m*3 5.1 C 0 km/h
2145 06-03-2008 21:07:02 5.2 C 3.51 g/m*3 5.2 C 0 km/h
2146 06-03-2008 21:19:02 5.2 C 3.58 g/m*3 5.2 C 0 km/h
2147 06-03-2008 21:31:03 5.1 C 3.56 g/m*3 5.1 C 0 km/h
2148 06-03-2008 21:43:03 5.2 C 3.58 g/m*3 5.2 C 0 km/h
2149 06-03-2008 21:56:02 5.2 C 3.65 g/m*3 5.2 C 0 km/h
2150 06-03-2008 22:08:02 5.3 C 3.6 g/m*3 5.3 C 0 km/h
Sensor: Nr:Datum:Temp:Abs-Feuchte:Windchill:Wind:
Aussen-T/F 2151 06-03-2008 22:20:02 5.2 C 3.65 g/m*3 5.2 C 0 km/h
2152 06-03-2008 22:32:02 5.2 C 3.65 g/m*3 5.2 C 0 km/h
2153 06-03-2008 22:44:02 5.1 C 3.63 g/m*3 5.1 C 0 km/h
2154 06-03-2008 22:56:02 5.1 C 3.56 g/m*3 5.1 C 0 km/h
2155 06-03-2008 23:08:02 5.1 C 3.63 g/m*3 5.1 C 0 km/h
2156 06-03-2008 23:20:03 5.1 C 3.63 g/m*3 5.1 C 0 km/h
2157 06-03-2008 23:32:03 5.1 C 3.63 g/m*3 5.1 C 0 km/h
2158 06-03-2008 23:44:03 5 C 3.67 g/m*3 5 C 0 km/h
2159 06-03-2008 23:56:03 5.1 C 3.69 g/m*3 5.1 C 0 km/h
2160 07-03-2008 00:08:03 5 C 3.74 g/m*3 5 C 0 km/h
2161 07-03-2008 00:20:03 5 C 3.67 g/m*3 5 C 0 km/h
2162 07-03-2008 00:32:03 5 C 3.87 g/m*3 5 C 0 km/h
2163 07-03-2008 00:44:03 5 C 3.81 g/m*3 5 C 0 km/h
2164 07-03-2008 00:56:03 4.9 C 3.92 g/m*3 4.9 C 0 km/h
2165 07-03-2008 01:08:03 5 C 3.87 g/m*3 5 C 0 km/h
2166 07-03-2008 01:20:03 5 C 3.87 g/m*3 5 C 0 km/h
2167 07-03-2008 01:32:03 4.9 C 3.98 g/m*3 4.9 C 0 km/h
2168 07-03-2008 01:44:03 4.9 C 3.98 g/m*3 4.9 C 0 km/h
2169 07-03-2008 01:56:03 4.9 C 3.92 g/m*3 4.9 C 0 km/h
2170 07-03-2008 02:08:03 4.8 C 3.82 g/m*3 4.8 C 0 km/h
2171 07-03-2008 02:20:03 4.8 C 3.89 g/m*3 4.8 C 0 km/h
2172 07-03-2008 02:32:03 4.8 C 3.89 g/m*3 4.8 C 0 km/h
2173 07-03-2008 02:44:03 4.8 C 3.96 g/m*3 4.8 C 0 km/h
2174 07-03-2008 02:56:03 4.8 C 3.96 g/m*3 4.8 C 0 km/h
2175 07-03-2008 03:08:03 4.8 C 3.96 g/m*3 4.8 C 0 km/h
Sensor: Nr:Datum:Temp:Abs-Feuchte:Windchill:Wind:
Aussen-T/F 2176 07-03-2008 03:20:04 4.8 C 4.02 g/m*3 4.8 C 0 km/h
2177 07-03-2008 03:32:04 4.8 C 4.02 g/m*3 4.8 C 0 km/h
2178 07-03-2008 03:44:04 4.8 C 4.02 g/m*3 4.8 C 0 km/h
2179 07-03-2008 03:56:04 4.8 C 4.02 g/m*3 4.8 C 0 km/h
2180 07-03-2008 04:08:04 4.8 C 4.02 g/m*3 4.8 C 0 km/h
2181 07-03-2008 04:20:04 4.8 C 4.09 g/m*3 4.8 C 0 km/h
2182 07-03-2008 04:32:04 4.8 C 4.16 g/m*3 4.8 C 0 km/h
2183 07-03-2008 04:44:04 4.7 C 4.2 g/m*3 4.7 C 0 km/h
2184 07-03-2008 04:56:04 4.5 C 4.27 g/m*3 4.5 C 0 km/h
2185 07-03-2008 05:08:04 4.4 C 4.44 g/m*3 4.4 C 0 km/h
2186 07-03-2008 05:20:04 4.3 C 4.61 g/m*3 4.3 C 0 km/h
2187 07-03-2008 05:32:04 4.2 C 4.7 g/m*3 4.2 C 0 km/h
2188 07-03-2008 05:44:04 4.3 C 4.74 g/m*3 4.3 C 0 km/h
2189 07-03-2008 05:56:04 4.4 C 4.77 g/m*3 4.4 C 0 km/h
2190 07-03-2008 06:08:04 4.2 C 4.77 g/m*3 4.2 C 0 km/h
2191 07-03-2008 06:20:04 3.9 C 4.74 g/m*3 3.9 C 0 km/h
2192 07-03-2008 06:32:04 3.7 C 4.8 g/m*3 3.7 C 0 km/h
2193 07-03-2008 06:44:04 3.4 C 4.76 g/m*3 3.4 C 0 km/h
2194 07-03-2008 06:56:04 3.4 C 4.83 g/m*3 3.4 C 0 km/h
2195 07-03-2008 07:08:03 3.3 C 4.79 g/m*3 3.3 C 0 km/h
2196 07-03-2008 07:20:03 3 C 4.7 g/m*3 3 C 0 km/h
2197 07-03-2008 07:32:02 2.9 C 4.78 g/m*3 2.9 C 0 km/h
2198 07-03-2008 07:44:02 2.7 C 4.72 g/m*3 2.7 C 0 km/h
2199 07-03-2008 07:56:01 2.8 C 4.87 g/m*3 2.8 C 0 km/h
2200 07-03-2008 08:08:02 3 C 4.88 g/m*3 3 C 0 km/h
Sensor: Nr:Datum:Temp:Abs-Feuchte:Windchill:Wind:
Aussen-T/F 2201 07-03-2008 08:20:02 3.2 C 5 g/m*3 3.2 C 0 km/h
2202 07-03-2008 08:32:01 3.7 C 5.23 g/m*3 3.7 C 0 km/h
2203 07-03-2008 08:44:01 4.4 C 5.42 g/m*3 4.4 C 0 km/h
2204 07-03-2008 08:56:01 5 C 5.5 g/m*3 5 C 0 km/h
2205 07-03-2008 09:08:02 5.4 C 5.3 g/m*3 5.4 C 0 km/h
2206 07-03-2008 09:20:02 5.8 C 5.23 g/m*3 5.8 C 0 km/h
2207 07-03-2008 09:32:02 6.2 C 5.07 g/m*3 6.2 C 0 km/h
2208 07-03-2008 09:44:02 6.3 C 4.89 g/m*3 6.3 C 0 km/h
2209 07-03-2008 09:56:02 6.4 C 4.84 g/m*3 6.4 C 0 km/h
2210 07-03-2008 10:08:02 6.9 C 5 g/m*3 6.9 C 0 km/h
2211 07-03-2008 10:20:02 7 C 4.8 g/m*3 7 C 0 km/h
2212 07-03-2008 10:32:02 7.4 C 4.93 g/m*3 7.4 C 0 km/h
2213 07-03-2008 10:44:02 7.4 C 4.77 g/m*3 7.4 C 0 km/h
2214 07-03-2008 10:56:02 7.6 C 4.83 g/m*3 7.6 C 0 km/h
2215 07-03-2008 11:08:02 7.8 C 4.9 g/m*3 7.8 C 0 km/h
2216 07-03-2008 11:20:01 7.7 C 4.78 g/m*3 7.7 C 0 km/h
2217 07-03-2008 11:32:01 7.9 C 4.85 g/m*3 7.9 C 0 km/h
2218 07-03-2008 11:44:01 8.1 C 4.83 g/m*3 8.1 C 0 km/h
2219 07-03-2008 11:56:01 8.4 C 4.84 g/m*3 8.4 C 0 km/h
2220 07-03-2008 12:08:02 8.5 C 4.78 g/m*3 8.5 C 0 km/h
2221 07-03-2008 12:20:02 8.4 C 4.75 g/m*3 8.4 C 0 km/h
2222 07-03-2008 12:32:01 8.3 C 4.72 g/m*3 8.3 C 0 km/h
2223 07-03-2008 12:44:01 8.5 C 4.78 g/m*3 8.5 C 0 km/h
2224 07-03-2008 12:56:01 8.6 C 4.81 g/m*3 8.6 C 0 km/h
2225 07-03-2008 13:08:02 8.8 C 4.79 g/m*3 8.8 C 0 km/h
Sensor: Nr:Datum:Temp:Abs-Feuchte:Windchill:Wind:
Aussen-T/F 2226 07-03-2008 13:20:02 9.6 C 4.76 g/m*3 9.6 C 0 km/h
2227 07-03-2008 13:32:02 10.5 C 4.75 g/m*3 10.5 C 0 km/h
2228 07-03-2008 13:44:02 10.5 C 4.56 g/m*3 10.5 C 0 km/h
2229 07-03-2008 13:56:02 10.5 C 4.56 g/m*3 10.5 C 0 km/h
2230 07-03-2008 14:08:02 10.7 C 4.62 g/m*3 10.7 C 0 km/h
2231 07-03-2008 14:20:02 10.7 C 4.52 g/m*3 10.7 C 0 km/h
2232 07-03-2008 14:32:02 11 C 4.6 g/m*3 11 C 0 km/h
2233 07-03-2008 14:44:02 10.9 C 4.48 g/m*3 10.9 C 0 km/h
2234 07-03-2008 14:56:01 10.8 C 4.55 g/m*3 10.8 C 0 km/h
2235 07-03-2008 15:08:01 11.6 C 4.68 g/m*3 11.6 C 0 km/h
2236 07-03-2008 15:20:02 11.8 C 4.74 g/m*3 11.8 C 0 km/h
2237 07-03-2008 15:32:01 11.1 C 4.53 g/m*3 11.1 C 0 km/h
2238 07-03-2008 15:44:01 10.6 C 4.59 g/m*3 10.6 C 0 km/h
2239 07-03-2008 15:56:02 10.3 C 4.6 g/m*3 10.3 C 0 km/h
2240 07-03-2008 16:08:02 10.1 C 4.73 g/m*3 10.1 C 0 km/h
2241 07-03-2008 16:20:02 9.9 C 4.76 g/m*3 9.9 C 0 km/h
2242 07-03-2008 16:32:03 9.8 C 4.82 g/m*3 9.8 C 0 km/h
2243 07-03-2008 16:44:03 9.5 C 4.73 g/m*3 9.5 C 0 km/h
2244 07-03-2008 16:56:03 9.2 C 4.73 g/m*3 9.2 C 0 km/h
2245 07-03-2008 17:08:02 9.3 C 4.85 g/m*3 9.3 C 0 km/h
2246 07-03-2008 17:20:02 9.4 C 4.88 g/m*3 9.4 C 0 km/h
2247 07-03-2008 17:32:03 9.5 C 4.92 g/m*3 9.5 C 0 km/h
2248 07-03-2008 17:44:04 9.4 C 4.97 g/m*3 9.4 C 0 km/h
2249 07-03-2008 17:56:02 9.3 C 5.03 g/m*3 9.3 C 0 km/h
2250 07-03-2008 18:08:01 9.2 C 5.09 g/m*3 9.2 C 0 km/h
Sensor: Nr:Datum:Temp:Abs-Feuchte:Windchill:Wind:
Aussen-T/F 2251 07-03-2008 18:20:01 9 C 5.11 g/m*3 9 C 0 km/h
2252 07-03-2008 18:32:01 8.8 C 5.22 g/m*3 8.8 C 0 km/h
2253 07-03-2008 18:44:01 8.6 C 5.24 g/m*3 8.6 C 0 km/h
2254 07-03-2008 18:56:02 8.5 C 5.21 g/m*3 8.5 C 0 km/h
2255 07-03-2008 19:08:01 8.4 C 5.17 g/m*3 8.4 C 0 km/h
2256 07-03-2008 19:20:02 8.4 C 5.09 g/m*3 8.4 C 0 km/h
2257 07-03-2008 19:32:02 8.4 C 5.01 g/m*3 8.4 C 0 km/h
2258 07-03-2008 19:44:02 8.4 C 4.67 g/m*3 8.4 C 0 km/h
2259 07-03-2008 19:56:02 8.2 C 4.77 g/m*3 8.2 C 0 km/h
2260 07-03-2008 20:08:02 7.9 C 4.93 g/m*3 7.9 C 0 km/h
2261 07-03-2008 20:20:03 7.7 C 5.11 g/m*3 7.7 C 0 km/h
2262 07-03-2008 20:32:02 7.7 C 5.19 g/m*3 7.7 C 0 km/h
2263 07-03-2008 20:44:03 7.7 C 5.11 g/m*3 7.7 C 0 km/h
2264 07-03-2008 20:56:02 7.6 C 5.08 g/m*3 7.6 C 0 km/h
2265 07-03-2008 21:08:02 7.6 C 5.08 g/m*3 7.6 C 0 km/h
2266 07-03-2008 21:20:02 7.5 C 5.04 g/m*3 7.5 C 0 km/h
2267 07-03-2008 21:32:02 7.5 C 4.96 g/m*3 7.5 C 0 km/h
2268 07-03-2008 21:44:02 7.5 C 4.96 g/m*3 7.5 C 0 km/h
2269 07-03-2008 21:56:02 7.4 C 4.93 g/m*3 7.4 C 0 km/h
2270 07-03-2008 22:09:02 7.4 C 5.01 g/m*3 7.4 C 0 km/h
2271 07-03-2008 22:21:02 7.4 C 5.01 g/m*3 7.4 C 0 km/h
2272 07-03-2008 22:33:03 7.3 C 4.9 g/m*3 7.3 C 0 km/h
2273 07-03-2008 22:45:03 7.2 C 4.95 g/m*3 7.2 C 0 km/h
2274 07-03-2008 22:57:03 7.1 C 4.99 g/m*3 7.1 C 0 km/h
2275 07-03-2008 23:09:03 7.1 C 4.99 g/m*3 7.1 C 0 km/h
Sensor: Nr:Datum:Temp:Abs-Feuchte:Windchill:Wind:
Aussen-T/F 2276 07-03-2008 23:21:03 7 C 4.96 g/m*3 7 C 0 km/h
2277 07-03-2008 23:33:03 7.1 C 4.91 g/m*3 7.1 C 0 km/h
2278 07-03-2008 23:45:03 7.1 C 4.84 g/m*3 7.1 C 0 km/h
2279 07-03-2008 23:57:03 7.1 C 4.84 g/m*3 7.1 C 0 km/h
2280 08-03-2008 00:09:03 7 C 4.8 g/m*3 7 C 0 km/h
2281 08-03-2008 00:21:03 7.1 C 4.84 g/m*3 7.1 C 0 km/h
2282 08-03-2008 00:33:03 7 C 4.88 g/m*3 7 C 0 km/h
2283 08-03-2008 00:45:03 6.9 C 5 g/m*3 6.9 C 0 km/h
2284 08-03-2008 00:57:03 6.8 C 5.05 g/m*3 6.8 C 0 km/h
2285 08-03-2008 01:09:03 6.7 C 5.17 g/m*3 6.7 C 0 km/h
2286 08-03-2008 01:21:03 6.7 C 5.24 g/m*3 6.7 C 0 km/h
2287 08-03-2008 01:33:03 6.7 C 5.24 g/m*3 6.7 C 0 km/h
2288 08-03-2008 01:45:03 6.7 C 5.24 g/m*3 6.7 C 0 km/h
2289 08-03-2008 01:57:03 6.7 C 5.17 g/m*3 6.7 C 0 km/h
2290 08-03-2008 02:09:03 6.7 C 5.17 g/m*3 6.7 C 0 km/h
2291 08-03-2008 02:21:04 6.7 C 5.24 g/m*3 6.7 C 0 km/h
2292 08-03-2008 02:33:04 6.4 C 5.29 g/m*3 6.4 C 0 km/h
2293 08-03-2008 02:45:04 6.2 C 5.44 g/m*3 6.2 C 0 km/h
2294 08-03-2008 02:57:04 6.1 C 5.48 g/m*3 6.1 C 0 km/h
2295 08-03-2008 03:09:04 6.1 C 5.55 g/m*3 6.1 C 0 km/h
2296 08-03-2008 03:21:04 6 C 5.59 g/m*3 6 C 0 km/h
2297 08-03-2008 03:33:04 5.9 C 5.7 g/m*3 5.9 C 0 km/h
2298 08-03-2008 03:45:04 5.9 C 5.77 g/m*3 5.9 C 0 km/h
2299 08-03-2008 03:57:04 5.9 C 5.77 g/m*3 5.9 C 0 km/h
2300 08-03-2008 04:09:04 5.9 C 5.77 g/m*3 5.9 C 0 km/h
Sensor: Nr:Datum:Temp:Abs-Feuchte:Windchill:Wind:
Aussen-T/F 2301 08-03-2008 04:21:04 5.8 C 5.73 g/m*3 5.8 C 0 km/h
2302 08-03-2008 04:33:04 5.7 C 5.76 g/m*3 5.7 C 0 km/h
2303 08-03-2008 04:45:04 5.7 C 5.84 g/m*3 5.7 C 0 km/h
2304 08-03-2008 04:57:04 5.7 C 5.76 g/m*3 5.7 C 0 km/h
2305 08-03-2008 05:09:04 5.7 C 5.76 g/m*3 5.7 C 0 km/h
2306 08-03-2008 05:21:04 5.5 C 5.69 g/m*3 5.5 C 0 km/h
2307 08-03-2008 05:33:04 5.3 C 5.61 g/m*3 5.3 C 0 km/h
2308 08-03-2008 05:45:04 5.2 C 5.65 g/m*3 5.2 C 0 km/h
2309 08-03-2008 05:57:04 4.9 C 5.54 g/m*3 4.9 C 0 km/h
2310 08-03-2008 06:09:04 4.6 C 5.43 g/m*3 4.6 C 0 km/h
2311 08-03-2008 06:21:05 4.4 C 5.35 g/m*3 4.4 C 0 km/h
2312 08-03-2008 06:33:05 4.2 C 5.28 g/m*3 4.2 C 0 km/h
2313 08-03-2008 06:45:05 4.2 C 5.35 g/m*3 4.2 C 0 km/h
2314 08-03-2008 06:57:05 3.9 C 5.31 g/m*3 3.9 C 0 km/h
2315 08-03-2008 07:09:05 4.2 C 5.41 g/m*3 4.2 C 0 km/h
2316 08-03-2008 07:21:05 4.1 C 5.44 g/m*3 4.1 C 0 km/h
2317 08-03-2008 07:33:05 4.1 C 5.5 g/m*3 4.1 C 0 km/h
2318 08-03-2008 07:45:05 4.1 C 5.5 g/m*3 4.1 C 0 km/h
2319 08-03-2008 07:57:05 4.4 C 5.68 g/m*3 4.4 C 0 km/h
2320 08-03-2008 08:09:05 4.4 C 5.62 g/m*3 4.4 C 0 km/h
2321 08-03-2008 08:21:05 4.3 C 5.58 g/m*3 4.3 C 0 km/h
2322 08-03-2008 08:33:05 4 C 5.4 g/m*3 4 C 0 km/h
2323 08-03-2008 08:45:05 4 C 5.53 g/m*3 4 C 0 km/h
2324 08-03-2008 08:57:05 4.1 C 5.63 g/m*3 4.1 C 0 km/h
2325 08-03-2008 09:09:05 4.4 C 5.75 g/m*3 4.4 C 0 km/h
Sensor: Nr:Datum:Temp:Abs-Feuchte:Windchill:Wind:
Aussen-T/F 2326 08-03-2008 09:21:05 4.5 C 5.72 g/m*3 4.5 C 0 km/h
2327 08-03-2008 09:33:05 4.8 C 5.77 g/m*3 4.8 C 0 km/h
2328 08-03-2008 09:45:02 5.2 C 5.58 g/m*3 5.2 C 0 km/h
2329 08-03-2008 09:57:02 5.6 C 5.37 g/m*3 5.6 C 0 km/h
2330 08-03-2008 10:09:02 6 C 4.94 g/m*3 6 C 0 km/h
2331 08-03-2008 10:21:02 6.4 C 4.62 g/m*3 6.4 C 0 km/h
2332 08-03-2008 10:33:02 6.8 C 4.13 g/m*3 6.8 C 0 km/h
2333 08-03-2008 10:45:01 6.9 C 4.16 g/m*3 6.9 C 0 km/h
2334 08-03-2008 10:57:01 7.3 C 3.87 g/m*3 7.3 C 0 km/h
2335 08-03-2008 11:09:02 7.4 C 3.9 g/m*3 7.4 C 0 km/h
2336 08-03-2008 11:21:01 7.6 C 3.63 g/m*3 7.6 C 0 km/h
2337 08-03-2008 11:33:01 8.1 C 3.33 g/m*3 8.1 C 0 km/h
2338 08-03-2008 11:45:02 8.2 C 3.18 g/m*3 8.2 C 0 km/h
2339 08-03-2008 11:57:02 8.6 C 3.27 g/m*3 8.6 C 0 km/h
2340 08-03-2008 12:09:03 8.8 C 3.22 g/m*3 8.8 C 0 km/h
2341 08-03-2008 12:21:02 9.1 C 3.28 g/m*3 9.1 C 0 km/h
2342 08-03-2008 12:33:02 9.1 C 3.37 g/m*3 9.1 C 0 km/h
2343 08-03-2008 12:45:01 9.4 C 3.35 g/m*3 9.4 C 0 km/h
2344 08-03-2008 12:57:01 9.7 C 3.41 g/m*3 9.7 C 0 km/h
2345 08-03-2008 13:09:01 10 C 3.29 g/m*3 10 C 0 km/h
2346 08-03-2008 13:21:01 10.3 C 3.26 g/m*3 10.3 C 0 km/h
2347 08-03-2008 13:33:01 10.9 C 3.08 g/m*3 10.9 C 0 km/h
2348 08-03-2008 13:45:02 11 C 3.1 g/m*3 11 C 0 km/h
2349 08-03-2008 13:57:02 11.2 C 3.14 g/m*3 11.2 C 0 km/h
2350 08-03-2008 14:09:02 11.3 C 3.26 g/m*3 11.3 C 0 km/h
Sensor: Nr:Datum:Temp:Abs-Feuchte:Windchill:Wind:
Aussen-T/F 2351 08-03-2008 14:21:02 11.1 C 3.22 g/m*3 11.1 C 0 km/h
2352 08-03-2008 14:33:01 11.1 C 3.22 g/m*3 11.1 C 0 km/h
2353 08-03-2008 14:45:01 10.6 C 3.42 g/m*3 10.6 C 0 km/h
2354 08-03-2008 14:57:01 10.3 C 3.35 g/m*3 10.3 C 0 km/h
2355 08-03-2008 15:09:02 10.7 C 3.44 g/m*3 10.7 C 0 km/h
2356 08-03-2008 15:21:01 11.2 C 3.34 g/m*3 11.2 C 0 km/h
2357 08-03-2008 15:33:01 10.8 C 3.46 g/m*3 10.8 C 0 km/h
2358 08-03-2008 15:45:01 11.2 C 3.45 g/m*3 11.2 C 0 km/h
2359 08-03-2008 15:57:01 11.3 C 3.37 g/m*3 11.3 C 0 km/h
2360 08-03-2008 16:09:01 10.9 C 3.18 g/m*3 10.9 C 0 km/h
2361 08-03-2008 16:21:02 10.6 C 3.22 g/m*3 10.6 C 0 km/h
2362 08-03-2008 16:33:01 10.4 C 3.28 g/m*3 10.4 C 0 km/h
2363 08-03-2008 16:45:02 10.4 C 3.28 g/m*3 10.4 C 0 km/h
2364 08-03-2008 16:57:02 10.1 C 3.31 g/m*3 10.1 C 0 km/h
2365 08-03-2008 17:09:01 9.9 C 3.36 g/m*3 9.9 C 0 km/h
2366 08-03-2008 17:21:02 9.7 C 3.23 g/m*3 9.7 C 0 km/h
2367 08-03-2008 17:33:02 9.7 C 3.23 g/m*3 9.7 C 0 km/h
2368 08-03-2008 17:45:02 9.6 C 3.21 g/m*3 9.6 C 0 km/h
2369 08-03-2008 17:57:02 9.5 C 3.28 g/m*3 9.5 C 0 km/h
2370 08-03-2008 18:09:02 8.9 C 3.5 g/m*3 8.9 C 0 km/h
2371 08-03-2008 18:21:02 8.3 C 3.54 g/m*3 8.3 C 0 km/h
2372 08-03-2008 18:33:02 7.6 C 3.71 g/m*3 7.6 C 0 km/h
2373 08-03-2008 18:45:01 7.5 C 3.6 g/m*3 7.5 C 0 km/h
2374 08-03-2008 18:57:01 7.4 C 3.5 g/m*3 7.4 C 0 km/h
2375 08-03-2008 19:09:02 7.3 C 3.48 g/m*3 7.3 C 0 km/h
Sensor: Nr:Datum:Temp:Abs-Feuchte:Windchill:Wind:
Aussen-T/F 2376 08-03-2008 19:21:02 7.1 C 3.43 g/m*3 7.1 C 0 km/h
2377 08-03-2008 19:33:01 6.9 C 3.46 g/m*3 6.9 C 0 km/h
2378 08-03-2008 19:45:02 6.8 C 3.44 g/m*3 6.8 C 0 km/h
2379 08-03-2008 19:57:02 6.7 C 3.57 g/m*3 6.7 C 0 km/h
2380 08-03-2008 20:09:02 6.2 C 3.6 g/m*3 6.2 C 0 km/h
2381 08-03-2008 20:21:02 6.1 C 3.65 g/m*3 6.1 C 0 km/h
2382 08-03-2008 20:33:01 6 C 3.63 g/m*3 6 C 0 km/h
2383 08-03-2008 20:45:02 6 C 3.63 g/m*3 6 C 0 km/h
2384 08-03-2008 20:57:02 5.8 C 3.72 g/m*3 5.8 C 0 km/h
2385 08-03-2008 21:09:02 5.5 C 3.79 g/m*3 5.5 C 0 km/h
2386 08-03-2008 21:21:02 5.6 C 3.68 g/m*3 5.6 C 0 km/h
2387 08-03-2008 21:33:02 5.4 C 3.7 g/m*3 5.4 C 0 km/h
2388 08-03-2008 21:45:03 5.4 C 3.7 g/m*3 5.4 C 0 km/h
2389 08-03-2008 21:57:03 5.2 C 3.79 g/m*3 5.2 C 0 km/h
2390 08-03-2008 22:09:02 5 C 3.74 g/m*3 5 C 0 km/h
2391 08-03-2008 22:21:02 4.8 C 3.76 g/m*3 4.8 C 0 km/h
2392 08-03-2008 22:34:03 4.6 C 3.77 g/m*3 4.6 C 0 km/h
2393 08-03-2008 22:46:03 4.5 C 3.81 g/m*3 4.5 C 0 km/h
2394 08-03-2008 22:58:03 4.5 C 3.88 g/m*3 4.5 C 0 km/h
2395 08-03-2008 23:10:03 4.5 C 3.88 g/m*3 4.5 C 0 km/h
2396 08-03-2008 23:22:04 4.5 C 3.94 g/m*3 4.5 C 0 km/h
2397 08-03-2008 23:34:04 4.3 C 3.96 g/m*3 4.3 C 0 km/h
2398 08-03-2008 23:46:04 4.4 C 4.05 g/m*3 4.4 C 0 km/h
2399 08-03-2008 23:58:04 4.5 C 4.14 g/m*3 4.5 C 0 km/h
2400 09-03-2008 00:10:04 4.4 C 4.11 g/m*3 4.4 C 0 km/h
Sensor: Nr:Datum:Temp:Abs-Feuchte:Windchill:Wind:
Aussen-T/F 2401 09-03-2008 00:22:04 4.4 C 4.11 g/m*3 4.4 C 0 km/h
2402 09-03-2008 00:34:04 4.1 C 4.1 g/m*3 4.1 C 0 km/h
2403 09-03-2008 00:46:04 4 C 4.13 g/m*3 4 C 0 km/h
2404 09-03-2008 00:58:04 3.8 C 4.2 g/m*3 3.8 C 0 km/h
2405 09-03-2008 01:10:04 4 C 4.26 g/m*3 4 C 0 km/h
2406 09-03-2008 01:22:04 4.1 C 4.29 g/m*3 4.1 C 0 km/h
2407 09-03-2008 01:34:04 4.2 C 4.38 g/m*3 4.2 C 0 km/h
2408 09-03-2008 01:46:04 4.2 C 4.32 g/m*3 4.2 C 0 km/h
2409 09-03-2008 01:58:04 4 C 4.32 g/m*3 4 C 0 km/h
2410 09-03-2008 02:10:04 4.1 C 4.48 g/m*3 4.1 C 0 km/h
2411 09-03-2008 02:22:04 4.6 C 4.7 g/m*3 4.6 C 0 km/h
2412 09-03-2008 02:34:04 4.8 C 4.69 g/m*3 4.8 C 0 km/h
2413 09-03-2008 02:46:04 5 C 4.69 g/m*3 5 C 0 km/h
2414 09-03-2008 02:58:04 5.3 C 4.57 g/m*3 5.3 C 0 km/h
2415 09-03-2008 03:10:05 5.5 C 4.49 g/m*3 5.5 C 0 km/h
2416 09-03-2008 03:22:05 5.7 C 4.48 g/m*3 5.7 C 0 km/h
2417 09-03-2008 03:34:05 5.7 C 4.41 g/m*3 5.7 C 0 km/h
2418 09-03-2008 03:46:05 5.8 C 4.37 g/m*3 5.8 C 0 km/h
2419 09-03-2008 03:58:05 5.9 C 4.25 g/m*3 5.9 C 0 km/h
2420 09-03-2008 04:10:05 5.9 C 4.25 g/m*3 5.9 C 0 km/h
2421 09-03-2008 04:22:05 5.9 C 4.25 g/m*3 5.9 C 0 km/h
2422 09-03-2008 04:34:05 5.8 C 4.3 g/m*3 5.8 C 0 km/h
2423 09-03-2008 04:46:05 5.8 C 4.3 g/m*3 5.8 C 0 km/h
2424 09-03-2008 04:58:05 5.8 C 4.3 g/m*3 5.8 C 0 km/h
2425 09-03-2008 05:10:05 5.7 C 4.27 g/m*3 5.7 C 0 km/h
Sensor: Nr:Datum:Temp:Abs-Feuchte:Windchill:Wind:
Aussen-T/F 2426 09-03-2008 05:22:05 5.5 C 4.21 g/m*3 5.5 C 0 km/h
2427 09-03-2008 05:34:05 5.4 C 4.19 g/m*3 5.4 C 0 km/h
2428 09-03-2008 05:46:05 5.3 C 4.23 g/m*3 5.3 C 0 km/h
2429 09-03-2008 05:58:05 5.2 C 4.27 g/m*3 5.2 C 0 km/h
2430 09-03-2008 06:10:05 5.2 C 4.27 g/m*3 5.2 C 0 km/h
2431 09-03-2008 06:22:05 5.2 C 4.34 g/m*3 5.2 C 0 km/h
2432 09-03-2008 06:34:05 5.2 C 4.34 g/m*3 5.2 C 0 km/h
2433 09-03-2008 06:46:05 5.4 C 4.33 g/m*3 5.4 C 0 km/h
2434 09-03-2008 06:58:05 5.5 C 4.28 g/m*3 5.5 C 0 km/h
2435 09-03-2008 07:10:06 5.6 C 4.31 g/m*3 5.6 C 0 km/h
2436 09-03-2008 07:22:06 5.8 C 4.3 g/m*3 5.8 C 0 km/h
2437 09-03-2008 07:34:06 6 C 4.21 g/m*3 6 C 0 km/h
2438 09-03-2008 07:46:06 6.1 C 4.24 g/m*3 6.1 C 0 km/h
2439 09-03-2008 07:58:06 6.2 C 4.19 g/m*3 6.2 C 0 km/h
2440 09-03-2008 08:10:06 6.5 C 4.27 g/m*3 6.5 C 0 km/h
2441 09-03-2008 08:22:06 6.7 C 4.26 g/m*3 6.7 C 0 km/h
2442 09-03-2008 08:34:06 6.8 C 4.21 g/m*3 6.8 C 0 km/h
2443 09-03-2008 08:46:01 7 C 4.18 g/m*3 7 C 0 km/h
2444 09-03-2008 08:58:01 7.2 C 4.16 g/m*3 7.2 C 0 km/h
2445 09-03-2008 09:10:02 7.7 C 4.14 g/m*3 7.7 C 0 km/h
2446 09-03-2008 09:22:02 8 C 4.05 g/m*3 8 C 0 km/h
2447 09-03-2008 09:34:01 7.9 C 4.11 g/m*3 7.9 C 0 km/h
2448 09-03-2008 09:46:03 7.8 C 4.08 g/m*3 7.8 C 0 km/h
2449 09-03-2008 09:58:03 8 C 4.05 g/m*3 8 C 0 km/h
2450 09-03-2008 10:10:02 8.1 C 3.99 g/m*3 8.1 C 0 km/h
Sensor: Nr:Datum:Temp:Abs-Feuchte:Windchill:Wind:
Aussen-T/F 2451 09-03-2008 10:22:02 8.4 C 4.07 g/m*3 8.4 C 0 km/h
2452 09-03-2008 10:34:02 9 C 4.06 g/m*3 9 C 0 km/h
2453 09-03-2008 10:46:02 9.3 C 3.95 g/m*3 9.3 C 0 km/h
2454 09-03-2008 10:58:02 10.1 C 3.97 g/m*3 10.1 C 0 km/h
2455 09-03-2008 11:10:03 10 C 3.85 g/m*3 10 C 0 km/h
2456 09-03-2008 11:22:02 9.9 C 3.92 g/m*3 9.9 C 0 km/h
2457 09-03-2008 11:34:02 10.1 C 3.97 g/m*3 10.1 C 0 km/h
2458 09-03-2008 11:46:02 10 C 3.95 g/m*3 10 C 0 km/h
2459 09-03-2008 11:58:02 9.9 C 4.01 g/m*3 9.9 C 0 km/h
2460 09-03-2008 12:10:02 10 C 3.95 g/m*3 10 C 0 km/h
2461 09-03-2008 12:22:03 9.8 C 3.99 g/m*3 9.8 C 0 km/h
2462 09-03-2008 12:34:02 9.8 C 3.99 g/m*3 9.8 C 0 km/h
2463 09-03-2008 12:46:02 9.9 C 4.01 g/m*3 9.9 C 0 km/h
2464 09-03-2008 12:58:02 9.8 C 3.99 g/m*3 9.8 C 0 km/h
2465 09-03-2008 13:10:01 10.3 C 3.93 g/m*3 10.3 C 0 km/h
2466 09-03-2008 13:22:02 10.1 C 3.88 g/m*3 10.1 C 0 km/h
2467 09-03-2008 13:34:02 10.1 C 3.88 g/m*3 10.1 C 0 km/h
2468 09-03-2008 13:46:02 10.1 C 3.88 g/m*3 10.1 C 0 km/h
2469 09-03-2008 13:58:02 10 C 3.85 g/m*3 10 C 0 km/h
2470 09-03-2008 14:10:02 10 C 3.85 g/m*3 10 C 0 km/h
2471 09-03-2008 14:22:02 10.2 C 3.9 g/m*3 10.2 C 0 km/h
2472 09-03-2008 14:34:02 10.5 C 3.98 g/m*3 10.5 C 0 km/h
2473 09-03-2008 14:46:02 10.6 C 3.81 g/m*3 10.6 C 0 km/h
2474 09-03-2008 14:58:02 10.9 C 3.68 g/m*3 10.9 C 0 km/h
2475 09-03-2008 15:10:01 11.2 C 3.55 g/m*3 11.2 C 0 km/h
Sensor: Nr:Datum:Temp:Abs-Feuchte:Windchill:Wind:
Aussen-T/F 2476 09-03-2008 15:22:01 11.2 C 3.55 g/m*3 11.2 C 0 km/h
2477 09-03-2008 15:34:02 11.3 C 3.47 g/m*3 11.3 C 0 km/h
2478 09-03-2008 15:46:03 11.4 C 3.49 g/m*3 11.4 C 0 km/h
2479 09-03-2008 15:58:03 11.1 C 3.32 g/m*3 11.1 C 0 km/h
2480 09-03-2008 16:10:03 10.8 C 3.46 g/m*3 10.8 C 0 km/h
2481 09-03-2008 16:22:02 10.9 C 3.48 g/m*3 10.9 C 0 km/h
2482 09-03-2008 16:34:02 10.8 C 3.46 g/m*3 10.8 C 0 km/h
2483 09-03-2008 16:46:02 10.6 C 3.42 g/m*3 10.6 C 0 km/h
2484 09-03-2008 16:58:03 10.5 C 3.49 g/m*3 10.5 C 0 km/h
2485 09-03-2008 17:10:01 10.4 C 3.57 g/m*3 10.4 C 0 km/h
2486 09-03-2008 17:22:02 10.3 C 3.54 g/m*3 10.3 C 0 km/h
2487 09-03-2008 17:34:02 10.2 C 3.52 g/m*3 10.2 C 0 km/h
2488 09-03-2008 17:46:02 10.1 C 3.69 g/m*3 10.1 C 0 km/h
2489 09-03-2008 17:58:02 10 C 3.57 g/m*3 10 C 0 km/h
2490 09-03-2008 18:10:02 10 C 3.57 g/m*3 10 C 0 km/h
2491 09-03-2008 18:22:02 10 C 3.57 g/m*3 10 C 0 km/h
2492 09-03-2008 18:34:02 9.8 C 3.62 g/m*3 9.8 C 0 km/h
2493 09-03-2008 18:46:02 9.6 C 3.66 g/m*3 9.6 C 0 km/h
2494 09-03-2008 18:58:02 9.4 C 3.62 g/m*3 9.4 C 0 km/h
2495 09-03-2008 19:10:02 9.3 C 3.59 g/m*3 9.3 C 0 km/h
2496 09-03-2008 19:22:02 9.4 C 3.71 g/m*3 9.4 C 0 km/h
2497 09-03-2008 19:34:02 9.1 C 3.73 g/m*3 9.1 C 0 km/h
2498 09-03-2008 19:46:02 9.1 C 3.73 g/m*3 9.1 C 0 km/h
2499 09-03-2008 19:58:02 9.1 C 3.73 g/m*3 9.1 C 0 km/h
2500 09-03-2008 20:10:02 9.1 C 3.82 g/m*3 9.1 C 0 km/h
Sensor: Nr:Datum:Temp:Abs-Feuchte:Windchill:Wind:
Aussen-T/F 2501 09-03-2008 20:22:02 9.1 C 3.73 g/m*3 9.1 C 0 km/h
2502 09-03-2008 20:34:02 9.1 C 3.73 g/m*3 9.1 C 0 km/h
2503 09-03-2008 20:46:02 9.1 C 3.73 g/m*3 9.1 C 0 km/h
2504 09-03-2008 20:58:02 9.2 C 3.66 g/m*3 9.2 C 0 km/h
2505 09-03-2008 21:10:02 9.3 C 3.77 g/m*3 9.3 C 0 km/h
2506 09-03-2008 21:22:02 9.4 C 3.71 g/m*3 9.4 C 0 km/h
2507 09-03-2008 21:34:02 9.7 C 3.78 g/m*3 9.7 C 0 km/h
2508 09-03-2008 21:46:02 9.7 C 3.78 g/m*3 9.7 C 0 km/h
2509 09-03-2008 21:58:02 9.6 C 3.94 g/m*3 9.6 C 0 km/h
2510 09-03-2008 22:10:03 9.6 C 4.12 g/m*3 9.6 C 0 km/h
2511 09-03-2008 22:23:02 9.5 C 4.19 g/m*3 9.5 C 0 km/h
2512 09-03-2008 22:35:02 9.5 C 4.19 g/m*3 9.5 C 0 km/h
2513 09-03-2008 22:47:02 9.5 C 4.28 g/m*3 9.5 C 0 km/h
2514 09-03-2008 22:59:02 9.3 C 4.31 g/m*3 9.3 C 0 km/h
2515 09-03-2008 23:11:02 9.1 C 4.26 g/m*3 9.1 C 0 km/h
2516 09-03-2008 23:23:02 9.1 C 4.44 g/m*3 9.1 C 0 km/h
2517 09-03-2008 23:35:02 9.1 C 4.44 g/m*3 9.1 C 0 km/h
2518 09-03-2008 23:47:02 8.9 C 4.47 g/m*3 8.9 C 0 km/h
2519 09-03-2008 23:59:02 8.9 C 4.47 g/m*3 8.9 C 0 km/h
2520 10-03-2008 00:11:03 8.7 C 4.41 g/m*3 8.7 C 0 km/h
2521 10-03-2008 00:23:03 8.6 C 4.38 g/m*3 8.6 C 0 km/h
2522 10-03-2008 00:35:03 8.2 C 4.27 g/m*3 8.2 C 0 km/h
2523 10-03-2008 00:47:03 7.9 C 4.35 g/m*3 7.9 C 0 km/h
2524 10-03-2008 00:59:03 7.9 C 4.35 g/m*3 7.9 C 0 km/h
2525 10-03-2008 01:11:03 7.5 C 4.32 g/m*3 7.5 C 0 km/h
Sensor: Nr:Datum:Temp:Abs-Feuchte:Windchill:Wind:
Aussen-T/F 2526 10-03-2008 01:23:03 7.3 C 4.42 g/m*3 7.3 C 0 km/h
2527 10-03-2008 01:35:03 7.3 C 4.42 g/m*3 7.3 C 0 km/h
2528 10-03-2008 01:47:03 7.6 C 4.51 g/m*3 7.6 C 0 km/h
2529 10-03-2008 01:59:03 7.8 C 4.49 g/m*3 7.8 C 0 km/h
2530 10-03-2008 02:11:03 7.8 C 4.49 g/m*3 7.8 C 0 km/h
2531 10-03-2008 02:23:03 7.9 C 4.44 g/m*3 7.9 C 0 km/h
2532 10-03-2008 02:35:03 8 C 4.38 g/m*3 8 C 0 km/h
2533 10-03-2008 02:47:03 8 C 4.3 g/m*3 8 C 0 km/h
2534 10-03-2008 02:59:03 7.7 C 4.62 g/m*3 7.7 C 0 km/h
2535 10-03-2008 03:11:03 7.2 C 4.87 g/m*3 7.2 C 0 km/h
2536 10-03-2008 03:23:03 7.1 C 4.91 g/m*3 7.1 C 0 km/h
2537 10-03-2008 03:35:03 7.1 C 4.91 g/m*3 7.1 C 0 km/h
2538 10-03-2008 03:47:03 7.5 C 4.88 g/m*3 7.5 C 0 km/h
2539 10-03-2008 03:59:03 7.7 C 4.62 g/m*3 7.7 C 0 km/h
2540 10-03-2008 04:11:04 7.8 C 4.57 g/m*3 7.8 C 0 km/h
2541 10-03-2008 04:23:04 7.6 C 4.51 g/m*3 7.6 C 0 km/h
2542 10-03-2008 04:35:04 7.4 C 4.53 g/m*3 7.4 C 0 km/h
2543 10-03-2008 04:47:04 7.2 C 4.4 g/m*3 7.2 C 0 km/h
2544 10-03-2008 04:59:04 7.1 C 4.29 g/m*3 7.1 C 0 km/h
2545 10-03-2008 05:11:04 6.8 C 4.36 g/m*3 6.8 C 0 km/h
2546 10-03-2008 05:23:04 6.6 C 4.23 g/m*3 6.6 C 0 km/h
2547 10-03-2008 05:35:04 6.7 C 4.26 g/m*3 6.7 C 0 km/h
2548 10-03-2008 05:47:04 7.1 C 4.21 g/m*3 7.1 C 0 km/h
2549 10-03-2008 05:59:04 7.5 C 4.16 g/m*3 7.5 C 0 km/h
2550 10-03-2008 06:11:04 7.5 C 4.08 g/m*3 7.5 C 0 km/h
Sensor: Nr:Datum:Temp:Abs-Feuchte:Windchill:Wind:
Aussen-T/F 2551 10-03-2008 06:23:04 7.4 C 4.06 g/m*3 7.4 C 0 km/h
2552 10-03-2008 06:35:04 7.2 C 4.08 g/m*3 7.2 C 0 km/h
2553 10-03-2008 06:47:04 7.1 C 4.21 g/m*3 7.1 C 0 km/h
2554 10-03-2008 06:59:04 6.3 C 4.59 g/m*3 6.3 C 0 km/h
2555 10-03-2008 07:11:02 5.9 C 4.76 g/m*3 5.9 C 0 km/h
2556 10-03-2008 07:23:02 5.7 C 4.77 g/m*3 5.7 C 0 km/h
2557 10-03-2008 07:35:02 5.8 C 4.87 g/m*3 5.8 C 0 km/h
2558 10-03-2008 07:47:01 6 C 4.79 g/m*3 6 C 0 km/h
2559 10-03-2008 07:59:01 6.2 C 4.78 g/m*3 6.2 C 0 km/h
2560 10-03-2008 08:11:01 6.7 C 4.71 g/m*3 6.7 C 0 km/h
2561 10-03-2008 08:23:02 7.1 C 4.68 g/m*3 7.1 C 0 km/h
2562 10-03-2008 08:35:01 7.4 C 4.61 g/m*3 7.4 C 0 km/h
2563 10-03-2008 08:47:01 7.5 C 4 g/m*3 7.5 C 0 km/h
2564 10-03-2008 08:59:01 7.5 C 4 g/m*3 7.5 C 0 km/h
2565 10-03-2008 09:11:01 7.7 C 4.05 g/m*3 7.7 C 0 km/h
2566 10-03-2008 09:23:02 8.1 C 3.99 g/m*3 8.1 C 0 km/h
2567 10-03-2008 09:35:01 8.5 C 4.1 g/m*3 8.5 C 0 km/h
2568 10-03-2008 09:47:01 9.1 C 3.99 g/m*3 9.1 C 0 km/h
2569 10-03-2008 09:59:01 9.3 C 3.68 g/m*3 9.3 C 0 km/h
2570 10-03-2008 10:11:01 9.5 C 3.64 g/m*3 9.5 C 0 km/h
2571 10-03-2008 10:23:02 9.6 C 3.57 g/m*3 9.6 C 0 km/h
2572 10-03-2008 10:35:01 9.6 C 3.57 g/m*3 9.6 C 0 km/h
2573 10-03-2008 10:47:02 9.7 C 3.5 g/m*3 9.7 C 0 km/h
2574 10-03-2008 10:59:02 10 C 3.29 g/m*3 10 C 0 km/h
2575 10-03-2008 11:11:01 10 C 3.1 g/m*3 10 C 0 km/h
Sensor: Nr:Datum:Temp:Abs-Feuchte:Windchill:Wind:
Aussen-T/F 2576 10-03-2008 11:23:02 9.9 C 3.08 g/m*3 9.9 C 0 km/h
2577 10-03-2008 11:35:02 10.1 C 3.03 g/m*3 10.1 C 0 km/h
2578 10-03-2008 11:47:02 10.4 C 2.99 g/m*3 10.4 C 0 km/h
2579 10-03-2008 11:59:02 10.5 C 3.01 g/m*3 10.5 C 0 km/h
2580 10-03-2008 12:11:02 10.9 C 3.18 g/m*3 10.9 C 0 km/h
2581 10-03-2008 12:23:02 10.8 C 3.06 g/m*3 10.8 C 0 km/h
2582 10-03-2008 12:35:02 10.8 C 2.97 g/m*3 10.8 C 0 km/h
2583 10-03-2008 12:47:02 10.9 C 2.98 g/m*3 10.9 C 0 km/h
2584 10-03-2008 12:59:02 11.4 C 3.08 g/m*3 11.4 C 0 km/h
2585 10-03-2008 13:11:02 11.8 C 2.95 g/m*3 11.8 C 0 km/h
2586 10-03-2008 13:23:02 11.8 C 2.95 g/m*3 11.8 C 0 km/h
2587 10-03-2008 13:35:02 12 C 2.77 g/m*3 12 C 0 km/h
2588 10-03-2008 13:47:01 12 C 2.66 g/m*3 12 C 0 km/h
2589 10-03-2008 13:59:01 11.9 C 2.75 g/m*3 11.9 C 0 km/h
2590 10-03-2008 14:11:01 11.6 C 2.81 g/m*3 11.6 C 0 km/h
2591 10-03-2008 14:23:02 11.3 C 3.26 g/m*3 11.3 C 0 km/h
2592 10-03-2008 14:35:01 10.7 C 3.83 g/m*3 10.7 C 0 km/h
2593 10-03-2008 14:47:01 11 C 3.5 g/m*3 11 C 0 km/h
2594 10-03-2008 14:59:01 10.7 C 3.44 g/m*3 10.7 C 0 km/h
2595 10-03-2008 15:11:01 10.8 C 3.56 g/m*3 10.8 C 0 km/h
2596 10-03-2008 15:23:02 10.7 C 3.44 g/m*3 10.7 C 0 km/h
2597 10-03-2008 15:35:01 10.8 C 3.06 g/m*3 10.8 C 0 km/h
2598 10-03-2008 15:47:02 11.1 C 2.62 g/m*3 11.1 C 0 km/h
2599 10-03-2008 15:59:02 10.5 C 3.01 g/m*3 10.5 C 0 km/h
2600 10-03-2008 16:11:01 10.2 C 3.33 g/m*3 10.2 C 0 km/h
Sensor: Nr:Datum:Temp:Abs-Feuchte:Windchill:Wind:
Aussen-T/F 2601 10-03-2008 16:23:02 9.7 C 3.69 g/m*3 9.7 C 0 km/h
2602 10-03-2008 16:35:01 8.5 C 4.27 g/m*3 8.5 C 0 km/h
2603 10-03-2008 16:47:01 7.6 C 4.75 g/m*3 7.6 C 0 km/h
2604 10-03-2008 16:59:01 7.1 C 4.99 g/m*3 7.1 C 0 km/h
2605 10-03-2008 17:11:02 6.7 C 5.24 g/m*3 6.7 C 0 km/h
2606 10-03-2008 17:23:02 6.6 C 5.44 g/m*3 6.6 C 0 km/h
2607 10-03-2008 17:35:01 6.3 C 5.33 g/m*3 6.3 C 0 km/h
2608 10-03-2008 17:47:02 6.1 C 5.33 g/m*3 6.1 C 0 km/h
2609 10-03-2008 17:59:02 6 C 5.52 g/m*3 6 C 0 km/h
2610 10-03-2008 18:11:02 5.9 C 5.62 g/m*3 5.9 C 0 km/h
2611 10-03-2008 18:23:01 5.9 C 5.7 g/m*3 5.9 C 0 km/h
2612 10-03-2008 18:35:01 5.8 C 5.66 g/m*3 5.8 C 0 km/h
2613 10-03-2008 18:47:02 5.8 C 5.73 g/m*3 5.8 C 0 km/h
2614 10-03-2008 18:59:02 5.8 C 5.8 g/m*3 5.8 C 0 km/h
2615 10-03-2008 19:11:03 6.2 C 5.74 g/m*3 6.2 C 0 km/h
2616 10-03-2008 19:23:02 6.5 C 5.62 g/m*3 6.5 C 0 km/h
2617 10-03-2008 19:35:02 7 C 5.42 g/m*3 7 C 0 km/h
2618 10-03-2008 19:47:01 7 C 5.27 g/m*3 7 C 0 km/h
2619 10-03-2008 19:59:01 7 C 5.04 g/m*3 7 C 0 km/h
2620 10-03-2008 20:11:01 7.2 C 4.87 g/m*3 7.2 C 0 km/h
2621 10-03-2008 20:23:02 7.4 C 4.77 g/m*3 7.4 C 0 km/h
2622 10-03-2008 20:35:01 7.4 C 4.61 g/m*3 7.4 C 0 km/h
2623 10-03-2008 20:47:02 7.4 C 4.61 g/m*3 7.4 C 0 km/h
2624 10-03-2008 20:59:02 7.5 C 4.56 g/m*3 7.5 C 0 km/h
2625 10-03-2008 21:11:02 7.6 C 4.51 g/m*3 7.6 C 0 km/h
Sensor: Nr:Datum:Temp:Abs-Feuchte:Windchill:Wind:
Aussen-T/F 2626 10-03-2008 21:23:01 7.7 C 4.54 g/m*3 7.7 C 0 km/h
2627 10-03-2008 21:35:02 7.8 C 4.41 g/m*3 7.8 C 0 km/h
2628 10-03-2008 21:47:02 7.8 C 4.49 g/m*3 7.8 C 0 km/h
2629 10-03-2008 21:59:02 8 C 4.22 g/m*3 8 C 0 km/h
2630 10-03-2008 22:12:03 8 C 4.13 g/m*3 8 C 0 km/h
2631 10-03-2008 22:24:03 8 C 4.13 g/m*3 8 C 0 km/h
2632 10-03-2008 22:36:03 8 C 4.05 g/m*3 8 C 0 km/h
2633 10-03-2008 22:48:03 8 C 4.05 g/m*3 8 C 0 km/h
2634 10-03-2008 23:00:03 8 C 4.05 g/m*3 8 C 0 km/h
2635 10-03-2008 23:12:03 8 C 4.13 g/m*3 8 C 0 km/h
2636 10-03-2008 23:24:03 8.1 C 4.16 g/m*3 8.1 C 0 km/h
2637 10-03-2008 23:36:03 8.1 C 4.16 g/m*3 8.1 C 0 km/h
2638 10-03-2008 23:48:03 8.2 C 4.19 g/m*3 8.2 C 0 km/h
2639 11-03-2008 00:00:03 8.1 C 4.16 g/m*3 8.1 C 0 km/h
2640 11-03-2008 00:12:03 8.1 C 4.24 g/m*3 8.1 C 0 km/h
2641 11-03-2008 00:24:03 8 C 4.22 g/m*3 8 C 0 km/h
2642 11-03-2008 00:36:04 8 C 4.3 g/m*3 8 C 0 km/h
2643 11-03-2008 00:48:04 7.9 C 4.44 g/m*3 7.9 C 0 km/h
2644 11-03-2008 01:00:04 8 C 4.38 g/m*3 8 C 0 km/h
2645 11-03-2008 01:12:04 7.9 C 4.6 g/m*3 7.9 C 0 km/h
2646 11-03-2008 01:24:04 7.9 C 4.6 g/m*3 7.9 C 0 km/h
2647 11-03-2008 01:36:04 8.1 C 4.58 g/m*3 8.1 C 0 km/h
2648 11-03-2008 01:48:04 8.1 C 4.49 g/m*3 8.1 C 0 km/h
2649 11-03-2008 02:00:04 8.1 C 4.49 g/m*3 8.1 C 0 km/h
2650 11-03-2008 02:12:04 8 C 4.55 g/m*3 8 C 0 km/h
Sensor: Nr:Datum:Temp:Abs-Feuchte:Windchill:Wind:
Aussen-T/F 2651 11-03-2008 02:24:04 8.1 C 4.58 g/m*3 8.1 C 0 km/h
2652 11-03-2008 02:36:04 8.1 C 4.58 g/m*3 8.1 C 0 km/h
2653 11-03-2008 02:48:04 8.1 C 4.66 g/m*3 8.1 C 0 km/h
2654 11-03-2008 03:00:04 7.9 C 4.85 g/m*3 7.9 C 0 km/h
2655 11-03-2008 03:12:04 7.8 C 4.9 g/m*3 7.8 C 0 km/h
2656 11-03-2008 03:24:04 7.6 C 5.08 g/m*3 7.6 C 0 km/h
2657 11-03-2008 03:36:04 7.5 C 5.2 g/m*3 7.5 C 0 km/h
2658 11-03-2008 03:48:04 7.5 C 5.2 g/m*3 7.5 C 0 km/h
2659 11-03-2008 04:00:04 7.4 C 5.25 g/m*3 7.4 C 0 km/h
2660 11-03-2008 04:12:04 7.5 C 5.12 g/m*3 7.5 C 0 km/h
2661 11-03-2008 04:24:04 7.6 C 5.08 g/m*3 7.6 C 0 km/h
2662 11-03-2008 04:36:05 7.6 C 5.08 g/m*3 7.6 C 0 km/h
2663 11-03-2008 04:48:05 7.6 C 4.91 g/m*3 7.6 C 0 km/h
2664 11-03-2008 05:00:05 7.5 C 4.96 g/m*3 7.5 C 0 km/h
2665 11-03-2008 05:12:05 7.4 C 5.01 g/m*3 7.4 C 0 km/h
2666 11-03-2008 05:24:05 7.3 C 5.06 g/m*3 7.3 C 0 km/h
2667 11-03-2008 05:36:05 7 C 5.11 g/m*3 7 C 0 km/h
2668 11-03-2008 05:48:05 6.9 C 5.23 g/m*3 6.9 C 0 km/h
2669 11-03-2008 06:00:05 6.8 C 5.28 g/m*3 6.8 C 0 km/h
2670 11-03-2008 06:12:05 6.9 C 5.23 g/m*3 6.9 C 0 km/h
2671 11-03-2008 06:24:05 7 C 5.11 g/m*3 7 C 0 km/h
2672 11-03-2008 06:36:05 7.2 C 4.95 g/m*3 7.2 C 0 km/h
2673 11-03-2008 06:48:05 7.3 C 4.9 g/m*3 7.3 C 0 km/h
2674 11-03-2008 07:00:05 7.2 C 4.95 g/m*3 7.2 C 0 km/h
2675 11-03-2008 07:12:02 7.1 C 5.07 g/m*3 7.1 C 0 km/h
Sensor: Nr:Datum:Temp:Abs-Feuchte:Windchill:Wind:
Aussen-T/F 2676 11-03-2008 07:24:02 6.7 C 5.32 g/m*3 6.7 C 0 km/h
2677 11-03-2008 07:36:02 6.4 C 5.59 g/m*3 6.4 C 0 km/h
2678 11-03-2008 07:48:02 6.4 C 5.66 g/m*3 6.4 C 0 km/h
2679 11-03-2008 08:00:03 6.3 C 5.63 g/m*3 6.3 C 0 km/h
2680 11-03-2008 08:12:01 6.3 C 5.77 g/m*3 6.3 C 0 km/h
2681 11-03-2008 08:24:02 6.1 C 5.48 g/m*3 6.1 C 0 km/h
2682 11-03-2008 08:36:01 6.1 C 5.48 g/m*3 6.1 C 0 km/h
2683 11-03-2008 08:48:02 6.2 C 5.52 g/m*3 6.2 C 0 km/h
2684 11-03-2008 09:00:02 6 C 5.44 g/m*3 6 C 0 km/h
2685 11-03-2008 09:12:01 5.9 C 5.41 g/m*3 5.9 C 0 km/h
2686 11-03-2008 09:24:02 6.1 C 5.48 g/m*3 6.1 C 0 km/h
2687 11-03-2008 09:36:02 6.2 C 5.59 g/m*3 6.2 C 0 km/h
2688 11-03-2008 09:48:02 6.4 C 5.66 g/m*3 6.4 C 0 km/h
2689 11-03-2008 10:00:03 6.8 C 5.66 g/m*3 6.8 C 0 km/h
2690 11-03-2008 10:12:02 7.5 C 5.44 g/m*3 7.5 C 0 km/h
2691 11-03-2008 10:24:02 7.9 C 5.26 g/m*3 7.9 C 0 km/h
2692 11-03-2008 10:36:02 8.3 C 5.14 g/m*3 8.3 C 0 km/h
2693 11-03-2008 10:48:02 8.5 C 5.04 g/m*3 8.5 C 0 km/h
2694 11-03-2008 11:00:02 8.8 C 4.96 g/m*3 8.8 C 0 km/h
2695 11-03-2008 11:12:01 9.2 C 4.82 g/m*3 9.2 C 0 km/h
2696 11-03-2008 11:24:02 9.2 C 4.82 g/m*3 9.2 C 0 km/h
2697 11-03-2008 11:36:02 9 C 4.58 g/m*3 9 C 0 km/h
2698 11-03-2008 11:48:02 9 C 4.67 g/m*3 9 C 0 km/h
2699 11-03-2008 12:00:02 8.8 C 4.79 g/m*3 8.8 C 0 km/h
2700 11-03-2008 12:12:02 9.5 C 5.01 g/m*3 9.5 C 0 km/h
Sensor: Nr:Datum:Temp:Abs-Feuchte:Windchill:Wind:
Aussen-T/F 2701 11-03-2008 12:24:02 8.3 C 5.14 g/m*3 8.3 C 0 km/h
2702 11-03-2008 12:36:02 8 C 5.37 g/m*3 8 C 0 km/h
2703 11-03-2008 12:48:02 8.5 C 5.72 g/m*3 8.5 C 0 km/h
2704 11-03-2008 13:00:02 9.1 C 4.88 g/m*3 9.1 C 0 km/h
2705 11-03-2008 13:12:02 9.8 C 4.55 g/m*3 9.8 C 0 km/h
2706 11-03-2008 13:24:03 10.4 C 4.14 g/m*3 10.4 C 0 km/h
2707 11-03-2008 13:36:02 9.7 C 4.24 g/m*3 9.7 C 0 km/h
2708 11-03-2008 13:48:01 9.9 C 4.2 g/m*3 9.9 C 0 km/h
2709 11-03-2008 14:00:01 9.9 C 4.01 g/m*3 9.9 C 0 km/h
2710 11-03-2008 14:12:01 9.6 C 3.85 g/m*3 9.6 C 0 km/h
2711 11-03-2008 14:24:02 9.8 C 4.08 g/m*3 9.8 C 0 km/h
2712 11-03-2008 14:36:01 10 C 3.76 g/m*3 10 C 0 km/h
2713 11-03-2008 14:48:01 9.7 C 3.69 g/m*3 9.7 C 0 km/h
2714 11-03-2008 15:00:01 9.5 C 3.73 g/m*3 9.5 C 0 km/h
2715 11-03-2008 15:12:02 9.8 C 3.71 g/m*3 9.8 C 0 km/h
2716 11-03-2008 15:24:02 9.8 C 3.71 g/m*3 9.8 C 0 km/h
2717 11-03-2008 15:36:01 9.7 C 3.69 g/m*3 9.7 C 0 km/h
2718 11-03-2008 15:48:01 10 C 3.76 g/m*3 10 C 0 km/h
2719 11-03-2008 16:00:01 10 C 3.76 g/m*3 10 C 0 km/h
2720 11-03-2008 16:12:02 9.9 C 3.83 g/m*3 9.9 C 0 km/h
2721 11-03-2008 16:24:02 9.8 C 3.9 g/m*3 9.8 C 0 km/h
2722 11-03-2008 16:36:01 9.1 C 4.35 g/m*3 9.1 C 0 km/h
2723 11-03-2008 16:48:01 8.7 C 4.67 g/m*3 8.7 C 0 km/h
2724 11-03-2008 17:00:01 8.6 C 4.73 g/m*3 8.6 C 0 km/h
2725 11-03-2008 17:12:02 8.4 C 4.75 g/m*3 8.4 C 0 km/h
Sensor: Nr:Datum:Temp:Abs-Feuchte:Windchill:Wind:
Aussen-T/F 2726 11-03-2008 17:24:01 8.4 C 4.84 g/m*3 8.4 C 0 km/h
2727 11-03-2008 17:36:01 8 C 5.04 g/m*3 8 C 0 km/h
2728 11-03-2008 17:48:01 7.6 C 5.24 g/m*3 7.6 C 0 km/h
2729 11-03-2008 18:00:01 7.4 C 5.49 g/m*3 7.4 C 0 km/h
2730 11-03-2008 18:12:02 7.3 C 5.53 g/m*3 7.3 C 0 km/h
2731 11-03-2008 18:24:01 7.6 C 5.64 g/m*3 7.6 C 0 km/h
2732 11-03-2008 18:36:01 7.6 C 5.72 g/m*3 7.6 C 0 km/h
2733 11-03-2008 18:48:01 7.4 C 5.96 g/m*3 7.4 C 0 km/h
2734 11-03-2008 19:00:01 7.4 C 6.2 g/m*3 7.4 C 0 km/h
2735 11-03-2008 19:12:01 7.5 C 6.32 g/m*3 7.5 C 0 km/h
2736 11-03-2008 19:24:02 8 C 6.37 g/m*3 8 C 0 km/h
2737 11-03-2008 19:36:01 8.4 C 6.36 g/m*3 8.4 C 0 km/h
2738 11-03-2008 19:48:02 8.4 C 6.28 g/m*3 8.4 C 0 km/h
2739 11-03-2008 20:00:02 8.6 C 6.44 g/m*3 8.6 C 0 km/h
2740 11-03-2008 20:12:01 8.5 C 6.57 g/m*3 8.5 C 0 km/h
2741 11-03-2008 20:24:02 8.6 C 6.62 g/m*3 8.6 C 0 km/h
2742 11-03-2008 20:36:02 8.9 C 6.75 g/m*3 8.9 C 0 km/h
2743 11-03-2008 20:48:02 9.2 C 6.79 g/m*3 9.2 C 0 km/h
2744 11-03-2008 21:00:02 9.5 C 6.83 g/m*3 9.5 C 0 km/h
2745 11-03-2008 21:12:02 9.8 C 6.77 g/m*3 9.8 C 0 km/h
2746 11-03-2008 21:24:03 9.8 C 6.77 g/m*3 9.8 C 0 km/h
2747 11-03-2008 21:36:02 9.8 C 6.96 g/m*3 9.8 C 0 km/h
2748 11-03-2008 21:48:02 9.7 C 7.1 g/m*3 9.7 C 0 km/h
2749 11-03-2008 22:00:02 9.9 C 7.28 g/m*3 9.9 C 0 km/h
2750 11-03-2008 22:12:02 10.1 C 7.38 g/m*3 10.1 C 0 km/h
Sensor: Nr:Datum:Temp:Abs-Feuchte:Windchill:Wind:
Aussen-T/F 2751 11-03-2008 22:25:01 10.5 C 7.47 g/m*3 10.5 C 0 km/h
2752 11-03-2008 22:37:01 10.7 C 7.56 g/m*3 10.7 C 0 km/h
2753 11-03-2008 22:49:01 10.7 C 7.66 g/m*3 10.7 C 0 km/h
2754 11-03-2008 23:01:01 11 C 7.61 g/m*3 11 C 0 km/h
2755 11-03-2008 23:13:01 11.3 C 7.75 g/m*3 11.3 C 0 km/h
2756 11-03-2008 23:25:01 11.1 C 7.96 g/m*3 11.1 C 0 km/h
2757 11-03-2008 23:37:01 11.1 C 8.06 g/m*3 11.1 C 0 km/h
2758 11-03-2008 23:49:01 11.1 C 8.16 g/m*3 11.1 C 0 km/h
2759 12-03-2008 00:01:02 11.3 C 8.16 g/m*3 11.3 C 0 km/h
2760 12-03-2008 00:13:02 11.9 C 7.2 g/m*3 11.9 C 0 km/h
2761 12-03-2008 00:25:02 12.2 C 6.47 g/m*3 12.2 C 0 km/h
2762 12-03-2008 00:37:02 12.4 C 6.34 g/m*3 12.4 C 0 km/h
2763 12-03-2008 00:49:02 12.4 C 6.01 g/m*3 12.4 C 0 km/h
2764 12-03-2008 01:01:02 12.6 C 5.53 g/m*3 12.6 C 0 km/h
2765 12-03-2008 01:13:02 12.3 C 5.43 g/m*3 12.3 C 0 km/h
2766 12-03-2008 01:25:02 11.9 C 5.61 g/m*3 11.9 C 0 km/h
2767 12-03-2008 01:37:02 11.7 C 5.23 g/m*3 11.7 C 0 km/h
2768 12-03-2008 01:49:02 11.5 C 5.27 g/m*3 11.5 C 0 km/h
2769 12-03-2008 02:01:02 11.1 C 5.24 g/m*3 11.1 C 0 km/h
2770 12-03-2008 02:13:02 10.9 C 5.47 g/m*3 10.9 C 0 km/h
2771 12-03-2008 02:25:02 9.9 C 6.07 g/m*3 9.9 C 0 km/h
2772 12-03-2008 02:37:02 9.5 C 6.37 g/m*3 9.5 C 0 km/h
2773 12-03-2008 02:49:02 9.2 C 6.61 g/m*3 9.2 C 0 km/h
2774 12-03-2008 03:01:02 9.2 C 6.61 g/m*3 9.2 C 0 km/h
2775 12-03-2008 03:13:02 9.1 C 6.57 g/m*3 9.1 C 0 km/h
Sensor: Nr:Datum:Temp:Abs-Feuchte:Windchill:Wind:
Aussen-T/F 2776 12-03-2008 03:25:02 9.1 C 6.57 g/m*3 9.1 C 0 km/h
2777 12-03-2008 03:37:02 9 C 6.7 g/m*3 9 C 0 km/h
2778 12-03-2008 03:49:02 9 C 6.7 g/m*3 9 C 0 km/h
2779 12-03-2008 04:01:02 9.2 C 6.43 g/m*3 9.2 C 0 km/h
2780 12-03-2008 04:13:03 9.5 C 6.28 g/m*3 9.5 C 0 km/h
2781 12-03-2008 04:25:03 9.4 C 6.06 g/m*3 9.4 C 0 km/h
2782 12-03-2008 04:37:03 9.2 C 5.89 g/m*3 9.2 C 0 km/h
2783 12-03-2008 04:49:03 9.4 C 5.88 g/m*3 9.4 C 0 km/h
2784 12-03-2008 05:01:03 9.3 C 5.66 g/m*3 9.3 C 0 km/h
2785 12-03-2008 05:13:03 9.2 C 5.54 g/m*3 9.2 C 0 km/h
2786 12-03-2008 05:25:03 9.1 C 5.5 g/m*3 9.1 C 0 km/h
2787 12-03-2008 05:37:03 9.3 C 5.39 g/m*3 9.3 C 0 km/h
2788 12-03-2008 05:49:03 9 C 5.29 g/m*3 9 C 0 km/h
2789 12-03-2008 06:01:03 9.2 C 5.18 g/m*3 9.2 C 0 km/h
2790 12-03-2008 06:13:03 9.1 C 5.06 g/m*3 9.1 C 0 km/h
2791 12-03-2008 06:25:03 9 C 5.11 g/m*3 9 C 0 km/h
2792 12-03-2008 06:37:03 9.1 C 4.97 g/m*3 9.1 C 0 km/h
2793 12-03-2008 06:49:03 9.1 C 4.79 g/m*3 9.1 C 0 km/h
2794 12-03-2008 07:01:01 9.1 C 4.79 g/m*3 9.1 C 0 km/h
2795 12-03-2008 07:13:01 9.1 C 4.79 g/m*3 9.1 C 0 km/h
2796 12-03-2008 07:25:02 9.1 C 4.79 g/m*3 9.1 C 0 km/h
2797 12-03-2008 07:37:02 9.3 C 4.76 g/m*3 9.3 C 0 km/h
2798 12-03-2008 07:49:02 9.3 C 4.76 g/m*3 9.3 C 0 km/h
2799 12-03-2008 08:01:02 9.3 C 4.67 g/m*3 9.3 C 0 km/h
2800 12-03-2008 08:13:02 9.4 C 4.61 g/m*3 9.4 C 0 km/h
Sensor: Nr:Datum:Temp:Abs-Feuchte:Windchill:Wind:
Aussen-T/F 2801 12-03-2008 08:25:02 9.5 C 4.55 g/m*3 9.5 C 0 km/h
2802 12-03-2008 08:37:02 9.3 C 4.67 g/m*3 9.3 C 0 km/h
2803 12-03-2008 08:49:02 8.8 C 4.87 g/m*3 8.8 C 0 km/h
2804 12-03-2008 09:01:02 9.4 C 4.25 g/m*3 9.4 C 0 km/h
2805 12-03-2008 09:13:02 9.6 C 4.12 g/m*3 9.6 C 0 km/h
2806 12-03-2008 09:25:02 8.1 C 4.66 g/m*3 8.1 C 0 km/h
2807 12-03-2008 09:37:02 7.9 C 5.09 g/m*3 7.9 C 0 km/h
2808 12-03-2008 09:49:02 8.4 C 4.75 g/m*3 8.4 C 0 km/h
2809 12-03-2008 10:01:02 8.7 C 4.32 g/m*3 8.7 C 0 km/h
2810 12-03-2008 10:13:02 9.2 C 3.66 g/m*3 9.2 C 0 km/h
2811 12-03-2008 10:25:01 8.1 C 3.49 g/m*3 8.1 C 0 km/h
2812 12-03-2008 10:37:02 8.2 C 3.68 g/m*3 8.2 C 0 km/h
2813 12-03-2008 10:49:02 8.5 C 3.5 g/m*3 8.5 C 0 km/h
2814 12-03-2008 11:01:01 8.8 C 3.22 g/m*3 8.8 C 0 km/h
2815 12-03-2008 11:13:01 8.9 C 3.33 g/m*3 8.9 C 0 km/h
2816 12-03-2008 11:25:01 8.6 C 3.27 g/m*3 8.6 C 0 km/h
2817 12-03-2008 11:37:01 9 C 3.09 g/m*3 9 C 0 km/h
2818 12-03-2008 11:49:01 9.8 C 2.6 g/m*3 9.8 C 0 km/h
2819 12-03-2008 12:01:02 10.1 C 2.46 g/m*3 10.1 C 0 km/h
2820 12-03-2008 12:13:02 10.2 C 2.47 g/m*3 10.2 C 0 km/h
2821 12-03-2008 12:25:01 10.7 C 2.75 g/m*3 10.7 C 0 km/h
2822 12-03-2008 12:37:01 11.5 C 2.58 g/m*3 11.5 C 0 km/h
2823 12-03-2008 12:49:01 11.3 C 2.04 g/m*3 11.3 C 0 km/h
2824 12-03-2008 13:01:02 11.1 C 2.01 g/m*3 11.1 C 0 km/h
2825 12-03-2008 13:13:02 10.9 C 2.19 g/m*3 10.9 C 0 km/h
Sensor: Nr:Datum:Temp:Abs-Feuchte:Windchill:Wind:
Aussen-T/F 2826 12-03-2008 13:25:02 10.9 C 2.19 g/m*3 10.9 C 0 km/h
2827 12-03-2008 13:37:01 10.9 C 2.09 g/m*3 10.9 C 0 km/h
2828 12-03-2008 13:49:02 11 C 2.1 g/m*3 11 C 0 km/h
2829 12-03-2008 14:01:02 10.9 C 2.49 g/m*3 10.9 C 0 km/h
2830 12-03-2008 14:13:02 10.6 C 2.54 g/m*3 10.6 C 0 km/h
2831 12-03-2008 14:25:02 10.6 C 2.44 g/m*3 10.6 C 0 km/h
2832 12-03-2008 14:37:02 10.5 C 2.62 g/m*3 10.5 C 0 km/h
2833 12-03-2008 14:49:02 10 C 2.82 g/m*3 10 C 0 km/h
2834 12-03-2008 15:01:02 9.8 C 2.97 g/m*3 9.8 C 0 km/h
2835 12-03-2008 15:13:02 9.6 C 3.02 g/m*3 9.6 C 0 km/h
2836 12-03-2008 15:25:03 9.6 C 3.02 g/m*3 9.6 C 0 km/h
2837 12-03-2008 15:37:02 9.4 C 3.17 g/m*3 9.4 C 0 km/h
2838 12-03-2008 15:49:02 9.5 C 3.19 g/m*3 9.5 C 0 km/h
2839 12-03-2008 16:01:01 10 C 3.1 g/m*3 10 C 0 km/h
2840 12-03-2008 16:13:01 9.5 C 3.46 g/m*3 9.5 C 0 km/h
2841 12-03-2008 16:25:01 9.7 C 3.69 g/m*3 9.7 C 0 km/h
2842 12-03-2008 16:37:02 9.2 C 3.66 g/m*3 9.2 C 0 km/h
2843 12-03-2008 16:49:02 9 C 3.7 g/m*3 9 C 0 km/h
2844 12-03-2008 17:01:02 8.8 C 3.74 g/m*3 8.8 C 0 km/h
2845 12-03-2008 17:13:02 8.7 C 3.81 g/m*3 8.7 C 0 km/h
2846 12-03-2008 17:25:01 8.9 C 3.85 g/m*3 8.9 C 0 km/h
2847 12-03-2008 17:37:01 9 C 3.7 g/m*3 9 C 0 km/h
2848 12-03-2008 17:49:01 8.9 C 3.77 g/m*3 8.9 C 0 km/h
2849 12-03-2008 18:01:02 8.4 C 3.73 g/m*3 8.4 C 0 km/h
2850 12-03-2008 18:13:02 8.1 C 3.74 g/m*3 8.1 C 0 km/h
Sensor: Nr:Datum:Temp:Abs-Feuchte:Windchill:Wind:
Aussen-T/F 2851 12-03-2008 18:25:01 7.9 C 3.78 g/m*3 7.9 C 0 km/h
2852 12-03-2008 18:37:01 7.9 C 3.78 g/m*3 7.9 C 0 km/h
2853 12-03-2008 18:49:02 7.8 C 3.67 g/m*3 7.8 C 0 km/h
2854 12-03-2008 19:01:01 7.8 C 3.67 g/m*3 7.8 C 0 km/h
2855 12-03-2008 19:13:01 7.6 C 3.71 g/m*3 7.6 C 0 km/h
2856 12-03-2008 19:25:02 7.5 C 3.68 g/m*3 7.5 C 0 km/h
2857 12-03-2008 19:37:02 7.6 C 3.71 g/m*3 7.6 C 0 km/h
2858 12-03-2008 19:49:02 7.5 C 3.68 g/m*3 7.5 C 0 km/h
2859 12-03-2008 20:01:02 7.5 C 3.68 g/m*3 7.5 C 0 km/h
2860 12-03-2008 20:13:02 7.4 C 3.66 g/m*3 7.4 C 0 km/h
2861 12-03-2008 20:25:02 7.4 C 3.58 g/m*3 7.4 C 0 km/h
2862 12-03-2008 20:37:02 7.4 C 3.66 g/m*3 7.4 C 0 km/h
2863 12-03-2008 20:49:02 7.4 C 3.58 g/m*3 7.4 C 0 km/h
2864 12-03-2008 21:01:02 7.4 C 3.58 g/m*3 7.4 C 0 km/h
2865 12-03-2008 21:13:02 7.4 C 3.58 g/m*3 7.4 C 0 km/h
2866 12-03-2008 21:25:01 7.3 C 3.56 g/m*3 7.3 C 0 km/h
2867 12-03-2008 21:37:02 7.1 C 3.51 g/m*3 7.1 C 0 km/h
2868 12-03-2008 21:49:02 7 C 3.49 g/m*3 7 C 0 km/h
2869 12-03-2008 22:01:02 7 C 3.41 g/m*3 7 C 0 km/h
2870 12-03-2008 22:13:02 7 C 3.25 g/m*3 7 C 0 km/h
2871 12-03-2008 22:25:02 6.8 C 3.29 g/m*3 6.8 C 0 km/h
2872 12-03-2008 22:37:02 6.7 C 3.27 g/m*3 6.7 C 0 km/h
2873 12-03-2008 22:49:02 6.4 C 3.28 g/m*3 6.4 C 0 km/h
2874 12-03-2008 23:01:02 6.4 C 3.28 g/m*3 6.4 C 0 km/h
2875 12-03-2008 23:13:02 6.2 C 3.24 g/m*3 6.2 C 0 km/h
Sensor: Nr:Datum:Temp:Abs-Feuchte:Windchill:Wind:
Aussen-T/F 2876 12-03-2008 23:25:02 6 C 3.27 g/m*3 6 C 0 km/h
2877 12-03-2008 23:37:02 6 C 3.27 g/m*3 6 C 0 km/h
2878 12-03-2008 23:49:02 5.8 C 3.3 g/m*3 5.8 C 0 km/h
2879 13-03-2008 00:01:02 5.8 C 3.3 g/m*3 5.8 C 0 km/h
2880 13-03-2008 00:13:02 5.7 C 3.27 g/m*3 5.7 C 0 km/h
2881 13-03-2008 00:25:02 5.7 C 3.27 g/m*3 5.7 C 0 km/h
2882 13-03-2008 00:37:02 5.8 C 3.3 g/m*3 5.8 C 0 km/h
2883 13-03-2008 00:49:02 6 C 3.27 g/m*3 6 C 0 km/h
2884 13-03-2008 01:01:03 6.1 C 3.29 g/m*3 6.1 C 0 km/h
2885 13-03-2008 01:13:03 6.2 C 3.31 g/m*3 6.2 C 0 km/h
2886 13-03-2008 01:25:03 6.1 C 3.29 g/m*3 6.1 C 0 km/h
2887 13-03-2008 01:37:02 6.2 C 3.31 g/m*3 6.2 C 0 km/h
2888 13-03-2008 01:49:01 6.4 C 3.35 g/m*3 6.4 C 0 km/h
2889 13-03-2008 02:01:02 6.3 C 3.33 g/m*3 6.3 C 0 km/h
2890 13-03-2008 02:13:02 6.2 C 3.31 g/m*3 6.2 C 0 km/h
2891 13-03-2008 02:25:02 6.2 C 3.31 g/m*3 6.2 C 0 km/h
2892 13-03-2008 02:37:01 6.2 C 3.31 g/m*3 6.2 C 0 km/h
2893 13-03-2008 02:50:03 6.1 C 3.36 g/m*3 6.1 C 0 km/h
2894 13-03-2008 03:02:03 6.1 C 3.36 g/m*3 6.1 C 0 km/h
2895 13-03-2008 03:14:04 5.9 C 3.39 g/m*3 5.9 C 0 km/h
2896 13-03-2008 03:26:04 5.8 C 3.44 g/m*3 5.8 C 0 km/h
2897 13-03-2008 03:38:01 5.9 C 3.46 g/m*3 5.9 C 0 km/h
2898 13-03-2008 03:50:01 5.8 C 3.44 g/m*3 5.8 C 0 km/h
2899 13-03-2008 04:02:02 6 C 3.41 g/m*3 6 C 0 km/h
2900 13-03-2008 04:14:02 5.9 C 3.46 g/m*3 5.9 C 0 km/h
Sensor: Nr:Datum:Temp:Abs-Feuchte:Windchill:Wind:
Aussen-T/F 2901 13-03-2008 04:26:02 6 C 3.41 g/m*3 6 C 0 km/h
2902 13-03-2008 04:38:01 5.8 C 3.51 g/m*3 5.8 C 0 km/h
2903 13-03-2008 04:50:01 5.6 C 3.53 g/m*3 5.6 C 0 km/h
2904 13-03-2008 05:02:02 5.6 C 3.61 g/m*3 5.6 C 0 km/h
2905 13-03-2008 05:14:02 5.6 C 3.61 g/m*3 5.6 C 0 km/h
2906 13-03-2008 05:26:02 5.6 C 3.68 g/m*3 5.6 C 0 km/h
2907 13-03-2008 05:38:01 5.6 C 3.68 g/m*3 5.6 C 0 km/h
2908 13-03-2008 05:50:01 5.6 C 3.75 g/m*3 5.6 C 0 km/h
2909 13-03-2008 06:02:02 5.7 C 3.84 g/m*3 5.7 C 0 km/h
2910 13-03-2008 06:14:02 5.6 C 3.89 g/m*3 5.6 C 0 km/h
2911 13-03-2008 06:26:01 5.8 C 3.94 g/m*3 5.8 C 0 km/h
2912 13-03-2008 06:38:02 5.8 C 3.87 g/m*3 5.8 C 0 km/h
2913 13-03-2008 06:50:02 5.7 C 3.84 g/m*3 5.7 C 0 km/h
2914 13-03-2008 07:02:01 5.8 C 3.94 g/m*3 5.8 C 0 km/h
2915 13-03-2008 07:14:02 5.8 C 4.01 g/m*3 5.8 C 0 km/h
2916 13-03-2008 07:26:01 5.5 C 4.35 g/m*3 5.5 C 0 km/h
2917 13-03-2008 07:38:02 5.3 C 4.44 g/m*3 5.3 C 0 km/h
2918 13-03-2008 07:50:02 5.3 C 4.44 g/m*3 5.3 C 0 km/h
2919 13-03-2008 08:02:02 5 C 4.48 g/m*3 5 C 0 km/h
2920 13-03-2008 08:14:02 5 C 4.62 g/m*3 5 C 0 km/h
2921 13-03-2008 08:26:01 5.4 C 4.67 g/m*3 5.4 C 0 km/h
2922 13-03-2008 08:38:02 5.4 C 4.54 g/m*3 5.4 C 0 km/h
2923 13-03-2008 08:50:02 5.4 C 4.47 g/m*3 5.4 C 0 km/h
2924 13-03-2008 09:02:02 5.6 C 4.38 g/m*3 5.6 C 0 km/h
2925 13-03-2008 09:14:02 5.7 C 4.41 g/m*3 5.7 C 0 km/h
Sensor: Nr:Datum:Temp:Abs-Feuchte:Windchill:Wind:
Aussen-T/F 2926 13-03-2008 09:26:03 6.2 C 4.34 g/m*3 6.2 C 0 km/h
2927 13-03-2008 09:38:02 6.6 C 4.38 g/m*3 6.6 C 0 km/h
2928 13-03-2008 09:50:01 7 C 4.26 g/m*3 7 C 0 km/h
2929 13-03-2008 10:02:01 7.4 C 4.29 g/m*3 7.4 C 0 km/h
2930 13-03-2008 10:14:01 7.5 C 4.32 g/m*3 7.5 C 0 km/h
2931 13-03-2008 10:26:02 7.8 C 4.41 g/m*3 7.8 C 0 km/h
2932 13-03-2008 10:38:01 8.2 C 4.02 g/m*3 8.2 C 0 km/h
2933 13-03-2008 10:50:02 8.3 C 3.88 g/m*3 8.3 C 0 km/h
2934 13-03-2008 11:02:01 8.4 C 3.82 g/m*3 8.4 C 0 km/h
2935 13-03-2008 11:14:01 8.1 C 3.91 g/m*3 8.1 C 0 km/h
2936 13-03-2008 11:26:02 7.7 C 4.46 g/m*3 7.7 C 0 km/h
2937 13-03-2008 11:38:02 8 C 4.38 g/m*3 8 C 0 km/h
2938 13-03-2008 11:50:02 8.5 C 4.1 g/m*3 8.5 C 0 km/h
2939 13-03-2008 12:02:02 8.4 C 3.99 g/m*3 8.4 C 0 km/h
2940 13-03-2008 12:14:02 8.5 C 4.1 g/m*3 8.5 C 0 km/h
2941 13-03-2008 12:26:02 8.5 C 3.93 g/m*3 8.5 C 0 km/h
2942 13-03-2008 12:38:02 8.7 C 3.81 g/m*3 8.7 C 0 km/h
2943 13-03-2008 12:50:02 8.9 C 3.85 g/m*3 8.9 C 0 km/h
2944 13-03-2008 13:02:01 9 C 3.88 g/m*3 9 C 0 km/h
2945 13-03-2008 13:14:01 8.7 C 4.15 g/m*3 8.7 C 0 km/h
2946 13-03-2008 13:26:01 9.4 C 4.16 g/m*3 9.4 C 0 km/h
2947 13-03-2008 13:38:01 9.3 C 4.04 g/m*3 9.3 C 0 km/h
2948 13-03-2008 13:50:02 9.1 C 4.17 g/m*3 9.1 C 0 km/h
2949 13-03-2008 14:02:02 9.5 C 4.19 g/m*3 9.5 C 0 km/h
2950 13-03-2008 14:14:02 10.5 C 4.07 g/m*3 10.5 C 0 km/h
Sensor: Nr:Datum:Temp:Abs-Feuchte:Windchill:Wind:
Aussen-T/F 2951 13-03-2008 14:26:02 10.5 C 4.07 g/m*3 10.5 C 0 km/h
2952 13-03-2008 14:38:02 10.7 C 3.83 g/m*3 10.7 C 0 km/h
2953 13-03-2008 14:50:02 10.5 C 3.59 g/m*3 10.5 C 0 km/h
2954 13-03-2008 15:02:03 10.4 C 3.47 g/m*3 10.4 C 0 km/h
2955 13-03-2008 15:14:03 10.8 C 3.66 g/m*3 10.8 C 0 km/h
2956 13-03-2008 15:26:02 11.1 C 3.63 g/m*3 11.1 C 0 km/h
2957 13-03-2008 15:38:02 11.3 C 3.57 g/m*3 11.3 C 0 km/h
2958 13-03-2008 15:50:01 11.4 C 3.49 g/m*3 11.4 C 0 km/h
2959 13-03-2008 16:02:01 11 C 3.5 g/m*3 11 C 0 km/h
2960 13-03-2008 16:14:01 10.8 C 3.46 g/m*3 10.8 C 0 km/h
2961 13-03-2008 16:26:02 10.6 C 3.42 g/m*3 10.6 C 0 km/h
2962 13-03-2008 16:38:01 10.4 C 3.37 g/m*3 10.4 C 0 km/h
2963 13-03-2008 16:50:02 10.1 C 3.4 g/m*3 10.1 C 0 km/h
2964 13-03-2008 17:02:01 10 C 3.66 g/m*3 10 C 0 km/h
2965 13-03-2008 17:14:01 9.8 C 3.8 g/m*3 9.8 C 0 km/h
2966 13-03-2008 17:26:01 9.2 C 4.02 g/m*3 9.2 C 0 km/h
2967 13-03-2008 17:38:02 8.1 C 4.74 g/m*3 8.1 C 0 km/h
2968 13-03-2008 17:50:03 8 C 5.04 g/m*3 8 C 0 km/h
2969 13-03-2008 18:02:02 8.1 C 5.08 g/m*3 8.1 C 0 km/h
2970 13-03-2008 18:14:02 8.1 C 4.91 g/m*3 8.1 C 0 km/h
2971 13-03-2008 18:26:02 8.1 C 4.99 g/m*3 8.1 C 0 km/h
2972 13-03-2008 18:38:03 8.1 C 4.99 g/m*3 8.1 C 0 km/h
2973 13-03-2008 18:50:03 8.2 C 4.69 g/m*3 8.2 C 0 km/h
2974 13-03-2008 19:02:02 8.4 C 4.75 g/m*3 8.4 C 0 km/h
2975 13-03-2008 19:14:03 8.5 C 4.61 g/m*3 8.5 C 0 km/h
Sensor: Nr:Datum:Temp:Abs-Feuchte:Windchill:Wind:
Aussen-T/F 2976 13-03-2008 19:26:02 8.6 C 4.47 g/m*3 8.6 C 0 km/h
2977 13-03-2008 19:38:02 8.7 C 4.32 g/m*3 8.7 C 0 km/h
2978 13-03-2008 19:50:02 8.8 C 4.35 g/m*3 8.8 C 0 km/h
2979 13-03-2008 20:02:03 8.8 C 4.35 g/m*3 8.8 C 0 km/h
2980 13-03-2008 20:14:03 8.6 C 4.55 g/m*3 8.6 C 0 km/h
2981 13-03-2008 20:26:02 8.2 C 4.77 g/m*3 8.2 C 0 km/h
2982 13-03-2008 20:38:02 8.3 C 4.55 g/m*3 8.3 C 0 km/h
2983 13-03-2008 20:50:01 8.3 C 4.55 g/m*3 8.3 C 0 km/h
2984 13-03-2008 21:02:01 8.4 C 4.5 g/m*3 8.4 C 0 km/h
2985 13-03-2008 21:14:01 8.5 C 4.53 g/m*3 8.5 C 0 km/h
2986 13-03-2008 21:26:02 8.5 C 4.53 g/m*3 8.5 C 0 km/h
2987 13-03-2008 21:38:02 8.4 C 4.58 g/m*3 8.4 C 0 km/h
2988 13-03-2008 21:50:02 8.3 C 4.64 g/m*3 8.3 C 0 km/h
2989 13-03-2008 22:03:03 8.2 C 4.61 g/m*3 8.2 C 0 km/h
2990 13-03-2008 22:15:03 8.2 C 4.69 g/m*3 8.2 C 0 km/h
2991 13-03-2008 22:27:03 8.2 C 4.69 g/m*3 8.2 C 0 km/h
2992 13-03-2008 22:39:03 8.2 C 4.69 g/m*3 8.2 C 0 km/h
2993 13-03-2008 22:51:03 8.4 C 4.75 g/m*3 8.4 C 0 km/h
2994 13-03-2008 23:03:03 8.4 C 4.75 g/m*3 8.4 C 0 km/h
2995 13-03-2008 23:15:03 8.3 C 4.72 g/m*3 8.3 C 0 km/h
2996 13-03-2008 23:27:03 8.3 C 4.72 g/m*3 8.3 C 0 km/h
2997 13-03-2008 23:39:03 8.4 C 4.84 g/m*3 8.4 C 0 km/h
2998 13-03-2008 23:51:03 8.2 C 4.77 g/m*3 8.2 C 0 km/h
2999 14-03-2008 00:03:03 8.3 C 4.8 g/m*3 8.3 C 0 km/h
3000 14-03-2008 00:15:03 7.9 C 4.93 g/m*3 7.9 C 0 km/h
Sensor: Nr:Datum:Temp:Abs-Feuchte:Windchill:Wind:
Aussen-T/F 3001 14-03-2008 00:27:04 7.5 C 5.2 g/m*3 7.5 C 0 km/h
3002 14-03-2008 00:39:04 7.2 C 5.42 g/m*3 7.2 C 0 km/h
3003 14-03-2008 00:51:04 7 C 5.58 g/m*3 7 C 0 km/h
3004 14-03-2008 01:03:04 6.8 C 5.74 g/m*3 6.8 C 0 km/h
3005 14-03-2008 01:15:04 6.8 C 5.81 g/m*3 6.8 C 0 km/h
3006 14-03-2008 01:27:04 6.7 C 6 g/m*3 6.7 C 0 km/h
3007 14-03-2008 01:39:04 6.7 C 6.15 g/m*3 6.7 C 0 km/h
3008 14-03-2008 01:51:04 6.5 C 6.15 g/m*3 6.5 C 0 km/h
3009 14-03-2008 02:03:04 6.5 C 6.3 g/m*3 6.5 C 0 km/h
3010 14-03-2008 02:15:04 6.5 C 6.37 g/m*3 6.5 C 0 km/h
3011 14-03-2008 02:27:04 6.5 C 6.37 g/m*3 6.5 C 0 km/h
3012 14-03-2008 02:39:04 6.4 C 6.41 g/m*3 6.4 C 0 km/h
3013 14-03-2008 02:51:04 6.4 C 6.48 g/m*3 6.4 C 0 km/h
3014 14-03-2008 03:03:04 6.4 C 6.48 g/m*3 6.4 C 0 km/h
3015 14-03-2008 03:15:04 6.3 C 6.51 g/m*3 6.3 C 0 km/h
3016 14-03-2008 03:27:04 6.3 C 6.51 g/m*3 6.3 C 0 km/h
3017 14-03-2008 03:39:04 6.4 C 6.63 g/m*3 6.4 C 0 km/h
3018 14-03-2008 03:51:04 6.4 C 6.63 g/m*3 6.4 C 0 km/h
3019 14-03-2008 04:03:04 6.4 C 6.71 g/m*3 6.4 C 0 km/h
3020 14-03-2008 04:15:04 6.4 C 6.71 g/m*3 6.4 C 0 km/h
3021 14-03-2008 04:27:05 6.5 C 6.82 g/m*3 6.5 C 0 km/h
3022 14-03-2008 04:39:05 6.9 C 7.01 g/m*3 6.9 C 0 km/h
3023 14-03-2008 04:51:05 7.1 C 7.02 g/m*3 7.1 C 0 km/h
3024 14-03-2008 05:03:05 7.2 C 7.06 g/m*3 7.2 C 0 km/h
3025 14-03-2008 05:15:05 7.3 C 7.11 g/m*3 7.3 C 0 km/h
Sensor: Nr:Datum:Temp:Abs-Feuchte:Windchill:Wind:
Aussen-T/F 3026 14-03-2008 05:27:05 7.3 C 7.11 g/m*3 7.3 C 0 km/h
3027 14-03-2008 05:39:05 7.4 C 7.16 g/m*3 7.4 C 0 km/h
3028 14-03-2008 05:51:05 7.5 C 7.28 g/m*3 7.5 C 0 km/h
3029 14-03-2008 06:03:05 7.6 C 7.33 g/m*3 7.6 C 0 km/h
3030 14-03-2008 06:15:05 7.7 C 7.38 g/m*3 7.7 C 0 km/h
3031 14-03-2008 06:27:05 7.8 C 7.43 g/m*3 7.8 C 0 km/h
3032 14-03-2008 06:39:05 7.9 C 7.47 g/m*3 7.9 C 0 km/h
3033 14-03-2008 06:51:05 7.9 C 7.47 g/m*3 7.9 C 0 km/h
3034 14-03-2008 07:03:02 8.1 C 7.57 g/m*3 8.1 C 0 km/h
3035 14-03-2008 07:15:02 8.3 C 7.67 g/m*3 8.3 C 0 km/h
3036 14-03-2008 07:27:02 8.7 C 7.87 g/m*3 8.7 C 0 km/h
3037 14-03-2008 07:39:03 9.2 C 7.86 g/m*3 9.2 C 0 km/h
3038 14-03-2008 07:51:02 9.3 C 7.73 g/m*3 9.3 C 0 km/h
3039 14-03-2008 08:03:02 9.3 C 7.64 g/m*3 9.3 C 0 km/h
3040 14-03-2008 08:15:02 9.5 C 7.74 g/m*3 9.5 C 0 km/h
3041 14-03-2008 08:27:02 9.6 C 7.69 g/m*3 9.6 C 0 km/h
3042 14-03-2008 08:39:02 9.7 C 7.65 g/m*3 9.7 C 0 km/h
3043 14-03-2008 08:51:02 9.7 C 7.65 g/m*3 9.7 C 0 km/h
3044 14-03-2008 09:03:01 9.7 C 7.74 g/m*3 9.7 C 0 km/h
3045 14-03-2008 09:15:02 9.7 C 7.74 g/m*3 9.7 C 0 km/h
3046 14-03-2008 09:27:02 9.7 C 7.74 g/m*3 9.7 C 0 km/h
3047 14-03-2008 09:39:02 9.9 C 7.66 g/m*3 9.9 C 0 km/h
3048 14-03-2008 09:51:02 10.1 C 7.47 g/m*3 10.1 C 0 km/h
3049 14-03-2008 10:03:02 10.4 C 7.32 g/m*3 10.4 C 0 km/h
3050 14-03-2008 10:15:02 10.6 C 7.12 g/m*3 10.6 C 0 km/h
Sensor: Nr:Datum:Temp:Abs-Feuchte:Windchill:Wind:
Aussen-T/F 3051 14-03-2008 10:27:02 10.9 C 6.37 g/m*3 10.9 C 0 km/h
3052 14-03-2008 10:39:02 11.2 C 5.98 g/m*3 11.2 C 0 km/h
3053 14-03-2008 10:51:02 11.2 C 5.88 g/m*3 11.2 C 0 km/h
3054 14-03-2008 11:03:02 11.2 C 5.98 g/m*3 11.2 C 0 km/h
3055 14-03-2008 11:15:03 11.2 C 5.88 g/m*3 11.2 C 0 km/h
3056 14-03-2008 11:27:03 11.6 C 5.82 g/m*3 11.6 C 0 km/h
3057 14-03-2008 11:39:02 11.6 C 5.72 g/m*3 11.6 C 0 km/h
3058 14-03-2008 11:51:01 11.7 C 5.65 g/m*3 11.7 C 0 km/h
3059 14-03-2008 12:03:02 11.9 C 5.51 g/m*3 11.9 C 0 km/h
3060 14-03-2008 12:15:02 12.1 C 5.25 g/m*3 12.1 C 0 km/h
3061 14-03-2008 12:27:02 12.1 C 5.04 g/m*3 12.1 C 0 km/h
3062 14-03-2008 12:39:01 12 C 5.01 g/m*3 12 C 0 km/h
3063 14-03-2008 12:51:01 11.9 C 5.61 g/m*3 11.9 C 0 km/h
3064 14-03-2008 13:03:02 11.9 C 5.61 g/m*3 11.9 C 0 km/h
3065 14-03-2008 13:15:02 12 C 5.01 g/m*3 12 C 0 km/h
3066 14-03-2008 13:27:02 12 C 4.8 g/m*3 12 C 0 km/h
3067 14-03-2008 13:39:01 12 C 4.9 g/m*3 12 C 0 km/h
3068 14-03-2008 13:51:01 12.5 C 4.84 g/m*3 12.5 C 0 km/h
3069 14-03-2008 14:03:02 12.6 C 4.65 g/m*3 12.6 C 0 km/h
3070 14-03-2008 14:15:02 12.5 C 4.51 g/m*3 12.5 C 0 km/h
3071 14-03-2008 14:27:02 12.8 C 4.59 g/m*3 12.8 C 0 km/h
3072 14-03-2008 14:39:01 13 C 4.42 g/m*3 13 C 0 km/h
3073 14-03-2008 14:51:01 12.8 C 4.37 g/m*3 12.8 C 0 km/h
3074 14-03-2008 15:03:02 13 C 4.08 g/m*3 13 C 0 km/h
3075 14-03-2008 15:15:02 13 C 4.08 g/m*3 13 C 0 km/h
Sensor: Nr:Datum:Temp:Abs-Feuchte:Windchill:Wind:
Aussen-T/F 3076 14-03-2008 15:27:02 12.9 C 4.51 g/m*3 12.9 C 0 km/h
3077 14-03-2008 15:39:02 13 C 4.31 g/m*3 13 C 0 km/h
3078 14-03-2008 15:51:02 13 C 4.31 g/m*3 13 C 0 km/h
3079 14-03-2008 16:03:02 13.2 C 4.25 g/m*3 13.2 C 0 km/h
3080 14-03-2008 16:15:02 13 C 3.97 g/m*3 13 C 0 km/h
3081 14-03-2008 16:27:02 12.9 C 3.83 g/m*3 12.9 C 0 km/h
3082 14-03-2008 16:39:02 12.8 C 3.47 g/m*3 12.8 C 0 km/h
3083 14-03-2008 16:51:02 12.7 C 3.34 g/m*3 12.7 C 0 km/h
3084 14-03-2008 17:03:03 12.5 C 3.41 g/m*3 12.5 C 0 km/h
3085 14-03-2008 17:15:03 12.4 C 3.82 g/m*3 12.4 C 0 km/h
3086 14-03-2008 17:27:03 12 C 4.05 g/m*3 12 C 0 km/h
3087 14-03-2008 17:39:02 11.7 C 4.29 g/m*3 11.7 C 0 km/h
3088 14-03-2008 17:51:02 11.4 C 4.31 g/m*3 11.4 C 0 km/h
3089 14-03-2008 18:03:01 11.1 C 4.03 g/m*3 11.1 C 0 km/h
3090 14-03-2008 18:15:02 11 C 3.6 g/m*3 11 C 0 km/h
3091 14-03-2008 18:27:02 10.5 C 3.98 g/m*3 10.5 C 0 km/h
3092 14-03-2008 18:39:02 10.1 C 4.26 g/m*3 10.1 C 0 km/h
3093 14-03-2008 18:51:02 9.8 C 4.36 g/m*3 9.8 C 0 km/h
3094 14-03-2008 19:03:02 9.4 C 4.34 g/m*3 9.4 C 0 km/h
3095 14-03-2008 19:15:02 9.2 C 4.29 g/m*3 9.2 C 0 km/h
3096 14-03-2008 19:27:02 8.8 C 4.35 g/m*3 8.8 C 0 km/h
3097 14-03-2008 19:39:02 8.5 C 4.35 g/m*3 8.5 C 0 km/h
3098 14-03-2008 19:51:02 8.5 C 4.44 g/m*3 8.5 C 0 km/h
3099 14-03-2008 20:03:01 8.3 C 4.38 g/m*3 8.3 C 0 km/h
3100 14-03-2008 20:15:02 8.2 C 4.44 g/m*3 8.2 C 0 km/h
Sensor: Nr:Datum:Temp:Abs-Feuchte:Windchill:Wind:
Aussen-T/F 3101 14-03-2008 20:27:02 7.9 C 4.52 g/m*3 7.9 C 0 km/h
3102 14-03-2008 20:39:02 7.5 C 4.56 g/m*3 7.5 C 0 km/h
3103 14-03-2008 20:51:02 7.1 C 4.68 g/m*3 7.1 C 0 km/h
3104 14-03-2008 21:03:02 7.1 C 4.76 g/m*3 7.1 C 0 km/h
3105 14-03-2008 21:15:02 6.9 C 4.77 g/m*3 6.9 C 0 km/h
3106 14-03-2008 21:27:02 6.8 C 4.89 g/m*3 6.8 C 0 km/h
3107 14-03-2008 21:39:02 6.7 C 4.79 g/m*3 6.7 C 0 km/h
3108 14-03-2008 21:51:01 6.5 C 4.72 g/m*3 6.5 C 0 km/h
3109 14-03-2008 22:03:01 6.4 C 4.77 g/m*3 6.4 C 0 km/h
3110 14-03-2008 22:15:02 6.1 C 4.75 g/m*3 6.1 C 0 km/h
3111 14-03-2008 22:27:02 6 C 4.79 g/m*3 6 C 0 km/h
3112 14-03-2008 22:39:01 5.9 C 4.83 g/m*3 5.9 C 0 km/h
3113 14-03-2008 22:51:02 5.8 C 4.8 g/m*3 5.8 C 0 km/h
3114 14-03-2008 23:03:02 5.6 C 4.81 g/m*3 5.6 C 0 km/h
3115 14-03-2008 23:16:03 5.5 C 4.78 g/m*3 5.5 C 0 km/h
3116 14-03-2008 23:28:03 5.4 C 4.81 g/m*3 5.4 C 0 km/h
3117 14-03-2008 23:40:03 5.3 C 4.78 g/m*3 5.3 C 0 km/h
3118 14-03-2008 23:52:03 5.3 C 4.78 g/m*3 5.3 C 0 km/h
3119 15-03-2008 00:04:03 5 C 4.62 g/m*3 5 C 0 km/h
3120 15-03-2008 00:16:03 4.8 C 4.69 g/m*3 4.8 C 0 km/h
3121 15-03-2008 00:28:03 4.5 C 4.67 g/m*3 4.5 C 0 km/h
3122 15-03-2008 00:40:03 4.4 C 4.7 g/m*3 4.4 C 0 km/h
3123 15-03-2008 00:52:03 4.2 C 4.7 g/m*3 4.2 C 0 km/h
3124 15-03-2008 01:04:03 4.1 C 4.74 g/m*3 4.1 C 0 km/h
3125 15-03-2008 01:16:03 3.9 C 4.74 g/m*3 3.9 C 0 km/h
Sensor: Nr:Datum:Temp:Abs-Feuchte:Windchill:Wind:
Aussen-T/F 3126 15-03-2008 01:28:03 3.8 C 4.71 g/m*3 3.8 C 0 km/h
3127 15-03-2008 01:40:03 3.7 C 4.67 g/m*3 3.7 C 0 km/h
3128 15-03-2008 01:52:03 3.8 C 4.77 g/m*3 3.8 C 0 km/h
3129 15-03-2008 02:04:04 3.7 C 4.8 g/m*3 3.7 C 0 km/h
3130 15-03-2008 02:16:04 3.6 C 4.77 g/m*3 3.6 C 0 km/h
3131 15-03-2008 02:28:04 3.4 C 4.7 g/m*3 3.4 C 0 km/h
3132 15-03-2008 02:40:04 3.2 C 4.64 g/m*3 3.2 C 0 km/h
3133 15-03-2008 02:52:04 2.9 C 4.61 g/m*3 2.9 C 0 km/h
3134 15-03-2008 03:04:04 2.7 C 4.54 g/m*3 2.7 C 0 km/h
3135 15-03-2008 03:16:04 2.7 C 4.6 g/m*3 2.7 C 0 km/h
3136 15-03-2008 03:28:04 2.6 C 4.63 g/m*3 2.6 C 0 km/h
3137 15-03-2008 03:40:04 2.5 C 4.6 g/m*3 2.5 C 0 km/h
3138 15-03-2008 03:52:04 2.4 C 4.57 g/m*3 2.4 C 0 km/h
3139 15-03-2008 04:04:04 2.5 C 4.66 g/m*3 2.5 C 0 km/h
3140 15-03-2008 04:16:04 3 C 4.88 g/m*3 3 C 0 km/h
3141 15-03-2008 04:28:04 3.2 C 4.94 g/m*3 3.2 C 0 km/h
3142 15-03-2008 04:40:04 3.2 C 4.82 g/m*3 3.2 C 0 km/h
3143 15-03-2008 04:52:04 3.4 C 4.89 g/m*3 3.4 C 0 km/h
3144 15-03-2008 05:04:04 3.6 C 4.89 g/m*3 3.6 C 0 km/h
3145 15-03-2008 05:16:04 3.7 C 4.86 g/m*3 3.7 C 0 km/h
3146 15-03-2008 05:28:04 3.7 C 4.86 g/m*3 3.7 C 0 km/h
3147 15-03-2008 05:40:04 3.8 C 4.83 g/m*3 3.8 C 0 km/h
3148 15-03-2008 05:52:04 3.8 C 4.83 g/m*3 3.8 C 0 km/h
3149 15-03-2008 06:04:04 3.9 C 4.86 g/m*3 3.9 C 0 km/h
3150 15-03-2008 06:16:05 4 C 4.77 g/m*3 4 C 0 km/h
Sensor: Nr:Datum:Temp:Abs-Feuchte:Windchill:Wind:
Aussen-T/F 3151 15-03-2008 06:28:05 4 C 4.77 g/m*3 4 C 0 km/h
3152 15-03-2008 06:40:05 4.1 C 4.8 g/m*3 4.1 C 0 km/h
3153 15-03-2008 06:52:05 4.2 C 4.83 g/m*3 4.2 C 0 km/h
3154 15-03-2008 07:04:05 4.3 C 4.86 g/m*3 4.3 C 0 km/h
3155 15-03-2008 07:16:05 4.4 C 4.9 g/m*3 4.4 C 0 km/h
3156 15-03-2008 07:28:05 4.4 C 4.96 g/m*3 4.4 C 0 km/h
3157 15-03-2008 07:40:05 4.6 C 5.03 g/m*3 4.6 C 0 km/h
3158 15-03-2008 07:52:05 4.9 C 5.13 g/m*3 4.9 C 0 km/h
3159 15-03-2008 08:04:05 5.1 C 5.06 g/m*3 5.1 C 0 km/h
3160 15-03-2008 08:16:05 5.5 C 5.13 g/m*3 5.5 C 0 km/h
3161 15-03-2008 08:28:05 5.7 C 5.05 g/m*3 5.7 C 0 km/h
3162 15-03-2008 08:40:05 6.1 C 5.04 g/m*3 6.1 C 0 km/h
3163 15-03-2008 08:52:02 6.5 C 5.02 g/m*3 6.5 C 0 km/h
3164 15-03-2008 09:04:02 6.6 C 4.83 g/m*3 6.6 C 0 km/h
3165 15-03-2008 09:16:02 7.1 C 4.99 g/m*3 7.1 C 0 km/h
3166 15-03-2008 09:28:02 7.6 C 4.99 g/m*3 7.6 C 0 km/h
3167 15-03-2008 09:40:02 7.7 C 5.03 g/m*3 7.7 C 0 km/h
3168 15-03-2008 09:52:02 8.1 C 5.24 g/m*3 8.1 C 0 km/h
3169 15-03-2008 10:04:02 8.6 C 5.24 g/m*3 8.6 C 0 km/h
3170 15-03-2008 10:16:02 8.9 C 5.17 g/m*3 8.9 C 0 km/h
3171 15-03-2008 10:28:02 9.2 C 5.09 g/m*3 9.2 C 0 km/h
3172 15-03-2008 10:40:02 9.5 C 5.01 g/m*3 9.5 C 0 km/h
3173 15-03-2008 10:52:02 9.4 C 4.97 g/m*3 9.4 C 0 km/h
3174 15-03-2008 11:04:02 10.1 C 5.2 g/m*3 10.1 C 0 km/h
3175 15-03-2008 11:16:02 10.7 C 5.11 g/m*3 10.7 C 0 km/h
Sensor: Nr:Datum:Temp:Abs-Feuchte:Windchill:Wind:
Aussen-T/F 3176 15-03-2008 11:28:02 11.3 C 5.1 g/m*3 11.3 C 0 km/h
3177 15-03-2008 11:40:01 12.1 C 5.15 g/m*3 12.1 C 0 km/h
3178 15-03-2008 11:52:01 12.5 C 5.28 g/m*3 12.5 C 0 km/h
3179 15-03-2008 12:04:02 13.1 C 5.36 g/m*3 13.1 C 0 km/h
3180 15-03-2008 12:16:02 13.5 C 5.38 g/m*3 13.5 C 0 km/h
3181 15-03-2008 12:28:02 14.2 C 5.49 g/m*3 14.2 C 0 km/h
3182 15-03-2008 12:40:02 15 C 5.39 g/m*3 15 C 0 km/h
3183 15-03-2008 12:52:02 15.4 C 5.39 g/m*3 15.4 C 0 km/h
3184 15-03-2008 13:04:02 15.9 C 5.42 g/m*3 15.9 C 0 km/h
3185 15-03-2008 13:16:01 17.1 C 5.24 g/m*3 17.1 C 0 km/h
3186 15-03-2008 13:28:01 16.3 C 4.86 g/m*3 16.3 C 0 km/h
3187 15-03-2008 13:40:02 16.6 C 5.09 g/m*3 16.6 C 0 km/h
3188 15-03-2008 13:52:02 17.8 C 5.16 g/m*3 17.8 C 0 km/h
3189 15-03-2008 14:04:02 17.2 C 4.83 g/m*3 17.2 C 0 km/h
3190 15-03-2008 14:16:02 17.3 C 4.71 g/m*3 17.3 C 0 km/h
3191 15-03-2008 14:28:02 17.5 C 4.77 g/m*3 17.5 C 0 km/h
3192 15-03-2008 14:40:02 17.5 C 4.77 g/m*3 17.5 C 0 km/h
3193 15-03-2008 14:52:02 17.2 C 4.83 g/m*3 17.2 C 0 km/h
3194 15-03-2008 15:04:02 17.5 C 4.77 g/m*3 17.5 C 0 km/h
3195 15-03-2008 15:16:01 17.5 C 4.62 g/m*3 17.5 C 0 km/h
3196 15-03-2008 15:28:01 16.8 C 4.58 g/m*3 16.8 C 0 km/h
3197 15-03-2008 15:40:02 16.5 C 4.77 g/m*3 16.5 C 0 km/h
3198 15-03-2008 15:52:02 16.2 C 4.83 g/m*3 16.2 C 0 km/h
3199 15-03-2008 16:04:02 16.4 C 4.75 g/m*3 16.4 C 0 km/h
3200 15-03-2008 16:16:03 16.6 C 4.8 g/m*3 16.6 C 0 km/h
Sensor: Nr:Datum:Temp:Abs-Feuchte:Windchill:Wind:
Aussen-T/F 3201 15-03-2008 16:28:03 16.5 C 4.63 g/m*3 16.5 C 0 km/h
3202 15-03-2008 16:40:02 15.9 C 4.74 g/m*3 15.9 C 0 km/h
3203 15-03-2008 16:52:02 15.6 C 4.79 g/m*3 15.6 C 0 km/h
3204 15-03-2008 17:04:02 15.1 C 4.9 g/m*3 15.1 C 0 km/h
3205 15-03-2008 17:16:02 14.8 C 5.19 g/m*3 14.8 C 0 km/h
3206 15-03-2008 17:28:02 14.7 C 5.29 g/m*3 14.7 C 0 km/h
3207 15-03-2008 17:40:01 14.5 C 5.35 g/m*3 14.5 C 0 km/h
3208 15-03-2008 17:52:02 14.1 C 5.46 g/m*3 14.1 C 0 km/h
3209 15-03-2008 18:04:02 13.8 C 5.6 g/m*3 13.8 C 0 km/h
3210 15-03-2008 18:16:02 13.2 C 5.74 g/m*3 13.2 C 0 km/h
3211 15-03-2008 18:28:02 12.9 C 5.75 g/m*3 12.9 C 0 km/h
3212 15-03-2008 18:40:02 12.6 C 5.86 g/m*3 12.6 C 0 km/h
3213 15-03-2008 18:52:02 12.2 C 5.83 g/m*3 12.2 C 0 km/h
3214 15-03-2008 19:04:02 12 C 5.86 g/m*3 12 C 0 km/h
3215 15-03-2008 19:16:02 11.7 C 5.96 g/m*3 11.7 C 0 km/h
3216 15-03-2008 19:28:02 11.6 C 6.03 g/m*3 11.6 C 0 km/h
3217 15-03-2008 19:40:01 11.5 C 5.99 g/m*3 11.5 C 0 km/h
3218 15-03-2008 19:52:01 11.4 C 6.06 g/m*3 11.4 C 0 km/h
3219 15-03-2008 20:04:02 11.2 C 5.98 g/m*3 11.2 C 0 km/h
3220 15-03-2008 20:16:02 10.9 C 6.07 g/m*3 10.9 C 0 km/h
3221 15-03-2008 20:28:02 10.8 C 6.03 g/m*3 10.8 C 0 km/h
3222 15-03-2008 20:40:01 10.6 C 6.05 g/m*3 10.6 C 0 km/h
3223 15-03-2008 20:52:01 10.4 C 5.98 g/m*3 10.4 C 0 km/h
3224 15-03-2008 21:04:02 10.2 C 6 g/m*3 10.2 C 0 km/h
3225 15-03-2008 21:16:02 10.1 C 6.05 g/m*3 10.1 C 0 km/h
Sensor: Nr:Datum:Temp:Abs-Feuchte:Windchill:Wind:
Aussen-T/F 3226 15-03-2008 21:28:02 9.9 C 6.07 g/m*3 9.9 C 0 km/h
3227 15-03-2008 21:40:02 9.8 C 6.03 g/m*3 9.8 C 0 km/h
3228 15-03-2008 21:52:02 9.8 C 6.03 g/m*3 9.8 C 0 km/h
3229 15-03-2008 22:04:02 9.6 C 6.05 g/m*3 9.6 C 0 km/h
3230 15-03-2008 22:16:01 9.5 C 6.1 g/m*3 9.5 C 0 km/h
3231 15-03-2008 22:28:01 9.5 C 6.1 g/m*3 9.5 C 0 km/h
3232 15-03-2008 22:40:02 9.6 C 6.23 g/m*3 9.6 C 0 km/h
3233 15-03-2008 22:52:03 9.6 C 6.14 g/m*3 9.6 C 0 km/h
3234 15-03-2008 23:04:02 9.6 C 6.23 g/m*3 9.6 C 0 km/h
3235 15-03-2008 23:16:02 9.6 C 6.23 g/m*3 9.6 C 0 km/h
3236 15-03-2008 23:28:02 9.6 C 6.14 g/m*3 9.6 C 0 km/h
3237 15-03-2008 23:40:03 9.6 C 6.23 g/m*3 9.6 C 0 km/h
3238 15-03-2008 23:52:02 9.6 C 6.14 g/m*3 9.6 C 0 km/h
3239 16-03-2008 00:05:03 9.5 C 6.19 g/m*3 9.5 C 0 km/h
3240 16-03-2008 00:17:03 9.4 C 6.15 g/m*3 9.4 C 0 km/h </